<?xml version="1.0" encoding="utf-8"?>
<gpx xmlns:xsi="http://www.w3.org/2001/XMLSchema-instance" xmlns:xsd="http://www.w3.org/2001/XMLSchema" version="1.1" creator="Shapelink.com" xmlns="http://www.topografix.com/GPX/1/1" xmlns:gpxtpx="http://www.garmin.com/xmlschemas/TrackPointExtension/v1">
  <metadata>
    <name>Cykling 53.86 km, 2012-04-01</name>
    <desc></desc>
    <author><name>Alexander Engvall</name></author> 
    <time>2012-04-01T12:54:32Z</time>
  </metadata>
  <trk>
    <name>Cykling 53.86 km, 2012-04-01</name>
    <trkseg>
      <trkpt lat="59.4585695" lon="17.8048655">
        <ele>12.6</ele>
        <time>2012-04-01T12:54:32Z</time>
      </trkpt>
      <trkpt lat="59.4581382" lon="17.8044473">
        <ele>27</ele>
        <time>2012-04-01T12:54:38Z</time>
      </trkpt>
      <trkpt lat="59.4580646" lon="17.8044405">
        <ele>28</ele>
        <time>2012-04-01T12:54:40Z</time>
      </trkpt>
      <trkpt lat="59.4577771" lon="17.8045929">
        <ele>26</ele>
        <time>2012-04-01T12:54:45Z</time>
      </trkpt>
      <trkpt lat="59.4574529" lon="17.8050272">
        <ele>21.4</ele>
        <time>2012-04-01T12:54:52Z</time>
      </trkpt>
      <trkpt lat="59.4572226" lon="17.8054188">
        <ele>22.6</ele>
        <time>2012-04-01T12:54:57Z</time>
      </trkpt>
      <trkpt lat="59.4571776" lon="17.8055539">
        <ele>23</ele>
        <time>2012-04-01T12:54:59Z</time>
      </trkpt>
      <trkpt lat="59.4573513" lon="17.8058723">
        <ele>24.6</ele>
        <time>2012-04-01T12:55:05Z</time>
      </trkpt>
      <trkpt lat="59.4574739" lon="17.8059203">
        <ele>26.2</ele>
        <time>2012-04-01T12:55:08Z</time>
      </trkpt>
      <trkpt lat="59.45786" lon="17.8060795">
        <ele>29.2</ele>
        <time>2012-04-01T12:55:14Z</time>
      </trkpt>
      <trkpt lat="59.4582547" lon="17.8062399">
        <ele>31.2</ele>
        <time>2012-04-01T12:55:19Z</time>
      </trkpt>
      <trkpt lat="59.4586266" lon="17.8063367">
        <ele>34</ele>
        <time>2012-04-01T12:55:25Z</time>
      </trkpt>
      <trkpt lat="59.4589608" lon="17.806436">
        <ele>36.2</ele>
        <time>2012-04-01T12:55:32Z</time>
      </trkpt>
      <trkpt lat="59.459016" lon="17.8064417">
        <ele>36.4</ele>
        <time>2012-04-01T12:55:33Z</time>
      </trkpt>
      <trkpt lat="59.4594078" lon="17.8065002">
        <ele>37.8</ele>
        <time>2012-04-01T12:55:40Z</time>
      </trkpt>
      <trkpt lat="59.4598225" lon="17.8065569">
        <ele>38.2</ele>
        <time>2012-04-01T12:55:47Z</time>
      </trkpt>
      <trkpt lat="59.4602226" lon="17.806606">
        <ele>37.2</ele>
        <time>2012-04-01T12:55:53Z</time>
      </trkpt>
      <trkpt lat="59.4606411" lon="17.8066438">
        <ele>36.6</ele>
        <time>2012-04-01T12:55:59Z</time>
      </trkpt>
      <trkpt lat="59.4610119" lon="17.8066628">
        <ele>34.8</ele>
        <time>2012-04-01T12:56:03Z</time>
      </trkpt>
      <trkpt lat="59.4613815" lon="17.8066495">
        <ele>35</ele>
        <time>2012-04-01T12:56:08Z</time>
      </trkpt>
      <trkpt lat="59.4617762" lon="17.8066267">
        <ele>36</ele>
        <time>2012-04-01T12:56:15Z</time>
      </trkpt>
      <trkpt lat="59.4621595" lon="17.8065797">
        <ele>40.4</ele>
        <time>2012-04-01T12:56:20Z</time>
      </trkpt>
      <trkpt lat="59.46252" lon="17.8065086">
        <ele>38.8</ele>
        <time>2012-04-01T12:56:26Z</time>
      </trkpt>
      <trkpt lat="59.4629119" lon="17.8064081">
        <ele>39.4</ele>
        <time>2012-04-01T12:56:32Z</time>
      </trkpt>
      <trkpt lat="59.4632826" lon="17.8063766">
        <ele>38.6</ele>
        <time>2012-04-01T12:56:38Z</time>
      </trkpt>
      <trkpt lat="59.4636617" lon="17.8064806">
        <ele>37.8</ele>
        <time>2012-04-01T12:56:43Z</time>
      </trkpt>
      <trkpt lat="59.4637231" lon="17.8065147">
        <ele>38.2</ele>
        <time>2012-04-01T12:56:44Z</time>
      </trkpt>
      <trkpt lat="59.464" lon="17.8068541">
        <ele>36.8</ele>
        <time>2012-04-01T12:56:49Z</time>
      </trkpt>
      <trkpt lat="59.4642349" lon="17.8075258">
        <ele>35.8</ele>
        <time>2012-04-01T12:56:55Z</time>
      </trkpt>
      <trkpt lat="59.4642746" lon="17.8078016">
        <ele>34.4</ele>
        <time>2012-04-01T12:56:57Z</time>
      </trkpt>
      <trkpt lat="59.4642914" lon="17.8079423">
        <ele>33.8</ele>
        <time>2012-04-01T12:56:59Z</time>
      </trkpt>
      <trkpt lat="59.4642845" lon="17.8085261">
        <ele>32.2</ele>
        <time>2012-04-01T12:57:02Z</time>
      </trkpt>
      <trkpt lat="59.4642552" lon="17.8090993">
        <ele>31.8</ele>
        <time>2012-04-01T12:57:06Z</time>
      </trkpt>
      <trkpt lat="59.4642502" lon="17.8093825">
        <ele>31.8</ele>
        <time>2012-04-01T12:57:08Z</time>
      </trkpt>
      <trkpt lat="59.4642864" lon="17.8098084">
        <ele>31.6</ele>
        <time>2012-04-01T12:57:11Z</time>
      </trkpt>
      <trkpt lat="59.4643076" lon="17.809946">
        <ele>31.6</ele>
        <time>2012-04-01T12:57:13Z</time>
      </trkpt>
      <trkpt lat="59.4644453" lon="17.8105613">
        <ele>33.2</ele>
        <time>2012-04-01T12:57:18Z</time>
      </trkpt>
      <trkpt lat="59.4646139" lon="17.8112364">
        <ele>34.6</ele>
        <time>2012-04-01T12:57:23Z</time>
      </trkpt>
      <trkpt lat="59.4647661" lon="17.8118679">
        <ele>37.4</ele>
        <time>2012-04-01T12:57:30Z</time>
      </trkpt>
      <trkpt lat="59.464976" lon="17.8125186">
        <ele>39.4</ele>
        <time>2012-04-01T12:57:36Z</time>
      </trkpt>
      <trkpt lat="59.4651643" lon="17.8128615">
        <ele>41.4</ele>
        <time>2012-04-01T12:57:41Z</time>
      </trkpt>
      <trkpt lat="59.465224" lon="17.8129765">
        <ele>43</ele>
        <time>2012-04-01T12:57:44Z</time>
      </trkpt>
      <trkpt lat="59.4652884" lon="17.8130374">
        <ele>43.6</ele>
        <time>2012-04-01T12:57:47Z</time>
      </trkpt>
      <trkpt lat="59.4655162" lon="17.8126942">
        <ele>44.4</ele>
        <time>2012-04-01T12:57:53Z</time>
      </trkpt>
      <trkpt lat="59.4657489" lon="17.812049">
        <ele>43.2</ele>
        <time>2012-04-01T12:57:59Z</time>
      </trkpt>
      <trkpt lat="59.4659545" lon="17.8114194">
        <ele>43.2</ele>
        <time>2012-04-01T12:58:05Z</time>
      </trkpt>
      <trkpt lat="59.4661885" lon="17.8107364">
        <ele>43.2</ele>
        <time>2012-04-01T12:58:09Z</time>
      </trkpt>
      <trkpt lat="59.4664899" lon="17.8100947">
        <ele>42.8</ele>
        <time>2012-04-01T12:58:14Z</time>
      </trkpt>
      <trkpt lat="59.4667976" lon="17.809698">
        <ele>40</ele>
        <time>2012-04-01T12:58:18Z</time>
      </trkpt>
      <trkpt lat="59.4672215" lon="17.8093799">
        <ele>37</ele>
        <time>2012-04-01T12:58:23Z</time>
      </trkpt>
      <trkpt lat="59.4676649" lon="17.8092919">
        <ele>34.6</ele>
        <time>2012-04-01T12:58:29Z</time>
      </trkpt>
      <trkpt lat="59.4680358" lon="17.8093664">
        <ele>34.2</ele>
        <time>2012-04-01T12:58:33Z</time>
      </trkpt>
      <trkpt lat="59.4684116" lon="17.8095515">
        <ele>32.2</ele>
        <time>2012-04-01T12:58:37Z</time>
      </trkpt>
      <trkpt lat="59.4686717" lon="17.8099161">
        <ele>34</ele>
        <time>2012-04-01T12:58:45Z</time>
      </trkpt>
      <trkpt lat="59.46873" lon="17.8099532">
        <ele>34.2</ele>
        <time>2012-04-01T12:58:46Z</time>
      </trkpt>
      <trkpt lat="59.4689188" lon="17.8093459">
        <ele>30.8</ele>
        <time>2012-04-01T12:58:53Z</time>
      </trkpt>
      <trkpt lat="59.468978" lon="17.808589">
        <ele>28.8</ele>
        <time>2012-04-01T12:58:58Z</time>
      </trkpt>
      <trkpt lat="59.4690674" lon="17.8078165">
        <ele>26.8</ele>
        <time>2012-04-01T12:59:03Z</time>
      </trkpt>
      <trkpt lat="59.4691835" lon="17.8070586">
        <ele>24.8</ele>
        <time>2012-04-01T12:59:07Z</time>
      </trkpt>
      <trkpt lat="59.4693214" lon="17.8063005">
        <ele>22</ele>
        <time>2012-04-01T12:59:12Z</time>
      </trkpt>
      <trkpt lat="59.4695012" lon="17.8054634">
        <ele>20.6</ele>
        <time>2012-04-01T12:59:18Z</time>
      </trkpt>
      <trkpt lat="59.4696805" lon="17.8047557">
        <ele>18.6</ele>
        <time>2012-04-01T12:59:21Z</time>
      </trkpt>
      <trkpt lat="59.4698726" lon="17.804014">
        <ele>14.2</ele>
        <time>2012-04-01T12:59:25Z</time>
      </trkpt>
      <trkpt lat="59.470055" lon="17.8032584">
        <ele>11</ele>
        <time>2012-04-01T12:59:29Z</time>
      </trkpt>
      <trkpt lat="59.4701508" lon="17.8024365">
        <ele>9.2</ele>
        <time>2012-04-01T12:59:33Z</time>
      </trkpt>
      <trkpt lat="59.469965" lon="17.8015781">
        <ele>4.2</ele>
        <time>2012-04-01T12:59:38Z</time>
      </trkpt>
      <trkpt lat="59.4697445" lon="17.8009914">
        <ele>2.8</ele>
        <time>2012-04-01T12:59:41Z</time>
      </trkpt>
      <trkpt lat="59.4694547" lon="17.8003342">
        <ele>2</ele>
        <time>2012-04-01T12:59:45Z</time>
      </trkpt>
      <trkpt lat="59.4692055" lon="17.7997552">
        <ele>1.2</ele>
        <time>2012-04-01T12:59:49Z</time>
      </trkpt>
      <trkpt lat="59.4690977" lon="17.7994937">
        <ele>1.8</ele>
        <time>2012-04-01T12:59:51Z</time>
      </trkpt>
      <trkpt lat="59.468983" lon="17.7990954">
        <ele>3.2</ele>
        <time>2012-04-01T12:59:53Z</time>
      </trkpt>
      <trkpt lat="59.4690206" lon="17.7983717">
        <ele>5.4</ele>
        <time>2012-04-01T12:59:59Z</time>
      </trkpt>
      <trkpt lat="59.4692706" lon="17.7978105">
        <ele>5.2</ele>
        <time>2012-04-01T13:00:06Z</time>
      </trkpt>
      <trkpt lat="59.4696331" lon="17.7973284">
        <ele>4.6</ele>
        <time>2012-04-01T13:00:13Z</time>
      </trkpt>
      <trkpt lat="59.4699705" lon="17.7968817">
        <ele>3.8</ele>
        <time>2012-04-01T13:00:20Z</time>
      </trkpt>
      <trkpt lat="59.4703218" lon="17.7964245">
        <ele>4.2</ele>
        <time>2012-04-01T13:00:25Z</time>
      </trkpt>
      <trkpt lat="59.4704537" lon="17.7962898">
        <ele>5</ele>
        <time>2012-04-01T13:00:27Z</time>
      </trkpt>
      <trkpt lat="59.4706652" lon="17.7961557">
        <ele>5.4</ele>
        <time>2012-04-01T13:00:31Z</time>
      </trkpt>
      <trkpt lat="59.4710599" lon="17.7958574">
        <ele>6</ele>
        <time>2012-04-01T13:00:37Z</time>
      </trkpt>
      <trkpt lat="59.4714301" lon="17.7954112">
        <ele>5.8</ele>
        <time>2012-04-01T13:00:43Z</time>
      </trkpt>
      <trkpt lat="59.4717561" lon="17.7950703">
        <ele>6.8</ele>
        <time>2012-04-01T13:00:48Z</time>
      </trkpt>
      <trkpt lat="59.4721063" lon="17.7948217">
        <ele>7.6</ele>
        <time>2012-04-01T13:00:53Z</time>
      </trkpt>
      <trkpt lat="59.4723079" lon="17.794637">
        <ele>8.6</ele>
        <time>2012-04-01T13:00:56Z</time>
      </trkpt>
      <trkpt lat="59.4724212" lon="17.7944525">
        <ele>9</ele>
        <time>2012-04-01T13:00:58Z</time>
      </trkpt>
      <trkpt lat="59.4726151" lon="17.7936712">
        <ele>7.4</ele>
        <time>2012-04-01T13:01:03Z</time>
      </trkpt>
      <trkpt lat="59.4727066" lon="17.7931196">
        <ele>6.2</ele>
        <time>2012-04-01T13:01:08Z</time>
      </trkpt>
      <trkpt lat="59.4728181" lon="17.7924546">
        <ele>5.6</ele>
        <time>2012-04-01T13:01:13Z</time>
      </trkpt>
      <trkpt lat="59.472923" lon="17.791781">
        <ele>4.6</ele>
        <time>2012-04-01T13:01:18Z</time>
      </trkpt>
      <trkpt lat="59.4730711" lon="17.7910273">
        <ele>5.2</ele>
        <time>2012-04-01T13:01:24Z</time>
      </trkpt>
      <trkpt lat="59.4732692" lon="17.790412">
        <ele>5.8</ele>
        <time>2012-04-01T13:01:31Z</time>
      </trkpt>
      <trkpt lat="59.4733232" lon="17.790269">
        <ele>6.4</ele>
        <time>2012-04-01T13:01:33Z</time>
      </trkpt>
      <trkpt lat="59.4734778" lon="17.7897696">
        <ele>9</ele>
        <time>2012-04-01T13:01:40Z</time>
      </trkpt>
      <trkpt lat="59.4736283" lon="17.7891222">
        <ele>11.8</ele>
        <time>2012-04-01T13:01:49Z</time>
      </trkpt>
      <trkpt lat="59.4736791" lon="17.7888283">
        <ele>13</ele>
        <time>2012-04-01T13:01:53Z</time>
      </trkpt>
      <trkpt lat="59.4737663" lon="17.7884129">
        <ele>13</ele>
        <time>2012-04-01T13:01:58Z</time>
      </trkpt>
      <trkpt lat="59.4737896" lon="17.7883274">
        <ele>12.6</ele>
        <time>2012-04-01T13:01:59Z</time>
      </trkpt>
      <trkpt lat="59.4739933" lon="17.78791">
        <ele>10.4</ele>
        <time>2012-04-01T13:02:03Z</time>
      </trkpt>
      <trkpt lat="59.4740512" lon="17.7878297">
        <ele>9.8</ele>
        <time>2012-04-01T13:02:05Z</time>
      </trkpt>
      <trkpt lat="59.4743939" lon="17.7874976">
        <ele>7</ele>
        <time>2012-04-01T13:02:09Z</time>
      </trkpt>
      <trkpt lat="59.474788" lon="17.7871827">
        <ele>5</ele>
        <time>2012-04-01T13:02:15Z</time>
      </trkpt>
      <trkpt lat="59.4751926" lon="17.7869647">
        <ele>4.8</ele>
        <time>2012-04-01T13:02:20Z</time>
      </trkpt>
      <trkpt lat="59.4755692" lon="17.7868157">
        <ele>5.4</ele>
        <time>2012-04-01T13:02:25Z</time>
      </trkpt>
      <trkpt lat="59.4759945" lon="17.7866636">
        <ele>5.6</ele>
        <time>2012-04-01T13:02:31Z</time>
      </trkpt>
      <trkpt lat="59.4764207" lon="17.7865269">
        <ele>6.4</ele>
        <time>2012-04-01T13:02:37Z</time>
      </trkpt>
      <trkpt lat="59.4767954" lon="17.7864096">
        <ele>7</ele>
        <time>2012-04-01T13:02:42Z</time>
      </trkpt>
      <trkpt lat="59.4771723" lon="17.7862979">
        <ele>7</ele>
        <time>2012-04-01T13:02:47Z</time>
      </trkpt>
      <trkpt lat="59.477544" lon="17.7861637">
        <ele>7.2</ele>
        <time>2012-04-01T13:02:52Z</time>
      </trkpt>
      <trkpt lat="59.4779674" lon="17.7860084">
        <ele>8</ele>
        <time>2012-04-01T13:02:58Z</time>
      </trkpt>
      <trkpt lat="59.4783665" lon="17.7857864">
        <ele>8.8</ele>
        <time>2012-04-01T13:03:03Z</time>
      </trkpt>
      <trkpt lat="59.4787456" lon="17.7854984">
        <ele>9.4</ele>
        <time>2012-04-01T13:03:10Z</time>
      </trkpt>
      <trkpt lat="59.4790739" lon="17.7851793">
        <ele>10.4</ele>
        <time>2012-04-01T13:03:16Z</time>
      </trkpt>
      <trkpt lat="59.4793895" lon="17.784792">
        <ele>11.8</ele>
        <time>2012-04-01T13:03:23Z</time>
      </trkpt>
      <trkpt lat="59.4796724" lon="17.7843564">
        <ele>14.2</ele>
        <time>2012-04-01T13:03:31Z</time>
      </trkpt>
      <trkpt lat="59.4799298" lon="17.783885">
        <ele>17.2</ele>
        <time>2012-04-01T13:03:39Z</time>
      </trkpt>
      <trkpt lat="59.4801696" lon="17.7833241">
        <ele>19.2</ele>
        <time>2012-04-01T13:03:47Z</time>
      </trkpt>
      <trkpt lat="59.4803832" lon="17.7827077">
        <ele>19.4</ele>
        <time>2012-04-01T13:03:55Z</time>
      </trkpt>
      <trkpt lat="59.4805696" lon="17.7820366">
        <ele>19.6</ele>
        <time>2012-04-01T13:04:03Z</time>
      </trkpt>
      <trkpt lat="59.4807462" lon="17.7813391">
        <ele>19.8</ele>
        <time>2012-04-01T13:04:11Z</time>
      </trkpt>
      <trkpt lat="59.4809134" lon="17.7806641">
        <ele>20.6</ele>
        <time>2012-04-01T13:04:19Z</time>
      </trkpt>
      <trkpt lat="59.4810673" lon="17.7800243">
        <ele>21.6</ele>
        <time>2012-04-01T13:04:27Z</time>
      </trkpt>
      <trkpt lat="59.4812391" lon="17.7793338">
        <ele>22.6</ele>
        <time>2012-04-01T13:04:36Z</time>
      </trkpt>
      <trkpt lat="59.4813999" lon="17.7786757">
        <ele>23.8</ele>
        <time>2012-04-01T13:04:45Z</time>
      </trkpt>
      <trkpt lat="59.4815563" lon="17.7780315">
        <ele>25.4</ele>
        <time>2012-04-01T13:04:54Z</time>
      </trkpt>
      <trkpt lat="59.4817236" lon="17.7773482">
        <ele>27</ele>
        <time>2012-04-01T13:05:03Z</time>
      </trkpt>
      <trkpt lat="59.481875" lon="17.776669">
        <ele>29.4</ele>
        <time>2012-04-01T13:05:12Z</time>
      </trkpt>
      <trkpt lat="59.4819879" lon="17.7760045">
        <ele>32.4</ele>
        <time>2012-04-01T13:05:21Z</time>
      </trkpt>
      <trkpt lat="59.482077" lon="17.7753305">
        <ele>34.4</ele>
        <time>2012-04-01T13:05:30Z</time>
      </trkpt>
      <trkpt lat="59.4821681" lon="17.7746223">
        <ele>36</ele>
        <time>2012-04-01T13:05:39Z</time>
      </trkpt>
      <trkpt lat="59.4822604" lon="17.773863">
        <ele>36.6</ele>
        <time>2012-04-01T13:05:48Z</time>
      </trkpt>
      <trkpt lat="59.4823515" lon="17.7731309">
        <ele>36</ele>
        <time>2012-04-01T13:05:55Z</time>
      </trkpt>
      <trkpt lat="59.4824426" lon="17.7723786">
        <ele>35</ele>
        <time>2012-04-01T13:06:01Z</time>
      </trkpt>
      <trkpt lat="59.482543" lon="17.7715615">
        <ele>33.2</ele>
        <time>2012-04-01T13:06:07Z</time>
      </trkpt>
      <trkpt lat="59.482643" lon="17.7707266">
        <ele>31.6</ele>
        <time>2012-04-01T13:06:13Z</time>
      </trkpt>
      <trkpt lat="59.4827333" lon="17.770007">
        <ele>30.2</ele>
        <time>2012-04-01T13:06:18Z</time>
      </trkpt>
      <trkpt lat="59.4828316" lon="17.769235">
        <ele>27.8</ele>
        <time>2012-04-01T13:06:23Z</time>
      </trkpt>
      <trkpt lat="59.4829385" lon="17.7683686">
        <ele>24.4</ele>
        <time>2012-04-01T13:06:28Z</time>
      </trkpt>
      <trkpt lat="59.4830336" lon="17.7676051">
        <ele>20.8</ele>
        <time>2012-04-01T13:06:32Z</time>
      </trkpt>
      <trkpt lat="59.4831376" lon="17.7668171">
        <ele>17.2</ele>
        <time>2012-04-01T13:06:36Z</time>
      </trkpt>
      <trkpt lat="59.4832363" lon="17.7660225">
        <ele>13.6</ele>
        <time>2012-04-01T13:06:40Z</time>
      </trkpt>
      <trkpt lat="59.4833368" lon="17.7652382">
        <ele>11</ele>
        <time>2012-04-01T13:06:44Z</time>
      </trkpt>
      <trkpt lat="59.4834365" lon="17.764456">
        <ele>8.2</ele>
        <time>2012-04-01T13:06:48Z</time>
      </trkpt>
      <trkpt lat="59.4835399" lon="17.7636369">
        <ele>5.8</ele>
        <time>2012-04-01T13:06:52Z</time>
      </trkpt>
      <trkpt lat="59.4836103" lon="17.7629959">
        <ele>4.4</ele>
        <time>2012-04-01T13:06:55Z</time>
      </trkpt>
      <trkpt lat="59.483618" lon="17.7627786">
        <ele>4</ele>
        <time>2012-04-01T13:06:56Z</time>
      </trkpt>
      <trkpt lat="59.48355" lon="17.7619529">
        <ele>2.8</ele>
        <time>2012-04-01T13:07:00Z</time>
      </trkpt>
      <trkpt lat="59.4834778" lon="17.7615943">
        <ele>2.6</ele>
        <time>2012-04-01T13:07:02Z</time>
      </trkpt>
      <trkpt lat="59.4833968" lon="17.7612721">
        <ele>2.6</ele>
        <time>2012-04-01T13:07:03Z</time>
      </trkpt>
      <trkpt lat="59.4831473" lon="17.7606138">
        <ele>3.2</ele>
        <time>2012-04-01T13:07:09Z</time>
      </trkpt>
      <trkpt lat="59.4829154" lon="17.7602508">
        <ele>4.4</ele>
        <time>2012-04-01T13:07:13Z</time>
      </trkpt>
      <trkpt lat="59.4828493" lon="17.7601905">
        <ele>4.8</ele>
        <time>2012-04-01T13:07:14Z</time>
      </trkpt>
      <trkpt lat="59.4824577" lon="17.75996">
        <ele>7</ele>
        <time>2012-04-01T13:07:20Z</time>
      </trkpt>
      <trkpt lat="59.4821023" lon="17.7598684">
        <ele>9.2</ele>
        <time>2012-04-01T13:07:26Z</time>
      </trkpt>
      <trkpt lat="59.4817278" lon="17.7596717">
        <ele>13</ele>
        <time>2012-04-01T13:07:34Z</time>
      </trkpt>
      <trkpt lat="59.4813914" lon="17.7593687">
        <ele>15.8</ele>
        <time>2012-04-01T13:07:43Z</time>
      </trkpt>
      <trkpt lat="59.4811107" lon="17.7589427">
        <ele>19.8</ele>
        <time>2012-04-01T13:07:53Z</time>
      </trkpt>
      <trkpt lat="59.4808664" lon="17.7583993">
        <ele>22.4</ele>
        <time>2012-04-01T13:08:03Z</time>
      </trkpt>
      <trkpt lat="59.4806254" lon="17.7577994">
        <ele>23</ele>
        <time>2012-04-01T13:08:12Z</time>
      </trkpt>
      <trkpt lat="59.4803741" lon="17.7572084">
        <ele>22.6</ele>
        <time>2012-04-01T13:08:19Z</time>
      </trkpt>
      <trkpt lat="59.4801211" lon="17.7566237">
        <ele>21</ele>
        <time>2012-04-01T13:08:25Z</time>
      </trkpt>
      <trkpt lat="59.4798691" lon="17.7560584">
        <ele>19.2</ele>
        <time>2012-04-01T13:08:30Z</time>
      </trkpt>
      <trkpt lat="59.4797494" lon="17.7558275">
        <ele>18.4</ele>
        <time>2012-04-01T13:08:32Z</time>
      </trkpt>
      <trkpt lat="59.4795744" lon="17.7554762">
        <ele>18</ele>
        <time>2012-04-01T13:08:35Z</time>
      </trkpt>
      <trkpt lat="59.479259" lon="17.7548541">
        <ele>16.8</ele>
        <time>2012-04-01T13:08:40Z</time>
      </trkpt>
      <trkpt lat="59.4789896" lon="17.7541751">
        <ele>15.8</ele>
        <time>2012-04-01T13:08:45Z</time>
      </trkpt>
      <trkpt lat="59.4787747" lon="17.7535157">
        <ele>14.8</ele>
        <time>2012-04-01T13:08:50Z</time>
      </trkpt>
      <trkpt lat="59.4785802" lon="17.7529287">
        <ele>14.4</ele>
        <time>2012-04-01T13:08:55Z</time>
      </trkpt>
      <trkpt lat="59.4782944" lon="17.75232">
        <ele>15.4</ele>
        <time>2012-04-01T13:09:01Z</time>
      </trkpt>
      <trkpt lat="59.4780471" lon="17.7517934">
        <ele>15.6</ele>
        <time>2012-04-01T13:09:07Z</time>
      </trkpt>
      <trkpt lat="59.4779049" lon="17.7514425">
        <ele>15.8</ele>
        <time>2012-04-01T13:09:11Z</time>
      </trkpt>
      <trkpt lat="59.4778151" lon="17.7511669">
        <ele>15.8</ele>
        <time>2012-04-01T13:09:14Z</time>
      </trkpt>
      <trkpt lat="59.4776187" lon="17.7505656">
        <ele>15.8</ele>
        <time>2012-04-01T13:09:21Z</time>
      </trkpt>
      <trkpt lat="59.4773888" lon="17.7499108">
        <ele>16.4</ele>
        <time>2012-04-01T13:09:30Z</time>
      </trkpt>
      <trkpt lat="59.477321" lon="17.7496626">
        <ele>17.4</ele>
        <time>2012-04-01T13:09:33Z</time>
      </trkpt>
      <trkpt lat="59.4772418" lon="17.749226">
        <ele>17.6</ele>
        <time>2012-04-01T13:09:37Z</time>
      </trkpt>
      <trkpt lat="59.47706" lon="17.7489177">
        <ele>18</ele>
        <time>2012-04-01T13:09:41Z</time>
      </trkpt>
      <trkpt lat="59.4769507" lon="17.7487701">
        <ele>18</ele>
        <time>2012-04-01T13:09:43Z</time>
      </trkpt>
      <trkpt lat="59.4767047" lon="17.7480766">
        <ele>16</ele>
        <time>2012-04-01T13:09:49Z</time>
      </trkpt>
      <trkpt lat="59.4765374" lon="17.7473859">
        <ele>14.8</ele>
        <time>2012-04-01T13:09:54Z</time>
      </trkpt>
      <trkpt lat="59.4763995" lon="17.7467078">
        <ele>14</ele>
        <time>2012-04-01T13:09:59Z</time>
      </trkpt>
      <trkpt lat="59.4762859" lon="17.7460298">
        <ele>13</ele>
        <time>2012-04-01T13:10:04Z</time>
      </trkpt>
      <trkpt lat="59.4761963" lon="17.7453257">
        <ele>11.6</ele>
        <time>2012-04-01T13:10:09Z</time>
      </trkpt>
      <trkpt lat="59.4761639" lon="17.7445948">
        <ele>10</ele>
        <time>2012-04-01T13:10:14Z</time>
      </trkpt>
      <trkpt lat="59.4761794" lon="17.7438392">
        <ele>8.2</ele>
        <time>2012-04-01T13:10:19Z</time>
      </trkpt>
      <trkpt lat="59.4762296" lon="17.7430592">
        <ele>6.4</ele>
        <time>2012-04-01T13:10:24Z</time>
      </trkpt>
      <trkpt lat="59.4763043" lon="17.7422381">
        <ele>3</ele>
        <time>2012-04-01T13:10:29Z</time>
      </trkpt>
      <trkpt lat="59.4764214" lon="17.7414116">
        <ele>0.4</ele>
        <time>2012-04-01T13:10:34Z</time>
      </trkpt>
      <trkpt lat="59.476552" lon="17.7407348">
        <ele>0</ele>
        <time>2012-04-01T13:10:38Z</time>
      </trkpt>
      <trkpt lat="59.4767263" lon="17.7400825">
        <ele>0</ele>
        <time>2012-04-01T13:10:42Z</time>
      </trkpt>
      <trkpt lat="59.4769272" lon="17.7394853">
        <ele>0</ele>
        <time>2012-04-01T13:10:46Z</time>
      </trkpt>
      <trkpt lat="59.4771303" lon="17.7387571">
        <ele>0</ele>
        <time>2012-04-01T13:10:51Z</time>
      </trkpt>
      <trkpt lat="59.4773311" lon="17.7380712">
        <ele>0</ele>
        <time>2012-04-01T13:10:56Z</time>
      </trkpt>
      <trkpt lat="59.4775303" lon="17.7374429">
        <ele>0</ele>
        <time>2012-04-01T13:11:01Z</time>
      </trkpt>
      <trkpt lat="59.4777474" lon="17.736743">
        <ele>0</ele>
        <time>2012-04-01T13:11:07Z</time>
      </trkpt>
      <trkpt lat="59.4779338" lon="17.7360904">
        <ele>0</ele>
        <time>2012-04-01T13:11:13Z</time>
      </trkpt>
      <trkpt lat="59.4781085" lon="17.7353666">
        <ele>0</ele>
        <time>2012-04-01T13:11:20Z</time>
      </trkpt>
      <trkpt lat="59.4782455" lon="17.7347009">
        <ele>0</ele>
        <time>2012-04-01T13:11:27Z</time>
      </trkpt>
      <trkpt lat="59.4783702" lon="17.7339345">
        <ele>0.8</ele>
        <time>2012-04-01T13:11:35Z</time>
      </trkpt>
      <trkpt lat="59.4784641" lon="17.7331644">
        <ele>0.8</ele>
        <time>2012-04-01T13:11:43Z</time>
      </trkpt>
      <trkpt lat="59.4785282" lon="17.7324647">
        <ele>1.8</ele>
        <time>2012-04-01T13:11:50Z</time>
      </trkpt>
      <trkpt lat="59.4785813" lon="17.7316871">
        <ele>4</ele>
        <time>2012-04-01T13:11:58Z</time>
      </trkpt>
      <trkpt lat="59.4786094" lon="17.7309038">
        <ele>5.6</ele>
        <time>2012-04-01T13:12:06Z</time>
      </trkpt>
      <trkpt lat="59.4786178" lon="17.7301292">
        <ele>6.4</ele>
        <time>2012-04-01T13:12:14Z</time>
      </trkpt>
      <trkpt lat="59.4786543" lon="17.7295027">
        <ele>7.2</ele>
        <time>2012-04-01T13:12:21Z</time>
      </trkpt>
      <trkpt lat="59.4786705" lon="17.7294183">
        <ele>7.2</ele>
        <time>2012-04-01T13:12:22Z</time>
      </trkpt>
      <trkpt lat="59.4787351" lon="17.729068">
        <ele>7.4</ele>
        <time>2012-04-01T13:12:26Z</time>
      </trkpt>
      <trkpt lat="59.4787088" lon="17.7287138">
        <ele>7.4</ele>
        <time>2012-04-01T13:12:30Z</time>
      </trkpt>
      <trkpt lat="59.4786209" lon="17.7282813">
        <ele>8</ele>
        <time>2012-04-01T13:12:35Z</time>
      </trkpt>
      <trkpt lat="59.4786151" lon="17.7281889">
        <ele>8</ele>
        <time>2012-04-01T13:12:36Z</time>
      </trkpt>
      <trkpt lat="59.4786093" lon="17.7280025">
        <ele>8.4</ele>
        <time>2012-04-01T13:12:38Z</time>
      </trkpt>
      <trkpt lat="59.4785963" lon="17.7272487">
        <ele>9.6</ele>
        <time>2012-04-01T13:12:46Z</time>
      </trkpt>
      <trkpt lat="59.4785859" lon="17.7264749">
        <ele>10.6</ele>
        <time>2012-04-01T13:12:54Z</time>
      </trkpt>
      <trkpt lat="59.4785722" lon="17.7257194">
        <ele>11.4</ele>
        <time>2012-04-01T13:13:02Z</time>
      </trkpt>
      <trkpt lat="59.4785606" lon="17.7249583">
        <ele>12.4</ele>
        <time>2012-04-01T13:13:10Z</time>
      </trkpt>
      <trkpt lat="59.4785543" lon="17.7242258">
        <ele>12.8</ele>
        <time>2012-04-01T13:13:18Z</time>
      </trkpt>
      <trkpt lat="59.4785431" lon="17.7234701">
        <ele>14.6</ele>
        <time>2012-04-01T13:13:27Z</time>
      </trkpt>
      <trkpt lat="59.4785308" lon="17.7227495">
        <ele>16.2</ele>
        <time>2012-04-01T13:13:36Z</time>
      </trkpt>
      <trkpt lat="59.4785057" lon="17.7219724">
        <ele>15.2</ele>
        <time>2012-04-01T13:13:46Z</time>
      </trkpt>
      <trkpt lat="59.4785043" lon="17.7218917">
        <ele>15</ele>
        <time>2012-04-01T13:13:47Z</time>
      </trkpt>
      <trkpt lat="59.4784945" lon="17.7211779">
        <ele>13.6</ele>
        <time>2012-04-01T13:13:55Z</time>
      </trkpt>
      <trkpt lat="59.4784783" lon="17.7204003">
        <ele>14</ele>
        <time>2012-04-01T13:14:03Z</time>
      </trkpt>
      <trkpt lat="59.4784783" lon="17.7196376">
        <ele>14.8</ele>
        <time>2012-04-01T13:14:10Z</time>
      </trkpt>
      <trkpt lat="59.4784999" lon="17.7188749">
        <ele>14.8</ele>
        <time>2012-04-01T13:14:17Z</time>
      </trkpt>
      <trkpt lat="59.4785484" lon="17.7181019">
        <ele>14.6</ele>
        <time>2012-04-01T13:14:24Z</time>
      </trkpt>
      <trkpt lat="59.4786389" lon="17.7173435">
        <ele>13.8</ele>
        <time>2012-04-01T13:14:31Z</time>
      </trkpt>
      <trkpt lat="59.4787398" lon="17.7165918">
        <ele>13.6</ele>
        <time>2012-04-01T13:14:38Z</time>
      </trkpt>
      <trkpt lat="59.4788495" lon="17.7158232">
        <ele>13.2</ele>
        <time>2012-04-01T13:14:45Z</time>
      </trkpt>
      <trkpt lat="59.4789549" lon="17.7150493">
        <ele>12.6</ele>
        <time>2012-04-01T13:14:52Z</time>
      </trkpt>
      <trkpt lat="59.4790435" lon="17.7143527">
        <ele>11.8</ele>
        <time>2012-04-01T13:14:58Z</time>
      </trkpt>
      <trkpt lat="59.4791336" lon="17.7136634">
        <ele>12.4</ele>
        <time>2012-04-01T13:15:04Z</time>
      </trkpt>
      <trkpt lat="59.4792458" lon="17.7128716">
        <ele>12.6</ele>
        <time>2012-04-01T13:15:11Z</time>
      </trkpt>
      <trkpt lat="59.4793823" lon="17.7121282">
        <ele>13</ele>
        <time>2012-04-01T13:15:18Z</time>
      </trkpt>
      <trkpt lat="59.4795453" lon="17.7114205">
        <ele>15.8</ele>
        <time>2012-04-01T13:15:25Z</time>
      </trkpt>
      <trkpt lat="59.4797298" lon="17.7107239">
        <ele>18.2</ele>
        <time>2012-04-01T13:15:32Z</time>
      </trkpt>
      <trkpt lat="59.4799221" lon="17.7100685">
        <ele>21.8</ele>
        <time>2012-04-01T13:15:39Z</time>
      </trkpt>
      <trkpt lat="59.4801246" lon="17.709417">
        <ele>22.2</ele>
        <time>2012-04-01T13:15:46Z</time>
      </trkpt>
      <trkpt lat="59.4803384" lon="17.7087582">
        <ele>21.2</ele>
        <time>2012-04-01T13:15:53Z</time>
      </trkpt>
      <trkpt lat="59.4805307" lon="17.7081494">
        <ele>22.2</ele>
        <time>2012-04-01T13:15:59Z</time>
      </trkpt>
      <trkpt lat="59.480732" lon="17.707508">
        <ele>22.2</ele>
        <time>2012-04-01T13:16:05Z</time>
      </trkpt>
      <trkpt lat="59.4809467" lon="17.7068192">
        <ele>21.6</ele>
        <time>2012-04-01T13:16:12Z</time>
      </trkpt>
      <trkpt lat="59.4811658" lon="17.7061253">
        <ele>21.4</ele>
        <time>2012-04-01T13:16:19Z</time>
      </trkpt>
      <trkpt lat="59.4813863" lon="17.7054395">
        <ele>21.8</ele>
        <time>2012-04-01T13:16:26Z</time>
      </trkpt>
      <trkpt lat="59.4816066" lon="17.704788">
        <ele>22</ele>
        <time>2012-04-01T13:16:33Z</time>
      </trkpt>
      <trkpt lat="59.4818428" lon="17.7042032">
        <ele>25.4</ele>
        <time>2012-04-01T13:16:40Z</time>
      </trkpt>
      <trkpt lat="59.4820949" lon="17.7036047">
        <ele>26.6</ele>
        <time>2012-04-01T13:16:47Z</time>
      </trkpt>
      <trkpt lat="59.4823601" lon="17.7030164">
        <ele>28</ele>
        <time>2012-04-01T13:16:54Z</time>
      </trkpt>
      <trkpt lat="59.4826199" lon="17.7024538">
        <ele>29.4</ele>
        <time>2012-04-01T13:17:01Z</time>
      </trkpt>
      <trkpt lat="59.4828974" lon="17.7018503">
        <ele>29.6</ele>
        <time>2012-04-01T13:17:08Z</time>
      </trkpt>
      <trkpt lat="59.4831521" lon="17.7012921">
        <ele>31</ele>
        <time>2012-04-01T13:17:14Z</time>
      </trkpt>
      <trkpt lat="59.4833968" lon="17.7007574">
        <ele>31.8</ele>
        <time>2012-04-01T13:17:20Z</time>
      </trkpt>
      <trkpt lat="59.4836381" lon="17.7002399">
        <ele>32.4</ele>
        <time>2012-04-01T13:17:26Z</time>
      </trkpt>
      <trkpt lat="59.4839123" lon="17.6996053">
        <ele>31.4</ele>
        <time>2012-04-01T13:17:33Z</time>
      </trkpt>
      <trkpt lat="59.4841718" lon="17.6990081">
        <ele>29.6</ele>
        <time>2012-04-01T13:17:39Z</time>
      </trkpt>
      <trkpt lat="59.4844387" lon="17.6983797">
        <ele>28</ele>
        <time>2012-04-01T13:17:45Z</time>
      </trkpt>
      <trkpt lat="59.4846888" lon="17.6978338">
        <ele>25.8</ele>
        <time>2012-04-01T13:17:50Z</time>
      </trkpt>
      <trkpt lat="59.4849606" lon="17.6972261">
        <ele>22</ele>
        <time>2012-04-01T13:17:55Z</time>
      </trkpt>
      <trkpt lat="59.4852048" lon="17.6966946">
        <ele>19.4</ele>
        <time>2012-04-01T13:17:59Z</time>
      </trkpt>
      <trkpt lat="59.4854648" lon="17.6960845">
        <ele>16.8</ele>
        <time>2012-04-01T13:18:03Z</time>
      </trkpt>
      <trkpt lat="59.4857549" lon="17.6954746">
        <ele>12.8</ele>
        <time>2012-04-01T13:18:07Z</time>
      </trkpt>
      <trkpt lat="59.4860521" lon="17.6948757">
        <ele>8.8</ele>
        <time>2012-04-01T13:18:11Z</time>
      </trkpt>
      <trkpt lat="59.4863198" lon="17.6942951">
        <ele>6.4</ele>
        <time>2012-04-01T13:18:15Z</time>
      </trkpt>
      <trkpt lat="59.486582" lon="17.6937429">
        <ele>4.4</ele>
        <time>2012-04-01T13:18:19Z</time>
      </trkpt>
      <trkpt lat="59.4868867" lon="17.6931612">
        <ele>5.4</ele>
        <time>2012-04-01T13:18:24Z</time>
      </trkpt>
      <trkpt lat="59.4871579" lon="17.6926821">
        <ele>6.4</ele>
        <time>2012-04-01T13:18:29Z</time>
      </trkpt>
      <trkpt lat="59.4874442" lon="17.6921748">
        <ele>7.6</ele>
        <time>2012-04-01T13:18:35Z</time>
      </trkpt>
      <trkpt lat="59.4877528" lon="17.6916447">
        <ele>9.4</ele>
        <time>2012-04-01T13:18:42Z</time>
      </trkpt>
      <trkpt lat="59.4880221" lon="17.6911726">
        <ele>10.2</ele>
        <time>2012-04-01T13:18:48Z</time>
      </trkpt>
      <trkpt lat="59.4883149" lon="17.6906588">
        <ele>10</ele>
        <time>2012-04-01T13:18:54Z</time>
      </trkpt>
      <trkpt lat="59.4886261" lon="17.6901429">
        <ele>9.4</ele>
        <time>2012-04-01T13:19:00Z</time>
      </trkpt>
      <trkpt lat="59.4889409" lon="17.689617">
        <ele>8.6</ele>
        <time>2012-04-01T13:19:06Z</time>
      </trkpt>
      <trkpt lat="59.4892781" lon="17.6891647">
        <ele>6</ele>
        <time>2012-04-01T13:19:12Z</time>
      </trkpt>
      <trkpt lat="59.4896428" lon="17.6887855">
        <ele>5.4</ele>
        <time>2012-04-01T13:19:18Z</time>
      </trkpt>
      <trkpt lat="59.4899795" lon="17.6884464">
        <ele>5.2</ele>
        <time>2012-04-01T13:19:24Z</time>
      </trkpt>
      <trkpt lat="59.4903344" lon="17.6881074">
        <ele>4.8</ele>
        <time>2012-04-01T13:19:30Z</time>
      </trkpt>
      <trkpt lat="59.4907097" lon="17.6877632">
        <ele>3.6</ele>
        <time>2012-04-01T13:19:36Z</time>
      </trkpt>
      <trkpt lat="59.4910432" lon="17.6874793">
        <ele>2</ele>
        <time>2012-04-01T13:19:41Z</time>
      </trkpt>
      <trkpt lat="59.4914006" lon="17.6872073">
        <ele>1</ele>
        <time>2012-04-01T13:19:46Z</time>
      </trkpt>
      <trkpt lat="59.4917488" lon="17.6869512">
        <ele>1.8</ele>
        <time>2012-04-01T13:19:51Z</time>
      </trkpt>
      <trkpt lat="59.4921227" lon="17.6866086">
        <ele>2.4</ele>
        <time>2012-04-01T13:19:57Z</time>
      </trkpt>
      <trkpt lat="59.4924826" lon="17.6861454">
        <ele>2.2</ele>
        <time>2012-04-01T13:20:03Z</time>
      </trkpt>
      <trkpt lat="59.4928153" lon="17.6856087">
        <ele>2.4</ele>
        <time>2012-04-01T13:20:09Z</time>
      </trkpt>
      <trkpt lat="59.4931163" lon="17.6850994">
        <ele>3.2</ele>
        <time>2012-04-01T13:20:15Z</time>
      </trkpt>
      <trkpt lat="59.4933804" lon="17.6846109">
        <ele>4</ele>
        <time>2012-04-01T13:20:21Z</time>
      </trkpt>
      <trkpt lat="59.4936431" lon="17.6840716">
        <ele>4.2</ele>
        <time>2012-04-01T13:20:27Z</time>
      </trkpt>
      <trkpt lat="59.4938894" lon="17.6835533">
        <ele>4.8</ele>
        <time>2012-04-01T13:20:33Z</time>
      </trkpt>
      <trkpt lat="59.4941392" lon="17.6830526">
        <ele>5.6</ele>
        <time>2012-04-01T13:20:39Z</time>
      </trkpt>
      <trkpt lat="59.4944038" lon="17.6824684">
        <ele>7.2</ele>
        <time>2012-04-01T13:20:46Z</time>
      </trkpt>
      <trkpt lat="59.494634" lon="17.6818748">
        <ele>8.6</ele>
        <time>2012-04-01T13:20:53Z</time>
      </trkpt>
      <trkpt lat="59.494837" lon="17.6813137">
        <ele>9.6</ele>
        <time>2012-04-01T13:21:00Z</time>
      </trkpt>
      <trkpt lat="59.4950482" lon="17.6807327">
        <ele>10.4</ele>
        <time>2012-04-01T13:21:07Z</time>
      </trkpt>
      <trkpt lat="59.4952589" lon="17.6801619">
        <ele>10.6</ele>
        <time>2012-04-01T13:21:14Z</time>
      </trkpt>
      <trkpt lat="59.4954764" lon="17.6795963">
        <ele>10.8</ele>
        <time>2012-04-01T13:21:21Z</time>
      </trkpt>
      <trkpt lat="59.4957128" lon="17.6790414">
        <ele>10.6</ele>
        <time>2012-04-01T13:21:28Z</time>
      </trkpt>
      <trkpt lat="59.495969" lon="17.6784458">
        <ele>9.2</ele>
        <time>2012-04-01T13:21:35Z</time>
      </trkpt>
      <trkpt lat="59.4962274" lon="17.6778453">
        <ele>6.8</ele>
        <time>2012-04-01T13:21:41Z</time>
      </trkpt>
      <trkpt lat="59.4964712" lon="17.6772961">
        <ele>5</ele>
        <time>2012-04-01T13:21:46Z</time>
      </trkpt>
      <trkpt lat="59.4967226" lon="17.676736">
        <ele>3.6</ele>
        <time>2012-04-01T13:21:51Z</time>
      </trkpt>
      <trkpt lat="59.4970123" lon="17.6760902">
        <ele>3</ele>
        <time>2012-04-01T13:21:57Z</time>
      </trkpt>
      <trkpt lat="59.4972718" lon="17.6755205">
        <ele>3</ele>
        <time>2012-04-01T13:22:03Z</time>
      </trkpt>
      <trkpt lat="59.497555" lon="17.6749148">
        <ele>3.8</ele>
        <time>2012-04-01T13:22:10Z</time>
      </trkpt>
      <trkpt lat="59.497844" lon="17.6743441">
        <ele>4</ele>
        <time>2012-04-01T13:22:17Z</time>
      </trkpt>
      <trkpt lat="59.4981411" lon="17.6738162">
        <ele>4.2</ele>
        <time>2012-04-01T13:22:24Z</time>
      </trkpt>
      <trkpt lat="59.4984384" lon="17.6733149">
        <ele>5.8</ele>
        <time>2012-04-01T13:22:31Z</time>
      </trkpt>
      <trkpt lat="59.4987389" lon="17.672804">
        <ele>8.8</ele>
        <time>2012-04-01T13:22:38Z</time>
      </trkpt>
      <trkpt lat="59.4990308" lon="17.6723104">
        <ele>11.2</ele>
        <time>2012-04-01T13:22:45Z</time>
      </trkpt>
      <trkpt lat="59.4993236" lon="17.6718241">
        <ele>9.4</ele>
        <time>2012-04-01T13:22:52Z</time>
      </trkpt>
      <trkpt lat="59.4996199" lon="17.6713422">
        <ele>8.2</ele>
        <time>2012-04-01T13:22:59Z</time>
      </trkpt>
      <trkpt lat="59.499922" lon="17.6708405">
        <ele>7.6</ele>
        <time>2012-04-01T13:23:06Z</time>
      </trkpt>
      <trkpt lat="59.5002306" lon="17.6703389">
        <ele>7.4</ele>
        <time>2012-04-01T13:23:13Z</time>
      </trkpt>
      <trkpt lat="59.5005398" lon="17.6698317">
        <ele>7.6</ele>
        <time>2012-04-01T13:23:20Z</time>
      </trkpt>
      <trkpt lat="59.5008508" lon="17.6693041">
        <ele>8</ele>
        <time>2012-04-01T13:23:27Z</time>
      </trkpt>
      <trkpt lat="59.5011092" lon="17.6687356">
        <ele>8.6</ele>
        <time>2012-04-01T13:23:34Z</time>
      </trkpt>
      <trkpt lat="59.5013816" lon="17.6682087">
        <ele>8.8</ele>
        <time>2012-04-01T13:23:41Z</time>
      </trkpt>
      <trkpt lat="59.5016945" lon="17.6677197">
        <ele>8.2</ele>
        <time>2012-04-01T13:23:48Z</time>
      </trkpt>
      <trkpt lat="59.5020177" lon="17.6672461">
        <ele>7.4</ele>
        <time>2012-04-01T13:23:55Z</time>
      </trkpt>
      <trkpt lat="59.5023504" lon="17.6667854">
        <ele>7.4</ele>
        <time>2012-04-01T13:24:02Z</time>
      </trkpt>
      <trkpt lat="59.5026661" lon="17.6663656">
        <ele>7</ele>
        <time>2012-04-01T13:24:08Z</time>
      </trkpt>
      <trkpt lat="59.5029812" lon="17.665959">
        <ele>6.8</ele>
        <time>2012-04-01T13:24:14Z</time>
      </trkpt>
      <trkpt lat="59.5032944" lon="17.6655503">
        <ele>6.8</ele>
        <time>2012-04-01T13:24:20Z</time>
      </trkpt>
      <trkpt lat="59.5035883" lon="17.6651393">
        <ele>7</ele>
        <time>2012-04-01T13:24:26Z</time>
      </trkpt>
      <trkpt lat="59.5039099" lon="17.6646629">
        <ele>7.2</ele>
        <time>2012-04-01T13:24:33Z</time>
      </trkpt>
      <trkpt lat="59.504242" lon="17.6641869">
        <ele>7</ele>
        <time>2012-04-01T13:24:40Z</time>
      </trkpt>
      <trkpt lat="59.5045488" lon="17.6637566">
        <ele>7</ele>
        <time>2012-04-01T13:24:46Z</time>
      </trkpt>
      <trkpt lat="59.5048295" lon="17.663311">
        <ele>7.4</ele>
        <time>2012-04-01T13:24:52Z</time>
      </trkpt>
      <trkpt lat="59.5051248" lon="17.6627394">
        <ele>8</ele>
        <time>2012-04-01T13:24:59Z</time>
      </trkpt>
      <trkpt lat="59.5054167" lon="17.6621448">
        <ele>8</ele>
        <time>2012-04-01T13:25:06Z</time>
      </trkpt>
      <trkpt lat="59.5056962" lon="17.6616418">
        <ele>7.6</ele>
        <time>2012-04-01T13:25:12Z</time>
      </trkpt>
      <trkpt lat="59.506036" lon="17.6613093">
        <ele>7.4</ele>
        <time>2012-04-01T13:25:18Z</time>
      </trkpt>
      <trkpt lat="59.5062275" lon="17.6612446">
        <ele>7.2</ele>
        <time>2012-04-01T13:25:21Z</time>
      </trkpt>
      <trkpt lat="59.5064113" lon="17.6613268">
        <ele>7.6</ele>
        <time>2012-04-01T13:25:24Z</time>
      </trkpt>
      <trkpt lat="59.5066927" lon="17.6611258">
        <ele>8.6</ele>
        <time>2012-04-01T13:25:30Z</time>
      </trkpt>
      <trkpt lat="59.5067134" lon="17.6610099">
        <ele>8.8</ele>
        <time>2012-04-01T13:25:31Z</time>
      </trkpt>
      <trkpt lat="59.5068473" lon="17.6604919">
        <ele>9.2</ele>
        <time>2012-04-01T13:25:36Z</time>
      </trkpt>
      <trkpt lat="59.5070231" lon="17.6598983">
        <ele>9.8</ele>
        <time>2012-04-01T13:25:42Z</time>
      </trkpt>
      <trkpt lat="59.5072186" lon="17.659332">
        <ele>10.2</ele>
        <time>2012-04-01T13:25:48Z</time>
      </trkpt>
      <trkpt lat="59.5074473" lon="17.6586775">
        <ele>10.4</ele>
        <time>2012-04-01T13:25:55Z</time>
      </trkpt>
      <trkpt lat="59.5076734" lon="17.658083">
        <ele>10.6</ele>
        <time>2012-04-01T13:26:01Z</time>
      </trkpt>
      <trkpt lat="59.5079265" lon="17.6575071">
        <ele>10.4</ele>
        <time>2012-04-01T13:26:07Z</time>
      </trkpt>
      <trkpt lat="59.508194" lon="17.6569693">
        <ele>10</ele>
        <time>2012-04-01T13:26:13Z</time>
      </trkpt>
      <trkpt lat="59.5085099" lon="17.6564311">
        <ele>9.2</ele>
        <time>2012-04-01T13:26:20Z</time>
      </trkpt>
      <trkpt lat="59.5088318" lon="17.6559587">
        <ele>9</ele>
        <time>2012-04-01T13:26:27Z</time>
      </trkpt>
      <trkpt lat="59.5091581" lon="17.6555152">
        <ele>8.6</ele>
        <time>2012-04-01T13:26:34Z</time>
      </trkpt>
      <trkpt lat="59.5094787" lon="17.6550296">
        <ele>8.2</ele>
        <time>2012-04-01T13:26:41Z</time>
      </trkpt>
      <trkpt lat="59.5097924" lon="17.6545438">
        <ele>8.4</ele>
        <time>2012-04-01T13:26:48Z</time>
      </trkpt>
      <trkpt lat="59.5100954" lon="17.6540741">
        <ele>8.8</ele>
        <time>2012-04-01T13:26:55Z</time>
      </trkpt>
      <trkpt lat="59.5102349" lon="17.6538975">
        <ele>8.8</ele>
        <time>2012-04-01T13:26:58Z</time>
      </trkpt>
      <trkpt lat="59.5103437" lon="17.6535723">
        <ele>9</ele>
        <time>2012-04-01T13:27:02Z</time>
      </trkpt>
      <trkpt lat="59.510569" lon="17.6530044">
        <ele>9</ele>
        <time>2012-04-01T13:27:08Z</time>
      </trkpt>
      <trkpt lat="59.5108271" lon="17.6523784">
        <ele>9.2</ele>
        <time>2012-04-01T13:27:14Z</time>
      </trkpt>
      <trkpt lat="59.5110905" lon="17.6517257">
        <ele>9.4</ele>
        <time>2012-04-01T13:27:20Z</time>
      </trkpt>
      <trkpt lat="59.5113461" lon="17.651106">
        <ele>9.4</ele>
        <time>2012-04-01T13:27:26Z</time>
      </trkpt>
      <trkpt lat="59.5116038" lon="17.6504835">
        <ele>9.2</ele>
        <time>2012-04-01T13:27:32Z</time>
      </trkpt>
      <trkpt lat="59.5118506" lon="17.6498951">
        <ele>9</ele>
        <time>2012-04-01T13:27:38Z</time>
      </trkpt>
      <trkpt lat="59.512091" lon="17.6493288">
        <ele>9.4</ele>
        <time>2012-04-01T13:27:44Z</time>
      </trkpt>
      <trkpt lat="59.5123138" lon="17.648784">
        <ele>10</ele>
        <time>2012-04-01T13:27:50Z</time>
      </trkpt>
      <trkpt lat="59.5125456" lon="17.6482128">
        <ele>9.8</ele>
        <time>2012-04-01T13:27:56Z</time>
      </trkpt>
      <trkpt lat="59.5127826" lon="17.647637">
        <ele>9.6</ele>
        <time>2012-04-01T13:28:02Z</time>
      </trkpt>
      <trkpt lat="59.513024" lon="17.6470328">
        <ele>10.2</ele>
        <time>2012-04-01T13:28:09Z</time>
      </trkpt>
      <trkpt lat="59.5132979" lon="17.6463507">
        <ele>11</ele>
        <time>2012-04-01T13:28:16Z</time>
      </trkpt>
      <trkpt lat="59.5135542" lon="17.6457103">
        <ele>10.8</ele>
        <time>2012-04-01T13:28:23Z</time>
      </trkpt>
      <trkpt lat="59.5137883" lon="17.6451092">
        <ele>10.8</ele>
        <time>2012-04-01T13:28:30Z</time>
      </trkpt>
      <trkpt lat="59.5139854" lon="17.6444711">
        <ele>11.2</ele>
        <time>2012-04-01T13:28:37Z</time>
      </trkpt>
      <trkpt lat="59.5141395" lon="17.6438493">
        <ele>11.8</ele>
        <time>2012-04-01T13:28:44Z</time>
      </trkpt>
      <trkpt lat="59.5143091" lon="17.6431303">
        <ele>11.8</ele>
        <time>2012-04-01T13:28:52Z</time>
      </trkpt>
      <trkpt lat="59.514464" lon="17.6424704">
        <ele>11.8</ele>
        <time>2012-04-01T13:28:59Z</time>
      </trkpt>
      <trkpt lat="59.5146106" lon="17.6417933">
        <ele>13.4</ele>
        <time>2012-04-01T13:29:06Z</time>
      </trkpt>
      <trkpt lat="59.514759" lon="17.6411342">
        <ele>14.8</ele>
        <time>2012-04-01T13:29:13Z</time>
      </trkpt>
      <trkpt lat="59.5148681" lon="17.6406707">
        <ele>15.4</ele>
        <time>2012-04-01T13:29:18Z</time>
      </trkpt>
      <trkpt lat="59.5149337" lon="17.6405157">
        <ele>15.6</ele>
        <time>2012-04-01T13:29:20Z</time>
      </trkpt>
      <trkpt lat="59.5149828" lon="17.6402172">
        <ele>16.4</ele>
        <time>2012-04-01T13:29:25Z</time>
      </trkpt>
      <trkpt lat="59.5150223" lon="17.6398682">
        <ele>17.4</ele>
        <time>2012-04-01T13:29:30Z</time>
      </trkpt>
      <trkpt lat="59.5151776" lon="17.639111">
        <ele>16.2</ele>
        <time>2012-04-01T13:29:37Z</time>
      </trkpt>
      <trkpt lat="59.5153494" lon="17.6383751">
        <ele>17</ele>
        <time>2012-04-01T13:29:44Z</time>
      </trkpt>
      <trkpt lat="59.5155177" lon="17.6376705">
        <ele>17.6</ele>
        <time>2012-04-01T13:29:51Z</time>
      </trkpt>
      <trkpt lat="59.5157065" lon="17.6369546">
        <ele>17.4</ele>
        <time>2012-04-01T13:29:58Z</time>
      </trkpt>
      <trkpt lat="59.5158217" lon="17.6364393">
        <ele>17</ele>
        <time>2012-04-01T13:30:03Z</time>
      </trkpt>
      <trkpt lat="59.5158594" lon="17.6362289">
        <ele>17.2</ele>
        <time>2012-04-01T13:30:05Z</time>
      </trkpt>
      <trkpt lat="59.5159658" lon="17.6354871">
        <ele>18.4</ele>
        <time>2012-04-01T13:30:12Z</time>
      </trkpt>
      <trkpt lat="59.516018" lon="17.6347005">
        <ele>18</ele>
        <time>2012-04-01T13:30:19Z</time>
      </trkpt>
      <trkpt lat="59.5159903" lon="17.6339015">
        <ele>16</ele>
        <time>2012-04-01T13:30:26Z</time>
      </trkpt>
      <trkpt lat="59.5159368" lon="17.6331424">
        <ele>15.6</ele>
        <time>2012-04-01T13:30:33Z</time>
      </trkpt>
      <trkpt lat="59.5159002" lon="17.6325043">
        <ele>14.8</ele>
        <time>2012-04-01T13:30:39Z</time>
      </trkpt>
      <trkpt lat="59.5158983" lon="17.6323938">
        <ele>14.8</ele>
        <time>2012-04-01T13:30:40Z</time>
      </trkpt>
      <trkpt lat="59.5159043" lon="17.6319433">
        <ele>13.4</ele>
        <time>2012-04-01T13:30:44Z</time>
      </trkpt>
      <trkpt lat="59.5159921" lon="17.6316373">
        <ele>13</ele>
        <time>2012-04-01T13:30:47Z</time>
      </trkpt>
      <trkpt lat="59.5159097" lon="17.6311074">
        <ele>11.8</ele>
        <time>2012-04-01T13:30:52Z</time>
      </trkpt>
      <trkpt lat="59.5158715" lon="17.6310031">
        <ele>11.4</ele>
        <time>2012-04-01T13:30:53Z</time>
      </trkpt>
      <trkpt lat="59.5158377" lon="17.6308929">
        <ele>11.2</ele>
        <time>2012-04-01T13:30:54Z</time>
      </trkpt>
      <trkpt lat="59.5157544" lon="17.6303029">
        <ele>12</ele>
        <time>2012-04-01T13:30:59Z</time>
      </trkpt>
      <trkpt lat="59.5157486" lon="17.6301933">
        <ele>12.2</ele>
        <time>2012-04-01T13:31:00Z</time>
      </trkpt>
      <trkpt lat="59.5157082" lon="17.6295731">
        <ele>12.4</ele>
        <time>2012-04-01T13:31:07Z</time>
      </trkpt>
      <trkpt lat="59.5156773" lon="17.6290347">
        <ele>13.2</ele>
        <time>2012-04-01T13:31:14Z</time>
      </trkpt>
      <trkpt lat="59.5156707" lon="17.6288654">
        <ele>13.4</ele>
        <time>2012-04-01T13:31:16Z</time>
      </trkpt>
      <trkpt lat="59.5156476" lon="17.6283593">
        <ele>11.8</ele>
        <time>2012-04-01T13:31:22Z</time>
      </trkpt>
      <trkpt lat="59.5156299" lon="17.6280941">
        <ele>10.6</ele>
        <time>2012-04-01T13:31:25Z</time>
      </trkpt>
      <trkpt lat="59.5155979" lon="17.6276294">
        <ele>9</ele>
        <time>2012-04-01T13:31:30Z</time>
      </trkpt>
      <trkpt lat="59.5155891" lon="17.6274329">
        <ele>8.8</ele>
        <time>2012-04-01T13:31:32Z</time>
      </trkpt>
      <trkpt lat="59.5155808" lon="17.6273391">
        <ele>8.4</ele>
        <time>2012-04-01T13:31:33Z</time>
      </trkpt>
      <trkpt lat="59.5155715" lon="17.6271474">
        <ele>7.8</ele>
        <time>2012-04-01T13:31:35Z</time>
      </trkpt>
      <trkpt lat="59.5156072" lon="17.6265509">
        <ele>9.6</ele>
        <time>2012-04-01T13:31:41Z</time>
      </trkpt>
      <trkpt lat="59.5156826" lon="17.625859">
        <ele>9.6</ele>
        <time>2012-04-01T13:31:48Z</time>
      </trkpt>
      <trkpt lat="59.5158137" lon="17.6251366">
        <ele>12.4</ele>
        <time>2012-04-01T13:31:56Z</time>
      </trkpt>
      <trkpt lat="59.5159382" lon="17.6244238">
        <ele>13.8</ele>
        <time>2012-04-01T13:32:04Z</time>
      </trkpt>
      <trkpt lat="59.5160782" lon="17.623688">
        <ele>15.8</ele>
        <time>2012-04-01T13:32:12Z</time>
      </trkpt>
      <trkpt lat="59.5162076" lon="17.6229642">
        <ele>15</ele>
        <time>2012-04-01T13:32:20Z</time>
      </trkpt>
      <trkpt lat="59.5163267" lon="17.6222629">
        <ele>13.8</ele>
        <time>2012-04-01T13:32:28Z</time>
      </trkpt>
      <trkpt lat="59.5164557" lon="17.6215346">
        <ele>13.2</ele>
        <time>2012-04-01T13:32:36Z</time>
      </trkpt>
      <trkpt lat="59.5165715" lon="17.6208503">
        <ele>12.2</ele>
        <time>2012-04-01T13:32:43Z</time>
      </trkpt>
      <trkpt lat="59.5166675" lon="17.6201808">
        <ele>11.2</ele>
        <time>2012-04-01T13:32:50Z</time>
      </trkpt>
      <trkpt lat="59.5167997" lon="17.6194245">
        <ele>10.2</ele>
        <time>2012-04-01T13:32:58Z</time>
      </trkpt>
      <trkpt lat="59.5170139" lon="17.6187919">
        <ele>14.4</ele>
        <time>2012-04-01T13:33:05Z</time>
      </trkpt>
      <trkpt lat="59.5171272" lon="17.6185513">
        <ele>15.4</ele>
        <time>2012-04-01T13:33:08Z</time>
      </trkpt>
      <trkpt lat="59.5173113" lon="17.6183042">
        <ele>16</ele>
        <time>2012-04-01T13:33:12Z</time>
      </trkpt>
      <trkpt lat="59.5176667" lon="17.6180545">
        <ele>15.6</ele>
        <time>2012-04-01T13:33:20Z</time>
      </trkpt>
      <trkpt lat="59.5180517" lon="17.6178759">
        <ele>17.2</ele>
        <time>2012-04-01T13:33:29Z</time>
      </trkpt>
      <trkpt lat="59.5181983" lon="17.6177281">
        <ele>17.6</ele>
        <time>2012-04-01T13:33:33Z</time>
      </trkpt>
      <trkpt lat="59.5183199" lon="17.6174601">
        <ele>19</ele>
        <time>2012-04-01T13:33:38Z</time>
      </trkpt>
      <trkpt lat="59.5183268" lon="17.6173004">
        <ele>19.4</ele>
        <time>2012-04-01T13:33:40Z</time>
      </trkpt>
      <trkpt lat="59.5181532" lon="17.6169242">
        <ele>21</ele>
        <time>2012-04-01T13:33:46Z</time>
      </trkpt>
      <trkpt lat="59.5181143" lon="17.6168832">
        <ele>21.6</ele>
        <time>2012-04-01T13:33:47Z</time>
      </trkpt>
      <trkpt lat="59.5177932" lon="17.6165508">
        <ele>26.2</ele>
        <time>2012-04-01T13:33:56Z</time>
      </trkpt>
      <trkpt lat="59.5174757" lon="17.6161342">
        <ele>29.4</ele>
        <time>2012-04-01T13:34:06Z</time>
      </trkpt>
      <trkpt lat="59.5172212" lon="17.6155867">
        <ele>29.6</ele>
        <time>2012-04-01T13:34:15Z</time>
      </trkpt>
      <trkpt lat="59.517025" lon="17.6148382">
        <ele>25.2</ele>
        <time>2012-04-01T13:34:23Z</time>
      </trkpt>
      <trkpt lat="59.5169598" lon="17.6140351">
        <ele>21.4</ele>
        <time>2012-04-01T13:34:29Z</time>
      </trkpt>
      <trkpt lat="59.5169989" lon="17.6132292">
        <ele>18.2</ele>
        <time>2012-04-01T13:34:35Z</time>
      </trkpt>
      <trkpt lat="59.5171546" lon="17.6125352">
        <ele>17.2</ele>
        <time>2012-04-01T13:34:41Z</time>
      </trkpt>
      <trkpt lat="59.5173942" lon="17.6119788">
        <ele>17.2</ele>
        <time>2012-04-01T13:34:47Z</time>
      </trkpt>
      <trkpt lat="59.5176882" lon="17.611551">
        <ele>16.4</ele>
        <time>2012-04-01T13:34:53Z</time>
      </trkpt>
      <trkpt lat="59.5180117" lon="17.6111549">
        <ele>16.2</ele>
        <time>2012-04-01T13:34:59Z</time>
      </trkpt>
      <trkpt lat="59.5183138" lon="17.6107327">
        <ele>16.2</ele>
        <time>2012-04-01T13:35:05Z</time>
      </trkpt>
      <trkpt lat="59.5186144" lon="17.6102233">
        <ele>16.2</ele>
        <time>2012-04-01T13:35:12Z</time>
      </trkpt>
      <trkpt lat="59.5188785" lon="17.6096766">
        <ele>16.4</ele>
        <time>2012-04-01T13:35:19Z</time>
      </trkpt>
      <trkpt lat="59.5191074" lon="17.6091224">
        <ele>16.8</ele>
        <time>2012-04-01T13:35:26Z</time>
      </trkpt>
      <trkpt lat="59.5193224" lon="17.6085512">
        <ele>17</ele>
        <time>2012-04-01T13:35:33Z</time>
      </trkpt>
      <trkpt lat="59.5195409" lon="17.6079336">
        <ele>16.4</ele>
        <time>2012-04-01T13:35:41Z</time>
      </trkpt>
      <trkpt lat="59.5197457" lon="17.6073229">
        <ele>16.4</ele>
        <time>2012-04-01T13:35:49Z</time>
      </trkpt>
      <trkpt lat="59.5199616" lon="17.6066568">
        <ele>17.6</ele>
        <time>2012-04-01T13:35:57Z</time>
      </trkpt>
      <trkpt lat="59.5201713" lon="17.605979">
        <ele>17.8</ele>
        <time>2012-04-01T13:36:04Z</time>
      </trkpt>
      <trkpt lat="59.5203812" lon="17.605269">
        <ele>18.6</ele>
        <time>2012-04-01T13:36:11Z</time>
      </trkpt>
      <trkpt lat="59.5205696" lon="17.6045702">
        <ele>19.6</ele>
        <time>2012-04-01T13:36:18Z</time>
      </trkpt>
      <trkpt lat="59.5207381" lon="17.6039221">
        <ele>20.4</ele>
        <time>2012-04-01T13:36:25Z</time>
      </trkpt>
      <trkpt lat="59.5209138" lon="17.6032423">
        <ele>20.6</ele>
        <time>2012-04-01T13:36:32Z</time>
      </trkpt>
      <trkpt lat="59.5210772" lon="17.6026131">
        <ele>20.4</ele>
        <time>2012-04-01T13:36:39Z</time>
      </trkpt>
      <trkpt lat="59.5212441" lon="17.6019818">
        <ele>20.6</ele>
        <time>2012-04-01T13:36:46Z</time>
      </trkpt>
      <trkpt lat="59.5214286" lon="17.6012763">
        <ele>21.2</ele>
        <time>2012-04-01T13:36:54Z</time>
      </trkpt>
      <trkpt lat="59.5216149" lon="17.6005669">
        <ele>21.4</ele>
        <time>2012-04-01T13:37:02Z</time>
      </trkpt>
      <trkpt lat="59.5217843" lon="17.5999229">
        <ele>21.8</ele>
        <time>2012-04-01T13:37:09Z</time>
      </trkpt>
      <trkpt lat="59.5219473" lon="17.5992803">
        <ele>21.6</ele>
        <time>2012-04-01T13:37:16Z</time>
      </trkpt>
      <trkpt lat="59.5221134" lon="17.598631">
        <ele>21.6</ele>
        <time>2012-04-01T13:37:23Z</time>
      </trkpt>
      <trkpt lat="59.5222781" lon="17.597991">
        <ele>22</ele>
        <time>2012-04-01T13:37:30Z</time>
      </trkpt>
      <trkpt lat="59.5224587" lon="17.5972897">
        <ele>22.8</ele>
        <time>2012-04-01T13:37:38Z</time>
      </trkpt>
      <trkpt lat="59.5226309" lon="17.5966193">
        <ele>23.8</ele>
        <time>2012-04-01T13:37:46Z</time>
      </trkpt>
      <trkpt lat="59.5228164" lon="17.5958838">
        <ele>23</ele>
        <time>2012-04-01T13:37:54Z</time>
      </trkpt>
      <trkpt lat="59.5229938" lon="17.5952072">
        <ele>22.4</ele>
        <time>2012-04-01T13:38:01Z</time>
      </trkpt>
      <trkpt lat="59.52317" lon="17.5945356">
        <ele>22.2</ele>
        <time>2012-04-01T13:38:08Z</time>
      </trkpt>
      <trkpt lat="59.5233461" lon="17.5938639">
        <ele>22.4</ele>
        <time>2012-04-01T13:38:15Z</time>
      </trkpt>
      <trkpt lat="59.5235078" lon="17.5932242">
        <ele>22.8</ele>
        <time>2012-04-01T13:38:22Z</time>
      </trkpt>
      <trkpt lat="59.5236748" lon="17.5925803">
        <ele>25</ele>
        <time>2012-04-01T13:38:29Z</time>
      </trkpt>
      <trkpt lat="59.5238523" lon="17.5919042">
        <ele>26.2</ele>
        <time>2012-04-01T13:38:36Z</time>
      </trkpt>
      <trkpt lat="59.5240407" lon="17.5911896">
        <ele>26.8</ele>
        <time>2012-04-01T13:38:44Z</time>
      </trkpt>
      <trkpt lat="59.5242201" lon="17.5905066">
        <ele>27.6</ele>
        <time>2012-04-01T13:38:52Z</time>
      </trkpt>
      <trkpt lat="59.5243976" lon="17.5898163">
        <ele>28.8</ele>
        <time>2012-04-01T13:39:00Z</time>
      </trkpt>
      <trkpt lat="59.524441" lon="17.5896357">
        <ele>28.6</ele>
        <time>2012-04-01T13:39:02Z</time>
      </trkpt>
      <trkpt lat="59.5245683" lon="17.5891645">
        <ele>27.6</ele>
        <time>2012-04-01T13:39:07Z</time>
      </trkpt>
      <trkpt lat="59.5247546" lon="17.5884713">
        <ele>26.6</ele>
        <time>2012-04-01T13:39:14Z</time>
      </trkpt>
      <trkpt lat="59.5249292" lon="17.5878296">
        <ele>25.2</ele>
        <time>2012-04-01T13:39:20Z</time>
      </trkpt>
      <trkpt lat="59.5251128" lon="17.5871656">
        <ele>24.2</ele>
        <time>2012-04-01T13:39:26Z</time>
      </trkpt>
      <trkpt lat="59.5252862" lon="17.58653">
        <ele>22.4</ele>
        <time>2012-04-01T13:39:32Z</time>
      </trkpt>
      <trkpt lat="59.5255121" lon="17.5858367">
        <ele>22.2</ele>
        <time>2012-04-01T13:39:39Z</time>
      </trkpt>
      <trkpt lat="59.5257562" lon="17.5851703">
        <ele>21.8</ele>
        <time>2012-04-01T13:39:46Z</time>
      </trkpt>
      <trkpt lat="59.5259876" lon="17.5845423">
        <ele>20.6</ele>
        <time>2012-04-01T13:39:53Z</time>
      </trkpt>
      <trkpt lat="59.5262228" lon="17.5839444">
        <ele>19.8</ele>
        <time>2012-04-01T13:40:00Z</time>
      </trkpt>
      <trkpt lat="59.5264704" lon="17.5833908">
        <ele>20.2</ele>
        <time>2012-04-01T13:40:07Z</time>
      </trkpt>
      <trkpt lat="59.5267314" lon="17.5828281">
        <ele>20.2</ele>
        <time>2012-04-01T13:40:14Z</time>
      </trkpt>
      <trkpt lat="59.5270123" lon="17.582294">
        <ele>21</ele>
        <time>2012-04-01T13:40:21Z</time>
      </trkpt>
      <trkpt lat="59.5272874" lon="17.5817829">
        <ele>22.2</ele>
        <time>2012-04-01T13:40:28Z</time>
      </trkpt>
      <trkpt lat="59.5276026" lon="17.5812596">
        <ele>21.6</ele>
        <time>2012-04-01T13:40:35Z</time>
      </trkpt>
      <trkpt lat="59.5279025" lon="17.580755">
        <ele>22</ele>
        <time>2012-04-01T13:40:42Z</time>
      </trkpt>
      <trkpt lat="59.528212" lon="17.5802652">
        <ele>24.8</ele>
        <time>2012-04-01T13:40:50Z</time>
      </trkpt>
      <trkpt lat="59.5285191" lon="17.5798632">
        <ele>27.2</ele>
        <time>2012-04-01T13:40:57Z</time>
      </trkpt>
      <trkpt lat="59.528842" lon="17.5794466">
        <ele>27.6</ele>
        <time>2012-04-01T13:41:05Z</time>
      </trkpt>
      <trkpt lat="59.5291609" lon="17.5790701">
        <ele>26.6</ele>
        <time>2012-04-01T13:41:13Z</time>
      </trkpt>
      <trkpt lat="59.5294785" lon="17.5787054">
        <ele>26</ele>
        <time>2012-04-01T13:41:20Z</time>
      </trkpt>
      <trkpt lat="59.5298371" lon="17.5783045">
        <ele>24.4</ele>
        <time>2012-04-01T13:41:27Z</time>
      </trkpt>
      <trkpt lat="59.5301612" lon="17.5779294">
        <ele>24.8</ele>
        <time>2012-04-01T13:41:33Z</time>
      </trkpt>
      <trkpt lat="59.5304995" lon="17.5775594">
        <ele>24.8</ele>
        <time>2012-04-01T13:41:39Z</time>
      </trkpt>
      <trkpt lat="59.5308422" lon="17.5771769">
        <ele>23.2</ele>
        <time>2012-04-01T13:41:45Z</time>
      </trkpt>
      <trkpt lat="59.5311957" lon="17.5767905">
        <ele>22</ele>
        <time>2012-04-01T13:41:51Z</time>
      </trkpt>
      <trkpt lat="59.5315789" lon="17.5763816">
        <ele>21.4</ele>
        <time>2012-04-01T13:41:57Z</time>
      </trkpt>
      <trkpt lat="59.5319523" lon="17.5759657">
        <ele>20.6</ele>
        <time>2012-04-01T13:42:03Z</time>
      </trkpt>
      <trkpt lat="59.5323054" lon="17.5755797">
        <ele>20</ele>
        <time>2012-04-01T13:42:09Z</time>
      </trkpt>
      <trkpt lat="59.5326431" lon="17.5751922">
        <ele>19.4</ele>
        <time>2012-04-01T13:42:15Z</time>
      </trkpt>
      <trkpt lat="59.5329694" lon="17.5748093">
        <ele>18.8</ele>
        <time>2012-04-01T13:42:21Z</time>
      </trkpt>
      <trkpt lat="59.5332998" lon="17.574413">
        <ele>18.6</ele>
        <time>2012-04-01T13:42:27Z</time>
      </trkpt>
      <trkpt lat="59.5336543" lon="17.5739791">
        <ele>17.6</ele>
        <time>2012-04-01T13:42:33Z</time>
      </trkpt>
      <trkpt lat="59.5340215" lon="17.5735398">
        <ele>16.6</ele>
        <time>2012-04-01T13:42:39Z</time>
      </trkpt>
      <trkpt lat="59.5343789" lon="17.573112">
        <ele>16</ele>
        <time>2012-04-01T13:42:45Z</time>
      </trkpt>
      <trkpt lat="59.5347454" lon="17.572687">
        <ele>15.4</ele>
        <time>2012-04-01T13:42:51Z</time>
      </trkpt>
      <trkpt lat="59.5350579" lon="17.5723089">
        <ele>14.8</ele>
        <time>2012-04-01T13:42:56Z</time>
      </trkpt>
      <trkpt lat="59.5353667" lon="17.5719421">
        <ele>15.2</ele>
        <time>2012-04-01T13:43:01Z</time>
      </trkpt>
      <trkpt lat="59.5356641" lon="17.571586">
        <ele>15.6</ele>
        <time>2012-04-01T13:43:06Z</time>
      </trkpt>
      <trkpt lat="59.5359651" lon="17.5712352">
        <ele>16</ele>
        <time>2012-04-01T13:43:11Z</time>
      </trkpt>
      <trkpt lat="59.5362779" lon="17.5708715">
        <ele>16</ele>
        <time>2012-04-01T13:43:16Z</time>
      </trkpt>
      <trkpt lat="59.5366071" lon="17.5704643">
        <ele>16.2</ele>
        <time>2012-04-01T13:43:21Z</time>
      </trkpt>
      <trkpt lat="59.5369445" lon="17.5700832">
        <ele>15.2</ele>
        <time>2012-04-01T13:43:26Z</time>
      </trkpt>
      <trkpt lat="59.5372664" lon="17.5697183">
        <ele>14.2</ele>
        <time>2012-04-01T13:43:31Z</time>
      </trkpt>
      <trkpt lat="59.5376331" lon="17.5692973">
        <ele>14</ele>
        <time>2012-04-01T13:43:37Z</time>
      </trkpt>
      <trkpt lat="59.5379655" lon="17.5689232">
        <ele>13.2</ele>
        <time>2012-04-01T13:43:43Z</time>
      </trkpt>
      <trkpt lat="59.5382769" lon="17.5685668">
        <ele>12.8</ele>
        <time>2012-04-01T13:43:49Z</time>
      </trkpt>
      <trkpt lat="59.5386162" lon="17.5681712">
        <ele>13.8</ele>
        <time>2012-04-01T13:43:55Z</time>
      </trkpt>
      <trkpt lat="59.5389683" lon="17.5677639">
        <ele>15</ele>
        <time>2012-04-01T13:44:01Z</time>
      </trkpt>
      <trkpt lat="59.5393212" lon="17.5673543">
        <ele>15.2</ele>
        <time>2012-04-01T13:44:07Z</time>
      </trkpt>
      <trkpt lat="59.5396729" lon="17.5669642">
        <ele>15</ele>
        <time>2012-04-01T13:44:13Z</time>
      </trkpt>
      <trkpt lat="59.5400143" lon="17.5665636">
        <ele>15.2</ele>
        <time>2012-04-01T13:44:19Z</time>
      </trkpt>
      <trkpt lat="59.5401574" lon="17.5661466">
        <ele>16.4</ele>
        <time>2012-04-01T13:44:23Z</time>
      </trkpt>
      <trkpt lat="59.5402242" lon="17.5659121">
        <ele>17.2</ele>
        <time>2012-04-01T13:44:25Z</time>
      </trkpt>
      <trkpt lat="59.5404304" lon="17.5656085">
        <ele>18</ele>
        <time>2012-04-01T13:44:29Z</time>
      </trkpt>
      <trkpt lat="59.5405329" lon="17.5654984">
        <ele>18</ele>
        <time>2012-04-01T13:44:31Z</time>
      </trkpt>
      <trkpt lat="59.5408465" lon="17.5651226">
        <ele>19.6</ele>
        <time>2012-04-01T13:44:38Z</time>
      </trkpt>
      <trkpt lat="59.5411147" lon="17.5645954">
        <ele>21.6</ele>
        <time>2012-04-01T13:44:45Z</time>
      </trkpt>
      <trkpt lat="59.5413643" lon="17.5639592">
        <ele>22.8</ele>
        <time>2012-04-01T13:44:52Z</time>
      </trkpt>
      <trkpt lat="59.5416024" lon="17.5633695">
        <ele>21.6</ele>
        <time>2012-04-01T13:44:58Z</time>
      </trkpt>
      <trkpt lat="59.541836" lon="17.5627687">
        <ele>20.4</ele>
        <time>2012-04-01T13:45:03Z</time>
      </trkpt>
      <trkpt lat="59.542093" lon="17.5621062">
        <ele>19</ele>
        <time>2012-04-01T13:45:08Z</time>
      </trkpt>
      <trkpt lat="59.5423272" lon="17.5615303">
        <ele>16.6</ele>
        <time>2012-04-01T13:45:12Z</time>
      </trkpt>
      <trkpt lat="59.5425997" lon="17.5609782">
        <ele>14.8</ele>
        <time>2012-04-01T13:45:16Z</time>
      </trkpt>
      <trkpt lat="59.5429315" lon="17.5605244">
        <ele>12</ele>
        <time>2012-04-01T13:45:20Z</time>
      </trkpt>
      <trkpt lat="59.5433316" lon="17.5602465">
        <ele>9.8</ele>
        <time>2012-04-01T13:45:24Z</time>
      </trkpt>
      <trkpt lat="59.543759" lon="17.5600237">
        <ele>8.4</ele>
        <time>2012-04-01T13:45:28Z</time>
      </trkpt>
      <trkpt lat="59.5441666" lon="17.5598302">
        <ele>6.8</ele>
        <time>2012-04-01T13:45:32Z</time>
      </trkpt>
      <trkpt lat="59.544551" lon="17.5596375">
        <ele>5.6</ele>
        <time>2012-04-01T13:45:36Z</time>
      </trkpt>
      <trkpt lat="59.5449074" lon="17.5594607">
        <ele>5.8</ele>
        <time>2012-04-01T13:45:40Z</time>
      </trkpt>
      <trkpt lat="59.5453266" lon="17.5592655">
        <ele>5.2</ele>
        <time>2012-04-01T13:45:45Z</time>
      </trkpt>
      <trkpt lat="59.5457394" lon="17.5590682">
        <ele>4.2</ele>
        <time>2012-04-01T13:45:50Z</time>
      </trkpt>
      <trkpt lat="59.5461463" lon="17.5588681">
        <ele>4.4</ele>
        <time>2012-04-01T13:45:55Z</time>
      </trkpt>
      <trkpt lat="59.5465569" lon="17.558667">
        <ele>4.2</ele>
        <time>2012-04-01T13:46:00Z</time>
      </trkpt>
      <trkpt lat="59.5469659" lon="17.5584757">
        <ele>2.6</ele>
        <time>2012-04-01T13:46:05Z</time>
      </trkpt>
      <trkpt lat="59.5473799" lon="17.5583938">
        <ele>2.2</ele>
        <time>2012-04-01T13:46:10Z</time>
      </trkpt>
      <trkpt lat="59.547764" lon="17.5584849">
        <ele>2.6</ele>
        <time>2012-04-01T13:46:15Z</time>
      </trkpt>
      <trkpt lat="59.5481445" lon="17.5586652">
        <ele>0.6</ele>
        <time>2012-04-01T13:46:20Z</time>
      </trkpt>
      <trkpt lat="59.5485212" lon="17.5587786">
        <ele>0</ele>
        <time>2012-04-01T13:46:25Z</time>
      </trkpt>
      <trkpt lat="59.5488894" lon="17.5587855">
        <ele>0</ele>
        <time>2012-04-01T13:46:30Z</time>
      </trkpt>
      <trkpt lat="59.5493204" lon="17.5587423">
        <ele>0</ele>
        <time>2012-04-01T13:46:36Z</time>
      </trkpt>
      <trkpt lat="59.5497483" lon="17.5586787">
        <ele>0</ele>
        <time>2012-04-01T13:46:42Z</time>
      </trkpt>
      <trkpt lat="59.549818" lon="17.5586496">
        <ele>0</ele>
        <time>2012-04-01T13:46:43Z</time>
      </trkpt>
      <trkpt lat="59.55009" lon="17.5584456">
        <ele>0</ele>
        <time>2012-04-01T13:46:47Z</time>
      </trkpt>
      <trkpt lat="59.5503802" lon="17.5580601">
        <ele>0</ele>
        <time>2012-04-01T13:46:52Z</time>
      </trkpt>
      <trkpt lat="59.5506966" lon="17.5575656">
        <ele>0</ele>
        <time>2012-04-01T13:46:58Z</time>
      </trkpt>
      <trkpt lat="59.5509928" lon="17.5570858">
        <ele>0</ele>
        <time>2012-04-01T13:47:04Z</time>
      </trkpt>
      <trkpt lat="59.5512787" lon="17.5566142">
        <ele>0</ele>
        <time>2012-04-01T13:47:10Z</time>
      </trkpt>
      <trkpt lat="59.5515596" lon="17.5561703">
        <ele>0</ele>
        <time>2012-04-01T13:47:16Z</time>
      </trkpt>
      <trkpt lat="59.5518368" lon="17.5557431">
        <ele>0</ele>
        <time>2012-04-01T13:47:22Z</time>
      </trkpt>
      <trkpt lat="59.5521257" lon="17.5552475">
        <ele>0</ele>
        <time>2012-04-01T13:47:29Z</time>
      </trkpt>
      <trkpt lat="59.5524156" lon="17.554755">
        <ele>0</ele>
        <time>2012-04-01T13:47:36Z</time>
      </trkpt>
      <trkpt lat="59.5527273" lon="17.5542283">
        <ele>0</ele>
        <time>2012-04-01T13:47:43Z</time>
      </trkpt>
      <trkpt lat="59.5528923" lon="17.5538637">
        <ele>0</ele>
        <time>2012-04-01T13:47:47Z</time>
      </trkpt>
      <trkpt lat="59.5529593" lon="17.5536486">
        <ele>0</ele>
        <time>2012-04-01T13:47:49Z</time>
      </trkpt>
      <trkpt lat="59.5531147" lon="17.5529773">
        <ele>0</ele>
        <time>2012-04-01T13:47:55Z</time>
      </trkpt>
      <trkpt lat="59.553132" lon="17.5528635">
        <ele>0.2</ele>
        <time>2012-04-01T13:47:56Z</time>
      </trkpt>
      <trkpt lat="59.5531874" lon="17.5521977">
        <ele>1.8</ele>
        <time>2012-04-01T13:48:02Z</time>
      </trkpt>
      <trkpt lat="59.5532091" lon="17.5514822">
        <ele>6.6</ele>
        <time>2012-04-01T13:48:10Z</time>
      </trkpt>
      <trkpt lat="59.553222" lon="17.5506546">
        <ele>8.2</ele>
        <time>2012-04-01T13:48:20Z</time>
      </trkpt>
      <trkpt lat="59.5532396" lon="17.5498521">
        <ele>10.4</ele>
        <time>2012-04-01T13:48:30Z</time>
      </trkpt>
      <trkpt lat="59.553348" lon="17.5491556">
        <ele>14.8</ele>
        <time>2012-04-01T13:48:39Z</time>
      </trkpt>
      <trkpt lat="59.5535017" lon="17.5484598">
        <ele>14</ele>
        <time>2012-04-01T13:48:48Z</time>
      </trkpt>
      <trkpt lat="59.5537431" lon="17.5479142">
        <ele>11.8</ele>
        <time>2012-04-01T13:48:56Z</time>
      </trkpt>
      <trkpt lat="59.5540304" lon="17.5474583">
        <ele>10.8</ele>
        <time>2012-04-01T13:49:03Z</time>
      </trkpt>
      <trkpt lat="59.5543304" lon="17.5470194">
        <ele>9.6</ele>
        <time>2012-04-01T13:49:10Z</time>
      </trkpt>
      <trkpt lat="59.5546199" lon="17.5466597">
        <ele>8.4</ele>
        <time>2012-04-01T13:49:17Z</time>
      </trkpt>
      <trkpt lat="59.5546595" lon="17.546624">
        <ele>8.2</ele>
        <time>2012-04-01T13:49:18Z</time>
      </trkpt>
      <trkpt lat="59.5550245" lon="17.5463214">
        <ele>9</ele>
        <time>2012-04-01T13:49:25Z</time>
      </trkpt>
      <trkpt lat="59.5554027" lon="17.5461365">
        <ele>9.4</ele>
        <time>2012-04-01T13:49:32Z</time>
      </trkpt>
      <trkpt lat="59.5557531" lon="17.5459625">
        <ele>8.8</ele>
        <time>2012-04-01T13:49:39Z</time>
      </trkpt>
      <trkpt lat="59.5561058" lon="17.5457917">
        <ele>9</ele>
        <time>2012-04-01T13:49:46Z</time>
      </trkpt>
      <trkpt lat="59.5561579" lon="17.5457731">
        <ele>8.8</ele>
        <time>2012-04-01T13:49:47Z</time>
      </trkpt>
      <trkpt lat="59.5565424" lon="17.545673">
        <ele>7.4</ele>
        <time>2012-04-01T13:49:54Z</time>
      </trkpt>
      <trkpt lat="59.5569036" lon="17.5456046">
        <ele>6.2</ele>
        <time>2012-04-01T13:50:00Z</time>
      </trkpt>
      <trkpt lat="59.557294" lon="17.5455275">
        <ele>9</ele>
        <time>2012-04-01T13:50:06Z</time>
      </trkpt>
      <trkpt lat="59.5576608" lon="17.5454394">
        <ele>11.2</ele>
        <time>2012-04-01T13:50:12Z</time>
      </trkpt>
      <trkpt lat="59.5580401" lon="17.5452763">
        <ele>11.8</ele>
        <time>2012-04-01T13:50:18Z</time>
      </trkpt>
      <trkpt lat="59.5584498" lon="17.54507">
        <ele>11.4</ele>
        <time>2012-04-01T13:50:24Z</time>
      </trkpt>
      <trkpt lat="59.5588477" lon="17.5448188">
        <ele>11.2</ele>
        <time>2012-04-01T13:50:30Z</time>
      </trkpt>
      <trkpt lat="59.5591069" lon="17.5447575">
        <ele>11.6</ele>
        <time>2012-04-01T13:50:36Z</time>
      </trkpt>
      <trkpt lat="59.5591999" lon="17.5448395">
        <ele>11.6</ele>
        <time>2012-04-01T13:50:38Z</time>
      </trkpt>
      <trkpt lat="59.5594547" lon="17.545096">
        <ele>11</ele>
        <time>2012-04-01T13:50:43Z</time>
      </trkpt>
      <trkpt lat="59.5595556" lon="17.5452466">
        <ele>11.2</ele>
        <time>2012-04-01T13:50:45Z</time>
      </trkpt>
      <trkpt lat="59.5596013" lon="17.5453343">
        <ele>11.2</ele>
        <time>2012-04-01T13:50:46Z</time>
      </trkpt>
      <trkpt lat="59.5598032" lon="17.5458867">
        <ele>10.6</ele>
        <time>2012-04-01T13:50:51Z</time>
      </trkpt>
      <trkpt lat="59.5600235" lon="17.5464629">
        <ele>10.8</ele>
        <time>2012-04-01T13:50:56Z</time>
      </trkpt>
      <trkpt lat="59.5602597" lon="17.5470643">
        <ele>8.6</ele>
        <time>2012-04-01T13:51:01Z</time>
      </trkpt>
      <trkpt lat="59.5604652" lon="17.5476968">
        <ele>7.6</ele>
        <time>2012-04-01T13:51:06Z</time>
      </trkpt>
      <trkpt lat="59.5606381" lon="17.5483592">
        <ele>6.6</ele>
        <time>2012-04-01T13:51:11Z</time>
      </trkpt>
      <trkpt lat="59.5607787" lon="17.5490344">
        <ele>5.8</ele>
        <time>2012-04-01T13:51:16Z</time>
      </trkpt>
      <trkpt lat="59.5609063" lon="17.5497974">
        <ele>4.6</ele>
        <time>2012-04-01T13:51:22Z</time>
      </trkpt>
      <trkpt lat="59.5609868" lon="17.5505965">
        <ele>3.2</ele>
        <time>2012-04-01T13:51:28Z</time>
      </trkpt>
      <trkpt lat="59.5610441" lon="17.5514305">
        <ele>1.8</ele>
        <time>2012-04-01T13:51:34Z</time>
      </trkpt>
      <trkpt lat="59.5610875" lon="17.552279">
        <ele>0.8</ele>
        <time>2012-04-01T13:51:40Z</time>
      </trkpt>
      <trkpt lat="59.561131" lon="17.5531171">
        <ele>0.2</ele>
        <time>2012-04-01T13:51:46Z</time>
      </trkpt>
      <trkpt lat="59.5611717" lon="17.5537739">
        <ele>0</ele>
        <time>2012-04-01T13:51:51Z</time>
      </trkpt>
      <trkpt lat="59.5611608" lon="17.5539016">
        <ele>0</ele>
        <time>2012-04-01T13:51:52Z</time>
      </trkpt>
      <trkpt lat="59.5611199" lon="17.5546962">
        <ele>0</ele>
        <time>2012-04-01T13:51:58Z</time>
      </trkpt>
      <trkpt lat="59.5612362" lon="17.555508">
        <ele>0.2</ele>
        <time>2012-04-01T13:52:04Z</time>
      </trkpt>
      <trkpt lat="59.5613325" lon="17.556292">
        <ele>1</ele>
        <time>2012-04-01T13:52:10Z</time>
      </trkpt>
      <trkpt lat="59.5614628" lon="17.5570064">
        <ele>2.4</ele>
        <time>2012-04-01T13:52:16Z</time>
      </trkpt>
      <trkpt lat="59.5616246" lon="17.5576369">
        <ele>3.8</ele>
        <time>2012-04-01T13:52:22Z</time>
      </trkpt>
      <trkpt lat="59.5618644" lon="17.5582865">
        <ele>5</ele>
        <time>2012-04-01T13:52:29Z</time>
      </trkpt>
      <trkpt lat="59.5621336" lon="17.558829">
        <ele>5.8</ele>
        <time>2012-04-01T13:52:36Z</time>
      </trkpt>
      <trkpt lat="59.5624305" lon="17.5592779">
        <ele>6.4</ele>
        <time>2012-04-01T13:52:43Z</time>
      </trkpt>
      <trkpt lat="59.5627348" lon="17.5596369">
        <ele>7.8</ele>
        <time>2012-04-01T13:52:50Z</time>
      </trkpt>
      <trkpt lat="59.5630804" lon="17.5599145">
        <ele>9.6</ele>
        <time>2012-04-01T13:52:58Z</time>
      </trkpt>
      <trkpt lat="59.5634346" lon="17.5600893">
        <ele>12.6</ele>
        <time>2012-04-01T13:53:07Z</time>
      </trkpt>
      <trkpt lat="59.5638172" lon="17.5601729">
        <ele>14</ele>
        <time>2012-04-01T13:53:17Z</time>
      </trkpt>
      <trkpt lat="59.5641852" lon="17.5602016">
        <ele>15.8</ele>
        <time>2012-04-01T13:53:27Z</time>
      </trkpt>
      <trkpt lat="59.5645782" lon="17.5601783">
        <ele>20.2</ele>
        <time>2012-04-01T13:53:37Z</time>
      </trkpt>
      <trkpt lat="59.5649754" lon="17.5601788">
        <ele>24.2</ele>
        <time>2012-04-01T13:53:47Z</time>
      </trkpt>
      <trkpt lat="59.5653429" lon="17.5602352">
        <ele>25.6</ele>
        <time>2012-04-01T13:53:57Z</time>
      </trkpt>
      <trkpt lat="59.5657428" lon="17.5603622">
        <ele>29.4</ele>
        <time>2012-04-01T13:54:07Z</time>
      </trkpt>
      <trkpt lat="59.5660961" lon="17.5605563">
        <ele>29.8</ele>
        <time>2012-04-01T13:54:16Z</time>
      </trkpt>
      <trkpt lat="59.5664888" lon="17.5607901">
        <ele>31</ele>
        <time>2012-04-01T13:54:26Z</time>
      </trkpt>
      <trkpt lat="59.5668368" lon="17.5610185">
        <ele>33.4</ele>
        <time>2012-04-01T13:54:35Z</time>
      </trkpt>
      <trkpt lat="59.5671907" lon="17.5612593">
        <ele>35.8</ele>
        <time>2012-04-01T13:54:44Z</time>
      </trkpt>
      <trkpt lat="59.5675389" lon="17.5614729">
        <ele>41</ele>
        <time>2012-04-01T13:54:53Z</time>
      </trkpt>
      <trkpt lat="59.5676179" lon="17.5615157">
        <ele>42.8</ele>
        <time>2012-04-01T13:54:55Z</time>
      </trkpt>
      <trkpt lat="59.56792" lon="17.5616634">
        <ele>42.8</ele>
        <time>2012-04-01T13:55:02Z</time>
      </trkpt>
      <trkpt lat="59.5683018" lon="17.5617769">
        <ele>41.6</ele>
        <time>2012-04-01T13:55:10Z</time>
      </trkpt>
      <trkpt lat="59.5686716" lon="17.5617592">
        <ele>41.4</ele>
        <time>2012-04-01T13:55:17Z</time>
      </trkpt>
      <trkpt lat="59.5690555" lon="17.5616917">
        <ele>40.8</ele>
        <time>2012-04-01T13:55:24Z</time>
      </trkpt>
      <trkpt lat="59.569447" lon="17.5616418">
        <ele>37.8</ele>
        <time>2012-04-01T13:55:31Z</time>
      </trkpt>
      <trkpt lat="59.5698434" lon="17.561647">
        <ele>37.2</ele>
        <time>2012-04-01T13:55:38Z</time>
      </trkpt>
      <trkpt lat="59.5702211" lon="17.5617141">
        <ele>39</ele>
        <time>2012-04-01T13:55:45Z</time>
      </trkpt>
      <trkpt lat="59.5706194" lon="17.5618114">
        <ele>39.6</ele>
        <time>2012-04-01T13:55:52Z</time>
      </trkpt>
      <trkpt lat="59.5710243" lon="17.5619372">
        <ele>39.8</ele>
        <time>2012-04-01T13:55:59Z</time>
      </trkpt>
      <trkpt lat="59.5713875" lon="17.5621322">
        <ele>39.8</ele>
        <time>2012-04-01T13:56:05Z</time>
      </trkpt>
      <trkpt lat="59.5717159" lon="17.5625">
        <ele>38.4</ele>
        <time>2012-04-01T13:56:11Z</time>
      </trkpt>
      <trkpt lat="59.5720362" lon="17.563036">
        <ele>37.4</ele>
        <time>2012-04-01T13:56:17Z</time>
      </trkpt>
      <trkpt lat="59.5723251" lon="17.5636052">
        <ele>37.6</ele>
        <time>2012-04-01T13:56:23Z</time>
      </trkpt>
      <trkpt lat="59.5726303" lon="17.5640735">
        <ele>37.4</ele>
        <time>2012-04-01T13:56:29Z</time>
      </trkpt>
      <trkpt lat="59.5729885" lon="17.5644074">
        <ele>36.8</ele>
        <time>2012-04-01T13:56:35Z</time>
      </trkpt>
      <trkpt lat="59.5733722" lon="17.5646622">
        <ele>37.6</ele>
        <time>2012-04-01T13:56:41Z</time>
      </trkpt>
      <trkpt lat="59.5736118" lon="17.5648322">
        <ele>37.8</ele>
        <time>2012-04-01T13:56:45Z</time>
      </trkpt>
      <trkpt lat="59.5737285" lon="17.5649057">
        <ele>37.6</ele>
        <time>2012-04-01T13:56:47Z</time>
      </trkpt>
      <trkpt lat="59.5740764" lon="17.5651433">
        <ele>38.2</ele>
        <time>2012-04-01T13:56:53Z</time>
      </trkpt>
      <trkpt lat="59.5744327" lon="17.5653719">
        <ele>38.4</ele>
        <time>2012-04-01T13:56:59Z</time>
      </trkpt>
      <trkpt lat="59.5747838" lon="17.5656111">
        <ele>39</ele>
        <time>2012-04-01T13:57:05Z</time>
      </trkpt>
      <trkpt lat="59.5751658" lon="17.5658606">
        <ele>39.8</ele>
        <time>2012-04-01T13:57:11Z</time>
      </trkpt>
      <trkpt lat="59.5755797" lon="17.5661538">
        <ele>40.4</ele>
        <time>2012-04-01T13:57:17Z</time>
      </trkpt>
      <trkpt lat="59.5759596" lon="17.5665287">
        <ele>38</ele>
        <time>2012-04-01T13:57:23Z</time>
      </trkpt>
      <trkpt lat="59.5763247" lon="17.5669715">
        <ele>37.4</ele>
        <time>2012-04-01T13:57:29Z</time>
      </trkpt>
      <trkpt lat="59.576668" lon="17.5673879">
        <ele>37.4</ele>
        <time>2012-04-01T13:57:35Z</time>
      </trkpt>
      <trkpt lat="59.5769955" lon="17.5677982">
        <ele>37.6</ele>
        <time>2012-04-01T13:57:41Z</time>
      </trkpt>
      <trkpt lat="59.5773493" lon="17.5682213">
        <ele>37.6</ele>
        <time>2012-04-01T13:57:47Z</time>
      </trkpt>
      <trkpt lat="59.5777053" lon="17.5686434">
        <ele>38.2</ele>
        <time>2012-04-01T13:57:53Z</time>
      </trkpt>
      <trkpt lat="59.5780668" lon="17.5690706">
        <ele>38</ele>
        <time>2012-04-01T13:57:59Z</time>
      </trkpt>
      <trkpt lat="59.5784408" lon="17.5694919">
        <ele>37.6</ele>
        <time>2012-04-01T13:58:05Z</time>
      </trkpt>
      <trkpt lat="59.5788048" lon="17.5698982">
        <ele>36.2</ele>
        <time>2012-04-01T13:58:10Z</time>
      </trkpt>
      <trkpt lat="59.5789586" lon="17.5700659">
        <ele>34.8</ele>
        <time>2012-04-01T13:58:12Z</time>
      </trkpt>
      <trkpt lat="59.5791171" lon="17.5702556">
        <ele>34.4</ele>
        <time>2012-04-01T13:58:14Z</time>
      </trkpt>
      <trkpt lat="59.5794342" lon="17.5707037">
        <ele>32.2</ele>
        <time>2012-04-01T13:58:18Z</time>
      </trkpt>
      <trkpt lat="59.5797353" lon="17.5711584">
        <ele>30.6</ele>
        <time>2012-04-01T13:58:22Z</time>
      </trkpt>
      <trkpt lat="59.5800957" lon="17.571686">
        <ele>29.8</ele>
        <time>2012-04-01T13:58:27Z</time>
      </trkpt>
      <trkpt lat="59.5804278" lon="17.5721661">
        <ele>31</ele>
        <time>2012-04-01T13:58:32Z</time>
      </trkpt>
      <trkpt lat="59.5807116" lon="17.5727256">
        <ele>31.4</ele>
        <time>2012-04-01T13:58:37Z</time>
      </trkpt>
      <trkpt lat="59.5809441" lon="17.5734045">
        <ele>30.8</ele>
        <time>2012-04-01T13:58:42Z</time>
      </trkpt>
      <trkpt lat="59.5811997" lon="17.5740623">
        <ele>30.2</ele>
        <time>2012-04-01T13:58:47Z</time>
      </trkpt>
      <trkpt lat="59.5815292" lon="17.5745763">
        <ele>29</ele>
        <time>2012-04-01T13:58:52Z</time>
      </trkpt>
      <trkpt lat="59.5818944" lon="17.5749882">
        <ele>27.4</ele>
        <time>2012-04-01T13:58:57Z</time>
      </trkpt>
      <trkpt lat="59.5822746" lon="17.5753999">
        <ele>25.8</ele>
        <time>2012-04-01T13:59:02Z</time>
      </trkpt>
      <trkpt lat="59.5826465" lon="17.5758191">
        <ele>24.2</ele>
        <time>2012-04-01T13:59:07Z</time>
      </trkpt>
      <trkpt lat="59.5830236" lon="17.576226">
        <ele>25</ele>
        <time>2012-04-01T13:59:12Z</time>
      </trkpt>
      <trkpt lat="59.5833925" lon="17.576606">
        <ele>24.8</ele>
        <time>2012-04-01T13:59:17Z</time>
      </trkpt>
      <trkpt lat="59.5837337" lon="17.5769023">
        <ele>25</ele>
        <time>2012-04-01T13:59:22Z</time>
      </trkpt>
      <trkpt lat="59.5841384" lon="17.5771892">
        <ele>25</ele>
        <time>2012-04-01T13:59:28Z</time>
      </trkpt>
      <trkpt lat="59.5845294" lon="17.5774662">
        <ele>25.2</ele>
        <time>2012-04-01T13:59:34Z</time>
      </trkpt>
      <trkpt lat="59.5848439" lon="17.5776869">
        <ele>25.2</ele>
        <time>2012-04-01T13:59:39Z</time>
      </trkpt>
      <trkpt lat="59.584908" lon="17.5777283">
        <ele>24.8</ele>
        <time>2012-04-01T13:59:40Z</time>
      </trkpt>
      <trkpt lat="59.5853006" lon="17.5779964">
        <ele>23.2</ele>
        <time>2012-04-01T13:59:46Z</time>
      </trkpt>
      <trkpt lat="59.5856423" lon="17.5782371">
        <ele>21.2</ele>
        <time>2012-04-01T13:59:51Z</time>
      </trkpt>
      <trkpt lat="59.5860139" lon="17.5784947">
        <ele>19.4</ele>
        <time>2012-04-01T13:59:56Z</time>
      </trkpt>
      <trkpt lat="59.5863673" lon="17.5788049">
        <ele>18.6</ele>
        <time>2012-04-01T14:00:01Z</time>
      </trkpt>
      <trkpt lat="59.5867013" lon="17.5791419">
        <ele>20.6</ele>
        <time>2012-04-01T14:00:06Z</time>
      </trkpt>
      <trkpt lat="59.5870102" lon="17.5795316">
        <ele>22.8</ele>
        <time>2012-04-01T14:00:11Z</time>
      </trkpt>
      <trkpt lat="59.5871813" lon="17.5797512">
        <ele>23.8</ele>
        <time>2012-04-01T14:00:14Z</time>
      </trkpt>
      <trkpt lat="59.5873485" lon="17.5799607">
        <ele>24.8</ele>
        <time>2012-04-01T14:00:17Z</time>
      </trkpt>
      <trkpt lat="59.5876855" lon="17.5803621">
        <ele>24.2</ele>
        <time>2012-04-01T14:00:23Z</time>
      </trkpt>
      <trkpt lat="59.58806" lon="17.5806335">
        <ele>23.8</ele>
        <time>2012-04-01T14:00:29Z</time>
      </trkpt>
      <trkpt lat="59.5884384" lon="17.5808171">
        <ele>22.4</ele>
        <time>2012-04-01T14:00:35Z</time>
      </trkpt>
      <trkpt lat="59.5888459" lon="17.5810164">
        <ele>21.4</ele>
        <time>2012-04-01T14:00:42Z</time>
      </trkpt>
      <trkpt lat="59.589233" lon="17.5812109">
        <ele>19.8</ele>
        <time>2012-04-01T14:00:48Z</time>
      </trkpt>
      <trkpt lat="59.5896503" lon="17.5814204">
        <ele>19.8</ele>
        <time>2012-04-01T14:00:54Z</time>
      </trkpt>
      <trkpt lat="59.5900302" lon="17.5817653">
        <ele>19</ele>
        <time>2012-04-01T14:01:00Z</time>
      </trkpt>
      <trkpt lat="59.5902938" lon="17.5822569">
        <ele>18.8</ele>
        <time>2012-04-01T14:01:05Z</time>
      </trkpt>
      <trkpt lat="59.590453" lon="17.5829278">
        <ele>19</ele>
        <time>2012-04-01T14:01:10Z</time>
      </trkpt>
      <trkpt lat="59.590497" lon="17.5836835">
        <ele>18</ele>
        <time>2012-04-01T14:01:15Z</time>
      </trkpt>
      <trkpt lat="59.59049" lon="17.5845138">
        <ele>17.4</ele>
        <time>2012-04-01T14:01:20Z</time>
      </trkpt>
      <trkpt lat="59.5905415" lon="17.5853261">
        <ele>18.4</ele>
        <time>2012-04-01T14:01:25Z</time>
      </trkpt>
      <trkpt lat="59.5905674" lon="17.5854732">
        <ele>18.6</ele>
        <time>2012-04-01T14:01:26Z</time>
      </trkpt>
      <trkpt lat="59.5906871" lon="17.5860192">
        <ele>19.4</ele>
        <time>2012-04-01T14:01:30Z</time>
      </trkpt>
      <trkpt lat="59.5907886" lon="17.5867424">
        <ele>19.6</ele>
        <time>2012-04-01T14:01:35Z</time>
      </trkpt>
      <trkpt lat="59.5907925" lon="17.586896">
        <ele>19.6</ele>
        <time>2012-04-01T14:01:36Z</time>
      </trkpt>
      <trkpt lat="59.5907441" lon="17.5874966">
        <ele>19.4</ele>
        <time>2012-04-01T14:01:40Z</time>
      </trkpt>
      <trkpt lat="59.5906926" lon="17.587783">
        <ele>18.8</ele>
        <time>2012-04-01T14:01:42Z</time>
      </trkpt>
      <trkpt lat="59.5905975" lon="17.5881832">
        <ele>19.2</ele>
        <time>2012-04-01T14:01:45Z</time>
      </trkpt>
      <trkpt lat="59.5903829" lon="17.5887377">
        <ele>22</ele>
        <time>2012-04-01T14:01:50Z</time>
      </trkpt>
      <trkpt lat="59.590142" lon="17.5892434">
        <ele>22.8</ele>
        <time>2012-04-01T14:01:55Z</time>
      </trkpt>
      <trkpt lat="59.5898648" lon="17.5898323">
        <ele>25.2</ele>
        <time>2012-04-01T14:02:01Z</time>
      </trkpt>
      <trkpt lat="59.5896224" lon="17.5903855">
        <ele>27.2</ele>
        <time>2012-04-01T14:02:07Z</time>
      </trkpt>
      <trkpt lat="59.5894977" lon="17.5908329">
        <ele>26.6</ele>
        <time>2012-04-01T14:02:11Z</time>
      </trkpt>
      <trkpt lat="59.5894598" lon="17.5910982">
        <ele>25.8</ele>
        <time>2012-04-01T14:02:13Z</time>
      </trkpt>
      <trkpt lat="59.589435" lon="17.5913733">
        <ele>24.8</ele>
        <time>2012-04-01T14:02:15Z</time>
      </trkpt>
      <trkpt lat="59.5894583" lon="17.5919366">
        <ele>24.2</ele>
        <time>2012-04-01T14:02:19Z</time>
      </trkpt>
      <trkpt lat="59.5895064" lon="17.5921981">
        <ele>24.2</ele>
        <time>2012-04-01T14:02:21Z</time>
      </trkpt>
      <trkpt lat="59.589632" lon="17.5926607">
        <ele>24.2</ele>
        <time>2012-04-01T14:02:25Z</time>
      </trkpt>
      <trkpt lat="59.5898504" lon="17.5933059">
        <ele>23.6</ele>
        <time>2012-04-01T14:02:31Z</time>
      </trkpt>
      <trkpt lat="59.59004" lon="17.5940495">
        <ele>22.8</ele>
        <time>2012-04-01T14:02:37Z</time>
      </trkpt>
      <trkpt lat="59.5901531" lon="17.5948146">
        <ele>22.4</ele>
        <time>2012-04-01T14:02:43Z</time>
      </trkpt>
      <trkpt lat="59.5902431" lon="17.5955442">
        <ele>22.4</ele>
        <time>2012-04-01T14:02:49Z</time>
      </trkpt>
      <trkpt lat="59.5903413" lon="17.5962955">
        <ele>22.6</ele>
        <time>2012-04-01T14:02:55Z</time>
      </trkpt>
      <trkpt lat="59.5904356" lon="17.5970735">
        <ele>22.2</ele>
        <time>2012-04-01T14:03:01Z</time>
      </trkpt>
      <trkpt lat="59.5905405" lon="17.5978646">
        <ele>21.8</ele>
        <time>2012-04-01T14:03:07Z</time>
      </trkpt>
      <trkpt lat="59.5906389" lon="17.5986306">
        <ele>21.2</ele>
        <time>2012-04-01T14:03:13Z</time>
      </trkpt>
      <trkpt lat="59.5907348" lon="17.5993719">
        <ele>22.2</ele>
        <time>2012-04-01T14:03:19Z</time>
      </trkpt>
      <trkpt lat="59.5908249" lon="17.6001174">
        <ele>23.2</ele>
        <time>2012-04-01T14:03:25Z</time>
      </trkpt>
      <trkpt lat="59.5909195" lon="17.6009001">
        <ele>24.6</ele>
        <time>2012-04-01T14:03:31Z</time>
      </trkpt>
      <trkpt lat="59.591022" lon="17.6017043">
        <ele>26</ele>
        <time>2012-04-01T14:03:37Z</time>
      </trkpt>
      <trkpt lat="59.5911605" lon="17.6024873">
        <ele>27</ele>
        <time>2012-04-01T14:03:43Z</time>
      </trkpt>
      <trkpt lat="59.5913376" lon="17.603214">
        <ele>28.6</ele>
        <time>2012-04-01T14:03:49Z</time>
      </trkpt>
      <trkpt lat="59.5915568" lon="17.6038989">
        <ele>29</ele>
        <time>2012-04-01T14:03:55Z</time>
      </trkpt>
      <trkpt lat="59.5917954" lon="17.6045298">
        <ele>25.8</ele>
        <time>2012-04-01T14:04:00Z</time>
      </trkpt>
      <trkpt lat="59.592037" lon="17.6051582">
        <ele>22</ele>
        <time>2012-04-01T14:04:04Z</time>
      </trkpt>
      <trkpt lat="59.5922968" lon="17.6058098">
        <ele>19.6</ele>
        <time>2012-04-01T14:04:08Z</time>
      </trkpt>
      <trkpt lat="59.5925325" lon="17.60642">
        <ele>18.4</ele>
        <time>2012-04-01T14:04:12Z</time>
      </trkpt>
      <trkpt lat="59.5927954" lon="17.6070995">
        <ele>17.4</ele>
        <time>2012-04-01T14:04:17Z</time>
      </trkpt>
      <trkpt lat="59.5930482" lon="17.607716">
        <ele>17.6</ele>
        <time>2012-04-01T14:04:22Z</time>
      </trkpt>
      <trkpt lat="59.5933272" lon="17.6083324">
        <ele>17.2</ele>
        <time>2012-04-01T14:04:27Z</time>
      </trkpt>
      <trkpt lat="59.5936299" lon="17.6089753">
        <ele>17</ele>
        <time>2012-04-01T14:04:32Z</time>
      </trkpt>
      <trkpt lat="59.5938758" lon="17.6095058">
        <ele>16.8</ele>
        <time>2012-04-01T14:04:36Z</time>
      </trkpt>
      <trkpt lat="59.5941758" lon="17.6101237">
        <ele>16.6</ele>
        <time>2012-04-01T14:04:41Z</time>
      </trkpt>
      <trkpt lat="59.594454" lon="17.6106512">
        <ele>15.8</ele>
        <time>2012-04-01T14:04:46Z</time>
      </trkpt>
      <trkpt lat="59.5947444" lon="17.6111827">
        <ele>15.8</ele>
        <time>2012-04-01T14:04:51Z</time>
      </trkpt>
      <trkpt lat="59.5950166" lon="17.6117275">
        <ele>16.2</ele>
        <time>2012-04-01T14:04:56Z</time>
      </trkpt>
      <trkpt lat="59.5952554" lon="17.6123083">
        <ele>16.8</ele>
        <time>2012-04-01T14:05:01Z</time>
      </trkpt>
      <trkpt lat="59.5954801" lon="17.6129837">
        <ele>17.4</ele>
        <time>2012-04-01T14:05:07Z</time>
      </trkpt>
      <trkpt lat="59.5956775" lon="17.6136364">
        <ele>17.2</ele>
        <time>2012-04-01T14:05:13Z</time>
      </trkpt>
      <trkpt lat="59.5958525" lon="17.6143248">
        <ele>17.6</ele>
        <time>2012-04-01T14:05:21Z</time>
      </trkpt>
      <trkpt lat="59.5958744" lon="17.6144569">
        <ele>17.8</ele>
        <time>2012-04-01T14:05:26Z</time>
      </trkpt>
      <trkpt lat="59.5959769" lon="17.6147127">
        <ele>20.2</ele>
        <time>2012-04-01T14:05:36Z</time>
      </trkpt>
      <trkpt lat="59.5961141" lon="17.6149172">
        <ele>20</ele>
        <time>2012-04-01T14:05:39Z</time>
      </trkpt>
      <trkpt lat="59.5963986" lon="17.6153821">
        <ele>18.6</ele>
        <time>2012-04-01T14:05:44Z</time>
      </trkpt>
      <trkpt lat="59.5967204" lon="17.6160115">
        <ele>17</ele>
        <time>2012-04-01T14:05:49Z</time>
      </trkpt>
      <trkpt lat="59.5969809" lon="17.6165492">
        <ele>16.2</ele>
        <time>2012-04-01T14:05:53Z</time>
      </trkpt>
      <trkpt lat="59.5972359" lon="17.617094">
        <ele>15.6</ele>
        <time>2012-04-01T14:05:57Z</time>
      </trkpt>
      <trkpt lat="59.5974887" lon="17.6176298">
        <ele>15.2</ele>
        <time>2012-04-01T14:06:01Z</time>
      </trkpt>
      <trkpt lat="59.5977365" lon="17.6181664">
        <ele>14.8</ele>
        <time>2012-04-01T14:06:05Z</time>
      </trkpt>
      <trkpt lat="59.5980405" lon="17.6188044">
        <ele>14.6</ele>
        <time>2012-04-01T14:06:10Z</time>
      </trkpt>
      <trkpt lat="59.5983268" lon="17.6194495">
        <ele>14.4</ele>
        <time>2012-04-01T14:06:15Z</time>
      </trkpt>
      <trkpt lat="59.5985353" lon="17.6200281">
        <ele>14.4</ele>
        <time>2012-04-01T14:06:19Z</time>
      </trkpt>
      <trkpt lat="59.5987344" lon="17.6208014">
        <ele>15</ele>
        <time>2012-04-01T14:06:24Z</time>
      </trkpt>
      <trkpt lat="59.5988628" lon="17.6216101">
        <ele>16</ele>
        <time>2012-04-01T14:06:29Z</time>
      </trkpt>
      <trkpt lat="59.5989173" lon="17.6223685">
        <ele>17</ele>
        <time>2012-04-01T14:06:34Z</time>
      </trkpt>
      <trkpt lat="59.5989082" lon="17.6231616">
        <ele>18.8</ele>
        <time>2012-04-01T14:06:40Z</time>
      </trkpt>
      <trkpt lat="59.5988432" lon="17.6238625">
        <ele>20.8</ele>
        <time>2012-04-01T14:06:46Z</time>
      </trkpt>
      <trkpt lat="59.5987212" lon="17.6245794">
        <ele>21.4</ele>
        <time>2012-04-01T14:06:52Z</time>
      </trkpt>
      <trkpt lat="59.5985624" lon="17.6252517">
        <ele>20.4</ele>
        <time>2012-04-01T14:06:57Z</time>
      </trkpt>
      <trkpt lat="59.5983684" lon="17.6259681">
        <ele>19.2</ele>
        <time>2012-04-01T14:07:02Z</time>
      </trkpt>
      <trkpt lat="59.5981774" lon="17.6266663">
        <ele>18.8</ele>
        <time>2012-04-01T14:07:07Z</time>
      </trkpt>
      <trkpt lat="59.5980526" lon="17.6274094">
        <ele>16.6</ele>
        <time>2012-04-01T14:07:12Z</time>
      </trkpt>
      <trkpt lat="59.5979758" lon="17.6282422">
        <ele>14.4</ele>
        <time>2012-04-01T14:07:17Z</time>
      </trkpt>
      <trkpt lat="59.597876" lon="17.6289483">
        <ele>12.6</ele>
        <time>2012-04-01T14:07:21Z</time>
      </trkpt>
      <trkpt lat="59.5977518" lon="17.6296588">
        <ele>11.4</ele>
        <time>2012-04-01T14:07:25Z</time>
      </trkpt>
      <trkpt lat="59.5975801" lon="17.6304748">
        <ele>11.8</ele>
        <time>2012-04-01T14:07:30Z</time>
      </trkpt>
      <trkpt lat="59.5974212" lon="17.6311972">
        <ele>13</ele>
        <time>2012-04-01T14:07:35Z</time>
      </trkpt>
      <trkpt lat="59.5972454" lon="17.6318885">
        <ele>13</ele>
        <time>2012-04-01T14:07:40Z</time>
      </trkpt>
      <trkpt lat="59.5970426" lon="17.6325961">
        <ele>12.6</ele>
        <time>2012-04-01T14:07:45Z</time>
      </trkpt>
      <trkpt lat="59.5968303" lon="17.6333309">
        <ele>12.2</ele>
        <time>2012-04-01T14:07:50Z</time>
      </trkpt>
      <trkpt lat="59.5966502" lon="17.6339531">
        <ele>11.2</ele>
        <time>2012-04-01T14:07:54Z</time>
      </trkpt>
      <trkpt lat="59.5964651" lon="17.634591">
        <ele>9.4</ele>
        <time>2012-04-01T14:07:58Z</time>
      </trkpt>
      <trkpt lat="59.5962742" lon="17.6352385">
        <ele>8</ele>
        <time>2012-04-01T14:08:02Z</time>
      </trkpt>
      <trkpt lat="59.5960894" lon="17.6358586">
        <ele>7.8</ele>
        <time>2012-04-01T14:08:06Z</time>
      </trkpt>
      <trkpt lat="59.5959009" lon="17.6364765">
        <ele>8.2</ele>
        <time>2012-04-01T14:08:10Z</time>
      </trkpt>
      <trkpt lat="59.5956608" lon="17.6372042">
        <ele>9</ele>
        <time>2012-04-01T14:08:15Z</time>
      </trkpt>
      <trkpt lat="59.5954103" lon="17.6378477">
        <ele>9.6</ele>
        <time>2012-04-01T14:08:20Z</time>
      </trkpt>
      <trkpt lat="59.5951617" lon="17.6385112">
        <ele>9.8</ele>
        <time>2012-04-01T14:08:25Z</time>
      </trkpt>
      <trkpt lat="59.5949242" lon="17.6392354">
        <ele>9.4</ele>
        <time>2012-04-01T14:08:30Z</time>
      </trkpt>
      <trkpt lat="59.5947378" lon="17.6398539">
        <ele>8</ele>
        <time>2012-04-01T14:08:34Z</time>
      </trkpt>
      <trkpt lat="59.5945364" lon="17.6404593">
        <ele>7.6</ele>
        <time>2012-04-01T14:08:38Z</time>
      </trkpt>
      <trkpt lat="59.5943182" lon="17.6410452">
        <ele>7.2</ele>
        <time>2012-04-01T14:08:42Z</time>
      </trkpt>
      <trkpt lat="59.5940831" lon="17.6416134">
        <ele>7</ele>
        <time>2012-04-01T14:08:46Z</time>
      </trkpt>
      <trkpt lat="59.5938267" lon="17.6421559">
        <ele>6.8</ele>
        <time>2012-04-01T14:08:50Z</time>
      </trkpt>
      <trkpt lat="59.5935579" lon="17.6426349">
        <ele>6.8</ele>
        <time>2012-04-01T14:08:54Z</time>
      </trkpt>
      <trkpt lat="59.5932212" lon="17.6431688">
        <ele>6</ele>
        <time>2012-04-01T14:08:59Z</time>
      </trkpt>
      <trkpt lat="59.5928996" lon="17.6436566">
        <ele>6.8</ele>
        <time>2012-04-01T14:09:04Z</time>
      </trkpt>
      <trkpt lat="59.5925908" lon="17.6442053">
        <ele>8.4</ele>
        <time>2012-04-01T14:09:10Z</time>
      </trkpt>
      <trkpt lat="59.5923072" lon="17.6448232">
        <ele>7.4</ele>
        <time>2012-04-01T14:09:16Z</time>
      </trkpt>
      <trkpt lat="59.5920353" lon="17.64541">
        <ele>6.6</ele>
        <time>2012-04-01T14:09:21Z</time>
      </trkpt>
      <trkpt lat="59.5917375" lon="17.6459893">
        <ele>5.8</ele>
        <time>2012-04-01T14:09:26Z</time>
      </trkpt>
      <trkpt lat="59.591435" lon="17.6465036">
        <ele>4.8</ele>
        <time>2012-04-01T14:09:31Z</time>
      </trkpt>
      <trkpt lat="59.5911065" lon="17.6469591">
        <ele>3.6</ele>
        <time>2012-04-01T14:09:36Z</time>
      </trkpt>
      <trkpt lat="59.5907732" lon="17.6473759">
        <ele>3.4</ele>
        <time>2012-04-01T14:09:41Z</time>
      </trkpt>
      <trkpt lat="59.5904603" lon="17.647785">
        <ele>4.2</ele>
        <time>2012-04-01T14:09:46Z</time>
      </trkpt>
      <trkpt lat="59.5901643" lon="17.6483597">
        <ele>5.2</ele>
        <time>2012-04-01T14:09:52Z</time>
      </trkpt>
      <trkpt lat="59.5899484" lon="17.6489383">
        <ele>5.2</ele>
        <time>2012-04-01T14:09:57Z</time>
      </trkpt>
      <trkpt lat="59.5897619" lon="17.6496029">
        <ele>4.8</ele>
        <time>2012-04-01T14:10:02Z</time>
      </trkpt>
      <trkpt lat="59.5895977" lon="17.650237">
        <ele>5.2</ele>
        <time>2012-04-01T14:10:07Z</time>
      </trkpt>
      <trkpt lat="59.5894056" lon="17.6509611">
        <ele>6</ele>
        <time>2012-04-01T14:10:13Z</time>
      </trkpt>
      <trkpt lat="59.5892139" lon="17.65168">
        <ele>6.6</ele>
        <time>2012-04-01T14:10:19Z</time>
      </trkpt>
      <trkpt lat="59.589044" lon="17.6523649">
        <ele>8.6</ele>
        <time>2012-04-01T14:10:25Z</time>
      </trkpt>
      <trkpt lat="59.5888781" lon="17.6530181">
        <ele>11.8</ele>
        <time>2012-04-01T14:10:31Z</time>
      </trkpt>
      <trkpt lat="59.5887175" lon="17.653648">
        <ele>13.2</ele>
        <time>2012-04-01T14:10:37Z</time>
      </trkpt>
      <trkpt lat="59.5885492" lon="17.6542958">
        <ele>14</ele>
        <time>2012-04-01T14:10:43Z</time>
      </trkpt>
      <trkpt lat="59.5883703" lon="17.6549814">
        <ele>14.4</ele>
        <time>2012-04-01T14:10:49Z</time>
      </trkpt>
      <trkpt lat="59.5881684" lon="17.6557033">
        <ele>14.4</ele>
        <time>2012-04-01T14:10:55Z</time>
      </trkpt>
      <trkpt lat="59.5879483" lon="17.656387">
        <ele>14.8</ele>
        <time>2012-04-01T14:11:01Z</time>
      </trkpt>
      <trkpt lat="59.5876897" lon="17.6570498">
        <ele>13.8</ele>
        <time>2012-04-01T14:11:07Z</time>
      </trkpt>
      <trkpt lat="59.5874195" lon="17.657703">
        <ele>12</ele>
        <time>2012-04-01T14:11:13Z</time>
      </trkpt>
      <trkpt lat="59.5871571" lon="17.6583467">
        <ele>11</ele>
        <time>2012-04-01T14:11:19Z</time>
      </trkpt>
      <trkpt lat="59.5868942" lon="17.6589742">
        <ele>10.6</ele>
        <time>2012-04-01T14:11:25Z</time>
      </trkpt>
      <trkpt lat="59.5866336" lon="17.6596139">
        <ele>10.4</ele>
        <time>2012-04-01T14:11:31Z</time>
      </trkpt>
      <trkpt lat="59.5863788" lon="17.6602313">
        <ele>10.6</ele>
        <time>2012-04-01T14:11:37Z</time>
      </trkpt>
      <trkpt lat="59.5861294" lon="17.6608292">
        <ele>10</ele>
        <time>2012-04-01T14:11:43Z</time>
      </trkpt>
      <trkpt lat="59.5858882" lon="17.6614148">
        <ele>10.4</ele>
        <time>2012-04-01T14:11:49Z</time>
      </trkpt>
      <trkpt lat="59.5856539" lon="17.6620052">
        <ele>10.8</ele>
        <time>2012-04-01T14:11:55Z</time>
      </trkpt>
      <trkpt lat="59.5854201" lon="17.6626298">
        <ele>11.4</ele>
        <time>2012-04-01T14:12:01Z</time>
      </trkpt>
      <trkpt lat="59.5851944" lon="17.6632882">
        <ele>11.8</ele>
        <time>2012-04-01T14:12:07Z</time>
      </trkpt>
      <trkpt lat="59.5849856" lon="17.6639734">
        <ele>13.4</ele>
        <time>2012-04-01T14:12:13Z</time>
      </trkpt>
      <trkpt lat="59.5847886" lon="17.6646935">
        <ele>14.2</ele>
        <time>2012-04-01T14:12:19Z</time>
      </trkpt>
      <trkpt lat="59.5846216" lon="17.6653404">
        <ele>14.4</ele>
        <time>2012-04-01T14:12:24Z</time>
      </trkpt>
      <trkpt lat="59.5844417" lon="17.6660332">
        <ele>14</ele>
        <time>2012-04-01T14:12:29Z</time>
      </trkpt>
      <trkpt lat="59.5842605" lon="17.6667234">
        <ele>14.4</ele>
        <time>2012-04-01T14:12:34Z</time>
      </trkpt>
      <trkpt lat="59.5840824" lon="17.6674209">
        <ele>14.4</ele>
        <time>2012-04-01T14:12:39Z</time>
      </trkpt>
      <trkpt lat="59.583902" lon="17.6680943">
        <ele>14.4</ele>
        <time>2012-04-01T14:12:44Z</time>
      </trkpt>
      <trkpt lat="59.5837041" lon="17.6687676">
        <ele>14.6</ele>
        <time>2012-04-01T14:12:49Z</time>
      </trkpt>
      <trkpt lat="59.5834769" lon="17.6694162">
        <ele>15</ele>
        <time>2012-04-01T14:12:54Z</time>
      </trkpt>
      <trkpt lat="59.5832348" lon="17.6700107">
        <ele>15.6</ele>
        <time>2012-04-01T14:12:59Z</time>
      </trkpt>
      <trkpt lat="59.5829379" lon="17.6706334">
        <ele>16.6</ele>
        <time>2012-04-01T14:13:05Z</time>
      </trkpt>
      <trkpt lat="59.5826279" lon="17.6711893">
        <ele>17</ele>
        <time>2012-04-01T14:13:11Z</time>
      </trkpt>
      <trkpt lat="59.582299" lon="17.6717302">
        <ele>17.2</ele>
        <time>2012-04-01T14:13:17Z</time>
      </trkpt>
      <trkpt lat="59.5819727" lon="17.6722631">
        <ele>17.4</ele>
        <time>2012-04-01T14:13:23Z</time>
      </trkpt>
      <trkpt lat="59.581646" lon="17.6727792">
        <ele>18</ele>
        <time>2012-04-01T14:13:29Z</time>
      </trkpt>
      <trkpt lat="59.5813354" lon="17.6732631">
        <ele>19.2</ele>
        <time>2012-04-01T14:13:35Z</time>
      </trkpt>
      <trkpt lat="59.5810296" lon="17.6737608">
        <ele>18.8</ele>
        <time>2012-04-01T14:13:42Z</time>
      </trkpt>
      <trkpt lat="59.5807424" lon="17.6742327">
        <ele>18.4</ele>
        <time>2012-04-01T14:13:48Z</time>
      </trkpt>
      <trkpt lat="59.5804222" lon="17.6746754">
        <ele>19.2</ele>
        <time>2012-04-01T14:13:54Z</time>
      </trkpt>
      <trkpt lat="59.5800934" lon="17.6750646">
        <ele>19.2</ele>
        <time>2012-04-01T14:14:00Z</time>
      </trkpt>
      <trkpt lat="59.5797374" lon="17.6753852">
        <ele>19.4</ele>
        <time>2012-04-01T14:14:06Z</time>
      </trkpt>
      <trkpt lat="59.5793939" lon="17.6755918">
        <ele>20.6</ele>
        <time>2012-04-01T14:14:12Z</time>
      </trkpt>
      <trkpt lat="59.5790065" lon="17.6757425">
        <ele>24.8</ele>
        <time>2012-04-01T14:14:20Z</time>
      </trkpt>
      <trkpt lat="59.5786499" lon="17.6758489">
        <ele>30.4</ele>
        <time>2012-04-01T14:14:28Z</time>
      </trkpt>
      <trkpt lat="59.5782828" lon="17.6759657">
        <ele>36</ele>
        <time>2012-04-01T14:14:36Z</time>
      </trkpt>
      <trkpt lat="59.5779037" lon="17.6761261">
        <ele>39.6</ele>
        <time>2012-04-01T14:14:45Z</time>
      </trkpt>
      <trkpt lat="59.577827" lon="17.6761794">
        <ele>39.8</ele>
        <time>2012-04-01T14:14:47Z</time>
      </trkpt>
      <trkpt lat="59.5775957" lon="17.6763481">
        <ele>41.2</ele>
        <time>2012-04-01T14:14:53Z</time>
      </trkpt>
      <trkpt lat="59.5775584" lon="17.6763887">
        <ele>41</ele>
        <time>2012-04-01T14:14:54Z</time>
      </trkpt>
      <trkpt lat="59.5772153" lon="17.6767823">
        <ele>43.6</ele>
        <time>2012-04-01T14:15:03Z</time>
      </trkpt>
      <trkpt lat="59.5768806" lon="17.6771852">
        <ele>47</ele>
        <time>2012-04-01T14:15:11Z</time>
      </trkpt>
      <trkpt lat="59.5765656" lon="17.6775885">
        <ele>49</ele>
        <time>2012-04-01T14:15:18Z</time>
      </trkpt>
      <trkpt lat="59.5762553" lon="17.6779516">
        <ele>48.8</ele>
        <time>2012-04-01T14:15:25Z</time>
      </trkpt>
      <trkpt lat="59.5761213" lon="17.6781261">
        <ele>48.2</ele>
        <time>2012-04-01T14:15:28Z</time>
      </trkpt>
      <trkpt lat="59.5759601" lon="17.6784038">
        <ele>47</ele>
        <time>2012-04-01T14:15:32Z</time>
      </trkpt>
      <trkpt lat="59.5757109" lon="17.67896">
        <ele>44</ele>
        <time>2012-04-01T14:15:38Z</time>
      </trkpt>
      <trkpt lat="59.5754768" lon="17.6796359">
        <ele>43</ele>
        <time>2012-04-01T14:15:44Z</time>
      </trkpt>
      <trkpt lat="59.5752657" lon="17.6803354">
        <ele>43.6</ele>
        <time>2012-04-01T14:15:50Z</time>
      </trkpt>
      <trkpt lat="59.5750678" lon="17.6810736">
        <ele>44</ele>
        <time>2012-04-01T14:15:56Z</time>
      </trkpt>
      <trkpt lat="59.5748682" lon="17.6817113">
        <ele>42.8</ele>
        <time>2012-04-01T14:16:01Z</time>
      </trkpt>
      <trkpt lat="59.574577" lon="17.682311">
        <ele>41.8</ele>
        <time>2012-04-01T14:16:06Z</time>
      </trkpt>
      <trkpt lat="59.5742302" lon="17.682843">
        <ele>38.6</ele>
        <time>2012-04-01T14:16:11Z</time>
      </trkpt>
      <trkpt lat="59.5738422" lon="17.6832418">
        <ele>37</ele>
        <time>2012-04-01T14:16:16Z</time>
      </trkpt>
      <trkpt lat="59.5734496" lon="17.6834958">
        <ele>35.4</ele>
        <time>2012-04-01T14:16:21Z</time>
      </trkpt>
      <trkpt lat="59.5730819" lon="17.6837164">
        <ele>34.8</ele>
        <time>2012-04-01T14:16:26Z</time>
      </trkpt>
      <trkpt lat="59.5727376" lon="17.6839297">
        <ele>33.8</ele>
        <time>2012-04-01T14:16:31Z</time>
      </trkpt>
      <trkpt lat="59.5723302" lon="17.6841736">
        <ele>33</ele>
        <time>2012-04-01T14:16:37Z</time>
      </trkpt>
      <trkpt lat="59.5719978" lon="17.6843876">
        <ele>32.6</ele>
        <time>2012-04-01T14:16:42Z</time>
      </trkpt>
      <trkpt lat="59.5716454" lon="17.6846087">
        <ele>31.6</ele>
        <time>2012-04-01T14:16:47Z</time>
      </trkpt>
      <trkpt lat="59.5712721" lon="17.6848394">
        <ele>31.2</ele>
        <time>2012-04-01T14:16:52Z</time>
      </trkpt>
      <trkpt lat="59.570898" lon="17.6850643">
        <ele>31.2</ele>
        <time>2012-04-01T14:16:57Z</time>
      </trkpt>
      <trkpt lat="59.5705296" lon="17.6852864">
        <ele>30.8</ele>
        <time>2012-04-01T14:17:02Z</time>
      </trkpt>
      <trkpt lat="59.5701209" lon="17.6855097">
        <ele>32.4</ele>
        <time>2012-04-01T14:17:08Z</time>
      </trkpt>
      <trkpt lat="59.569745" lon="17.6857273">
        <ele>34</ele>
        <time>2012-04-01T14:17:15Z</time>
      </trkpt>
      <trkpt lat="59.569368" lon="17.6859102">
        <ele>40.2</ele>
        <time>2012-04-01T14:17:22Z</time>
      </trkpt>
      <trkpt lat="59.5689835" lon="17.6861458">
        <ele>43.8</ele>
        <time>2012-04-01T14:17:29Z</time>
      </trkpt>
      <trkpt lat="59.5685939" lon="17.6863838">
        <ele>46</ele>
        <time>2012-04-01T14:17:36Z</time>
      </trkpt>
      <trkpt lat="59.5682592" lon="17.6866147">
        <ele>47.8</ele>
        <time>2012-04-01T14:17:42Z</time>
      </trkpt>
      <trkpt lat="59.5679226" lon="17.6869188">
        <ele>48.4</ele>
        <time>2012-04-01T14:17:48Z</time>
      </trkpt>
      <trkpt lat="59.56759" lon="17.6873259">
        <ele>47</ele>
        <time>2012-04-01T14:17:54Z</time>
      </trkpt>
      <trkpt lat="59.5672676" lon="17.6878387">
        <ele>45</ele>
        <time>2012-04-01T14:18:00Z</time>
      </trkpt>
      <trkpt lat="59.5669988" lon="17.6883315">
        <ele>42.6</ele>
        <time>2012-04-01T14:18:05Z</time>
      </trkpt>
      <trkpt lat="59.5667203" lon="17.6888759">
        <ele>40.6</ele>
        <time>2012-04-01T14:18:11Z</time>
      </trkpt>
      <trkpt lat="59.566443" lon="17.6894501">
        <ele>40</ele>
        <time>2012-04-01T14:18:17Z</time>
      </trkpt>
      <trkpt lat="59.5661557" lon="17.6900221">
        <ele>40.4</ele>
        <time>2012-04-01T14:18:23Z</time>
      </trkpt>
      <trkpt lat="59.5659044" lon="17.6905561">
        <ele>42.2</ele>
        <time>2012-04-01T14:18:29Z</time>
      </trkpt>
      <trkpt lat="59.5656637" lon="17.6911818">
        <ele>41.8</ele>
        <time>2012-04-01T14:18:36Z</time>
      </trkpt>
      <trkpt lat="59.5654401" lon="17.6919005">
        <ele>41.4</ele>
        <time>2012-04-01T14:18:43Z</time>
      </trkpt>
      <trkpt lat="59.5652786" lon="17.6925691">
        <ele>40</ele>
        <time>2012-04-01T14:18:49Z</time>
      </trkpt>
      <trkpt lat="59.5651035" lon="17.6933717">
        <ele>38.2</ele>
        <time>2012-04-01T14:18:55Z</time>
      </trkpt>
      <trkpt lat="59.5649783" lon="17.6941539">
        <ele>35.8</ele>
        <time>2012-04-01T14:19:01Z</time>
      </trkpt>
      <trkpt lat="59.5648974" lon="17.6949514">
        <ele>33.4</ele>
        <time>2012-04-01T14:19:07Z</time>
      </trkpt>
      <trkpt lat="59.5648279" lon="17.6957437">
        <ele>32.6</ele>
        <time>2012-04-01T14:19:13Z</time>
      </trkpt>
      <trkpt lat="59.5647506" lon="17.6964767">
        <ele>31.2</ele>
        <time>2012-04-01T14:19:19Z</time>
      </trkpt>
      <trkpt lat="59.5646835" lon="17.697241">
        <ele>31.6</ele>
        <time>2012-04-01T14:19:25Z</time>
      </trkpt>
      <trkpt lat="59.5646228" lon="17.6979967">
        <ele>31.4</ele>
        <time>2012-04-01T14:19:31Z</time>
      </trkpt>
      <trkpt lat="59.5645538" lon="17.6987457">
        <ele>31.4</ele>
        <time>2012-04-01T14:19:37Z</time>
      </trkpt>
      <trkpt lat="59.564484" lon="17.6995276">
        <ele>31.2</ele>
        <time>2012-04-01T14:19:43Z</time>
      </trkpt>
      <trkpt lat="59.5644215" lon="17.700321">
        <ele>30.8</ele>
        <time>2012-04-01T14:19:49Z</time>
      </trkpt>
      <trkpt lat="59.5643628" lon="17.701111">
        <ele>31</ele>
        <time>2012-04-01T14:19:55Z</time>
      </trkpt>
      <trkpt lat="59.5642884" lon="17.7018911">
        <ele>31.6</ele>
        <time>2012-04-01T14:20:01Z</time>
      </trkpt>
      <trkpt lat="59.56423" lon="17.7026565">
        <ele>32.4</ele>
        <time>2012-04-01T14:20:07Z</time>
      </trkpt>
      <trkpt lat="59.56417" lon="17.7034508">
        <ele>32.2</ele>
        <time>2012-04-01T14:20:13Z</time>
      </trkpt>
      <trkpt lat="59.564112" lon="17.7042125">
        <ele>33.2</ele>
        <time>2012-04-01T14:20:19Z</time>
      </trkpt>
      <trkpt lat="59.5640406" lon="17.7049818">
        <ele>35.4</ele>
        <time>2012-04-01T14:20:26Z</time>
      </trkpt>
      <trkpt lat="59.56395" lon="17.7057242">
        <ele>35.8</ele>
        <time>2012-04-01T14:20:33Z</time>
      </trkpt>
      <trkpt lat="59.5638277" lon="17.7065187">
        <ele>35.4</ele>
        <time>2012-04-01T14:20:40Z</time>
      </trkpt>
      <trkpt lat="59.5636853" lon="17.7071828">
        <ele>34.2</ele>
        <time>2012-04-01T14:20:45Z</time>
      </trkpt>
      <trkpt lat="59.5634994" lon="17.7079577">
        <ele>33.4</ele>
        <time>2012-04-01T14:20:51Z</time>
      </trkpt>
      <trkpt lat="59.5633215" lon="17.7087226">
        <ele>33.2</ele>
        <time>2012-04-01T14:20:57Z</time>
      </trkpt>
      <trkpt lat="59.5632456" lon="17.7092458">
        <ele>33</ele>
        <time>2012-04-01T14:21:01Z</time>
      </trkpt>
      <trkpt lat="59.5632376" lon="17.7095038">
        <ele>33.2</ele>
        <time>2012-04-01T14:21:03Z</time>
      </trkpt>
      <trkpt lat="59.5632658" lon="17.7098718">
        <ele>32.8</ele>
        <time>2012-04-01T14:21:06Z</time>
      </trkpt>
      <trkpt lat="59.5632731" lon="17.7099899">
        <ele>32.8</ele>
        <time>2012-04-01T14:21:07Z</time>
      </trkpt>
      <trkpt lat="59.5632477" lon="17.7102218">
        <ele>32.6</ele>
        <time>2012-04-01T14:21:09Z</time>
      </trkpt>
      <trkpt lat="59.5629311" lon="17.7105845">
        <ele>32.6</ele>
        <time>2012-04-01T14:21:15Z</time>
      </trkpt>
      <trkpt lat="59.5625372" lon="17.7108296">
        <ele>33.4</ele>
        <time>2012-04-01T14:21:21Z</time>
      </trkpt>
      <trkpt lat="59.5621333" lon="17.7110833">
        <ele>34.8</ele>
        <time>2012-04-01T14:21:27Z</time>
      </trkpt>
      <trkpt lat="59.5617627" lon="17.7113491">
        <ele>36.6</ele>
        <time>2012-04-01T14:21:33Z</time>
      </trkpt>
      <trkpt lat="59.5614215" lon="17.7116228">
        <ele>38</ele>
        <time>2012-04-01T14:21:39Z</time>
      </trkpt>
      <trkpt lat="59.5610563" lon="17.7119708">
        <ele>37.6</ele>
        <time>2012-04-01T14:21:46Z</time>
      </trkpt>
      <trkpt lat="59.5607161" lon="17.7123647">
        <ele>38.2</ele>
        <time>2012-04-01T14:21:53Z</time>
      </trkpt>
      <trkpt lat="59.5603912" lon="17.7128147">
        <ele>39.2</ele>
        <time>2012-04-01T14:22:00Z</time>
      </trkpt>
      <trkpt lat="59.5601306" lon="17.7132787">
        <ele>40.4</ele>
        <time>2012-04-01T14:22:06Z</time>
      </trkpt>
      <trkpt lat="59.5598436" lon="17.7138485">
        <ele>41.6</ele>
        <time>2012-04-01T14:22:13Z</time>
      </trkpt>
      <trkpt lat="59.5596111" lon="17.7144007">
        <ele>42.6</ele>
        <time>2012-04-01T14:22:20Z</time>
      </trkpt>
      <trkpt lat="59.5595275" lon="17.7146151">
        <ele>42.6</ele>
        <time>2012-04-01T14:22:23Z</time>
      </trkpt>
      <trkpt lat="59.5593806" lon="17.7150333">
        <ele>42.4</ele>
        <time>2012-04-01T14:22:29Z</time>
      </trkpt>
      <trkpt lat="59.5591843" lon="17.7156461">
        <ele>42.6</ele>
        <time>2012-04-01T14:22:35Z</time>
      </trkpt>
      <trkpt lat="59.5589938" lon="17.7162641">
        <ele>42.4</ele>
        <time>2012-04-01T14:22:40Z</time>
      </trkpt>
      <trkpt lat="59.558776" lon="17.7169562">
        <ele>41.6</ele>
        <time>2012-04-01T14:22:45Z</time>
      </trkpt>
      <trkpt lat="59.5585792" lon="17.7175713">
        <ele>40</ele>
        <time>2012-04-01T14:22:49Z</time>
      </trkpt>
      <trkpt lat="59.558361" lon="17.7181858">
        <ele>38</ele>
        <time>2012-04-01T14:22:53Z</time>
      </trkpt>
      <trkpt lat="59.5581346" lon="17.7187578">
        <ele>34.8</ele>
        <time>2012-04-01T14:22:57Z</time>
      </trkpt>
      <trkpt lat="59.5578717" lon="17.7193862">
        <ele>33</ele>
        <time>2012-04-01T14:23:02Z</time>
      </trkpt>
      <trkpt lat="59.5575881" lon="17.7199904">
        <ele>32.8</ele>
        <time>2012-04-01T14:23:08Z</time>
      </trkpt>
      <trkpt lat="59.5573193" lon="17.7205656">
        <ele>33.2</ele>
        <time>2012-04-01T14:23:15Z</time>
      </trkpt>
      <trkpt lat="59.5570434" lon="17.7211104">
        <ele>33</ele>
        <time>2012-04-01T14:23:23Z</time>
      </trkpt>
      <trkpt lat="59.5567671" lon="17.7216268">
        <ele>35</ele>
        <time>2012-04-01T14:23:31Z</time>
      </trkpt>
      <trkpt lat="59.5565006" lon="17.7221424">
        <ele>38.2</ele>
        <time>2012-04-01T14:23:39Z</time>
      </trkpt>
      <trkpt lat="59.5562362" lon="17.7226501">
        <ele>41.2</ele>
        <time>2012-04-01T14:23:47Z</time>
      </trkpt>
      <trkpt lat="59.555954" lon="17.7231758">
        <ele>39</ele>
        <time>2012-04-01T14:23:55Z</time>
      </trkpt>
      <trkpt lat="59.5556389" lon="17.7236525">
        <ele>41.4</ele>
        <time>2012-04-01T14:24:03Z</time>
      </trkpt>
      <trkpt lat="59.5553832" lon="17.7241081">
        <ele>42.2</ele>
        <time>2012-04-01T14:24:10Z</time>
      </trkpt>
      <trkpt lat="59.5551188" lon="17.724611">
        <ele>42.4</ele>
        <time>2012-04-01T14:24:17Z</time>
      </trkpt>
      <trkpt lat="59.5548587" lon="17.7251389">
        <ele>43.6</ele>
        <time>2012-04-01T14:24:24Z</time>
      </trkpt>
      <trkpt lat="59.5546057" lon="17.7257113">
        <ele>44</ele>
        <time>2012-04-01T14:24:31Z</time>
      </trkpt>
      <trkpt lat="59.5543428" lon="17.7263246">
        <ele>44</ele>
        <time>2012-04-01T14:24:38Z</time>
      </trkpt>
      <trkpt lat="59.5541229" lon="17.7269035">
        <ele>44.8</ele>
        <time>2012-04-01T14:24:44Z</time>
      </trkpt>
      <trkpt lat="59.5538933" lon="17.7275257">
        <ele>45.4</ele>
        <time>2012-04-01T14:24:50Z</time>
      </trkpt>
      <trkpt lat="59.5535909" lon="17.7281368">
        <ele>47.8</ele>
        <time>2012-04-01T14:24:56Z</time>
      </trkpt>
      <trkpt lat="59.5533577" lon="17.7287183">
        <ele>50</ele>
        <time>2012-04-01T14:25:01Z</time>
      </trkpt>
      <trkpt lat="59.553121" lon="17.7293506">
        <ele>51.4</ele>
        <time>2012-04-01T14:25:06Z</time>
      </trkpt>
      <trkpt lat="59.5528773" lon="17.7300021">
        <ele>51.8</ele>
        <time>2012-04-01T14:25:11Z</time>
      </trkpt>
      <trkpt lat="59.552629" lon="17.7306936">
        <ele>51</ele>
        <time>2012-04-01T14:25:16Z</time>
      </trkpt>
      <trkpt lat="59.5524067" lon="17.7312946">
        <ele>47.6</ele>
        <time>2012-04-01T14:25:20Z</time>
      </trkpt>
      <trkpt lat="59.5521508" lon="17.7319391">
        <ele>43.2</ele>
        <time>2012-04-01T14:25:24Z</time>
      </trkpt>
      <trkpt lat="59.5518758" lon="17.732583">
        <ele>39.2</ele>
        <time>2012-04-01T14:25:28Z</time>
      </trkpt>
      <trkpt lat="59.5515918" lon="17.7332092">
        <ele>34.8</ele>
        <time>2012-04-01T14:25:32Z</time>
      </trkpt>
      <trkpt lat="59.5512927" lon="17.7337881">
        <ele>31</ele>
        <time>2012-04-01T14:25:36Z</time>
      </trkpt>
      <trkpt lat="59.5509997" lon="17.7343276">
        <ele>28.2</ele>
        <time>2012-04-01T14:25:40Z</time>
      </trkpt>
      <trkpt lat="59.5507065" lon="17.7348052">
        <ele>26.4</ele>
        <time>2012-04-01T14:25:44Z</time>
      </trkpt>
      <trkpt lat="59.5503584" lon="17.7353328">
        <ele>24.6</ele>
        <time>2012-04-01T14:25:49Z</time>
      </trkpt>
      <trkpt lat="59.5500211" lon="17.7358162">
        <ele>22.6</ele>
        <time>2012-04-01T14:25:54Z</time>
      </trkpt>
      <trkpt lat="59.5496757" lon="17.7362639">
        <ele>21</ele>
        <time>2012-04-01T14:25:59Z</time>
      </trkpt>
      <trkpt lat="59.5493385" lon="17.7366669">
        <ele>20.2</ele>
        <time>2012-04-01T14:26:04Z</time>
      </trkpt>
      <trkpt lat="59.5490043" lon="17.7370061">
        <ele>19.8</ele>
        <time>2012-04-01T14:26:09Z</time>
      </trkpt>
      <trkpt lat="59.5486241" lon="17.7373403">
        <ele>19.6</ele>
        <time>2012-04-01T14:26:15Z</time>
      </trkpt>
      <trkpt lat="59.5482582" lon="17.7376155">
        <ele>20.2</ele>
        <time>2012-04-01T14:26:21Z</time>
      </trkpt>
      <trkpt lat="59.5479104" lon="17.7378639">
        <ele>21.2</ele>
        <time>2012-04-01T14:26:27Z</time>
      </trkpt>
      <trkpt lat="59.5475372" lon="17.7380888">
        <ele>23.2</ele>
        <time>2012-04-01T14:26:34Z</time>
      </trkpt>
      <trkpt lat="59.5471899" lon="17.738281">
        <ele>25</ele>
        <time>2012-04-01T14:26:41Z</time>
      </trkpt>
      <trkpt lat="59.5468394" lon="17.7384347">
        <ele>28.8</ele>
        <time>2012-04-01T14:26:48Z</time>
      </trkpt>
      <trkpt lat="59.5464859" lon="17.7385669">
        <ele>32.2</ele>
        <time>2012-04-01T14:26:55Z</time>
      </trkpt>
      <trkpt lat="59.5460823" lon="17.7386819">
        <ele>35.4</ele>
        <time>2012-04-01T14:27:03Z</time>
      </trkpt>
      <trkpt lat="59.5456906" lon="17.7388338">
        <ele>32.4</ele>
        <time>2012-04-01T14:27:11Z</time>
      </trkpt>
      <trkpt lat="59.5453306" lon="17.7389623">
        <ele>34</ele>
        <time>2012-04-01T14:27:18Z</time>
      </trkpt>
      <trkpt lat="59.5449775" lon="17.7390912">
        <ele>34.6</ele>
        <time>2012-04-01T14:27:25Z</time>
      </trkpt>
      <trkpt lat="59.5445692" lon="17.7392358">
        <ele>35</ele>
        <time>2012-04-01T14:27:33Z</time>
      </trkpt>
      <trkpt lat="59.5441801" lon="17.7393876">
        <ele>35.8</ele>
        <time>2012-04-01T14:27:40Z</time>
      </trkpt>
      <trkpt lat="59.5438036" lon="17.7395263">
        <ele>35.8</ele>
        <time>2012-04-01T14:27:46Z</time>
      </trkpt>
      <trkpt lat="59.5434207" lon="17.7396729">
        <ele>35.8</ele>
        <time>2012-04-01T14:27:52Z</time>
      </trkpt>
      <trkpt lat="59.54304" lon="17.7398023">
        <ele>35.8</ele>
        <time>2012-04-01T14:27:58Z</time>
      </trkpt>
      <trkpt lat="59.5426606" lon="17.7399323">
        <ele>35.8</ele>
        <time>2012-04-01T14:28:04Z</time>
      </trkpt>
      <trkpt lat="59.5422769" lon="17.7400733">
        <ele>35.6</ele>
        <time>2012-04-01T14:28:10Z</time>
      </trkpt>
      <trkpt lat="59.5419004" lon="17.7402158">
        <ele>36</ele>
        <time>2012-04-01T14:28:16Z</time>
      </trkpt>
      <trkpt lat="59.5415222" lon="17.7403746">
        <ele>36.8</ele>
        <time>2012-04-01T14:28:22Z</time>
      </trkpt>
      <trkpt lat="59.5411493" lon="17.7405472">
        <ele>38</ele>
        <time>2012-04-01T14:28:28Z</time>
      </trkpt>
      <trkpt lat="59.5407945" lon="17.7407457">
        <ele>39.2</ele>
        <time>2012-04-01T14:28:34Z</time>
      </trkpt>
      <trkpt lat="59.5404304" lon="17.740974">
        <ele>41</ele>
        <time>2012-04-01T14:28:40Z</time>
      </trkpt>
      <trkpt lat="59.5400747" lon="17.7412278">
        <ele>40.8</ele>
        <time>2012-04-01T14:28:46Z</time>
      </trkpt>
      <trkpt lat="59.5396988" lon="17.7415185">
        <ele>42.6</ele>
        <time>2012-04-01T14:28:52Z</time>
      </trkpt>
      <trkpt lat="59.539308" lon="17.7418345">
        <ele>44.2</ele>
        <time>2012-04-01T14:28:58Z</time>
      </trkpt>
      <trkpt lat="59.5389779" lon="17.742124">
        <ele>44.6</ele>
        <time>2012-04-01T14:29:03Z</time>
      </trkpt>
      <trkpt lat="59.5386198" lon="17.742422">
        <ele>44.6</ele>
        <time>2012-04-01T14:29:08Z</time>
      </trkpt>
      <trkpt lat="59.5382612" lon="17.7427354">
        <ele>44.8</ele>
        <time>2012-04-01T14:29:13Z</time>
      </trkpt>
      <trkpt lat="59.5378745" lon="17.7430855">
        <ele>40.8</ele>
        <time>2012-04-01T14:29:18Z</time>
      </trkpt>
      <trkpt lat="59.5374974" lon="17.7434697">
        <ele>37.2</ele>
        <time>2012-04-01T14:29:23Z</time>
      </trkpt>
      <trkpt lat="59.5371352" lon="17.7438683">
        <ele>33.6</ele>
        <time>2012-04-01T14:29:28Z</time>
      </trkpt>
      <trkpt lat="59.5367665" lon="17.7443262">
        <ele>30.8</ele>
        <time>2012-04-01T14:29:33Z</time>
      </trkpt>
      <trkpt lat="59.5363929" lon="17.7447561">
        <ele>31</ele>
        <time>2012-04-01T14:29:38Z</time>
      </trkpt>
      <trkpt lat="59.5360634" lon="17.7451126">
        <ele>34.4</ele>
        <time>2012-04-01T14:29:43Z</time>
      </trkpt>
      <trkpt lat="59.5356998" lon="17.7455195">
        <ele>36.6</ele>
        <time>2012-04-01T14:29:49Z</time>
      </trkpt>
      <trkpt lat="59.5353789" lon="17.7458528">
        <ele>39</ele>
        <time>2012-04-01T14:29:55Z</time>
      </trkpt>
      <trkpt lat="59.5350643" lon="17.7461998">
        <ele>39.6</ele>
        <time>2012-04-01T14:30:01Z</time>
      </trkpt>
      <trkpt lat="59.5347015" lon="17.7466174">
        <ele>39</ele>
        <time>2012-04-01T14:30:08Z</time>
      </trkpt>
      <trkpt lat="59.5343259" lon="17.7470214">
        <ele>39.2</ele>
        <time>2012-04-01T14:30:15Z</time>
      </trkpt>
      <trkpt lat="59.5339836" lon="17.747376">
        <ele>40</ele>
        <time>2012-04-01T14:30:21Z</time>
      </trkpt>
      <trkpt lat="59.5336459" lon="17.7476896">
        <ele>41.2</ele>
        <time>2012-04-01T14:30:27Z</time>
      </trkpt>
      <trkpt lat="59.5333157" lon="17.747965">
        <ele>41.2</ele>
        <time>2012-04-01T14:30:33Z</time>
      </trkpt>
      <trkpt lat="59.5329366" lon="17.7482667">
        <ele>42.6</ele>
        <time>2012-04-01T14:30:40Z</time>
      </trkpt>
      <trkpt lat="59.5326003" lon="17.7485231">
        <ele>42.6</ele>
        <time>2012-04-01T14:30:46Z</time>
      </trkpt>
      <trkpt lat="59.5322513" lon="17.7487816">
        <ele>41.8</ele>
        <time>2012-04-01T14:30:52Z</time>
      </trkpt>
      <trkpt lat="59.5319001" lon="17.7490254">
        <ele>42.8</ele>
        <time>2012-04-01T14:30:58Z</time>
      </trkpt>
      <trkpt lat="59.5315495" lon="17.7492381">
        <ele>43.8</ele>
        <time>2012-04-01T14:31:04Z</time>
      </trkpt>
      <trkpt lat="59.5311963" lon="17.749445">
        <ele>44</ele>
        <time>2012-04-01T14:31:10Z</time>
      </trkpt>
      <trkpt lat="59.530848" lon="17.7496176">
        <ele>43.8</ele>
        <time>2012-04-01T14:31:16Z</time>
      </trkpt>
      <trkpt lat="59.5304804" lon="17.7497961">
        <ele>44.4</ele>
        <time>2012-04-01T14:31:22Z</time>
      </trkpt>
      <trkpt lat="59.5300883" lon="17.7499512">
        <ele>43</ele>
        <time>2012-04-01T14:31:28Z</time>
      </trkpt>
      <trkpt lat="59.5296835" lon="17.7500901">
        <ele>42.6</ele>
        <time>2012-04-01T14:31:34Z</time>
      </trkpt>
      <trkpt lat="59.5292697" lon="17.7502139">
        <ele>42.4</ele>
        <time>2012-04-01T14:31:40Z</time>
      </trkpt>
      <trkpt lat="59.5289076" lon="17.7503242">
        <ele>42</ele>
        <time>2012-04-01T14:31:45Z</time>
      </trkpt>
      <trkpt lat="59.5285254" lon="17.7504347">
        <ele>41.4</ele>
        <time>2012-04-01T14:31:50Z</time>
      </trkpt>
      <trkpt lat="59.5281482" lon="17.7505545">
        <ele>40.4</ele>
        <time>2012-04-01T14:31:55Z</time>
      </trkpt>
      <trkpt lat="59.5277772" lon="17.750683">
        <ele>38.8</ele>
        <time>2012-04-01T14:32:00Z</time>
      </trkpt>
      <trkpt lat="59.527397" lon="17.750837">
        <ele>37.2</ele>
        <time>2012-04-01T14:32:05Z</time>
      </trkpt>
      <trkpt lat="59.527022" lon="17.7510226">
        <ele>35.4</ele>
        <time>2012-04-01T14:32:10Z</time>
      </trkpt>
      <trkpt lat="59.5266351" lon="17.7512365">
        <ele>33</ele>
        <time>2012-04-01T14:32:15Z</time>
      </trkpt>
      <trkpt lat="59.5262264" lon="17.7514981">
        <ele>31.8</ele>
        <time>2012-04-01T14:32:20Z</time>
      </trkpt>
      <trkpt lat="59.5258173" lon="17.7517777">
        <ele>30.8</ele>
        <time>2012-04-01T14:32:25Z</time>
      </trkpt>
      <trkpt lat="59.5254208" lon="17.7520978">
        <ele>29.4</ele>
        <time>2012-04-01T14:32:30Z</time>
      </trkpt>
      <trkpt lat="59.5250407" lon="17.752448">
        <ele>28.2</ele>
        <time>2012-04-01T14:32:35Z</time>
      </trkpt>
      <trkpt lat="59.5246734" lon="17.752825">
        <ele>27.6</ele>
        <time>2012-04-01T14:32:40Z</time>
      </trkpt>
      <trkpt lat="59.5243249" lon="17.753208">
        <ele>26.4</ele>
        <time>2012-04-01T14:32:45Z</time>
      </trkpt>
      <trkpt lat="59.5239804" lon="17.753617">
        <ele>25.8</ele>
        <time>2012-04-01T14:32:50Z</time>
      </trkpt>
      <trkpt lat="59.5236214" lon="17.7540276">
        <ele>25.8</ele>
        <time>2012-04-01T14:32:55Z</time>
      </trkpt>
      <trkpt lat="59.5232622" lon="17.7544469">
        <ele>26.2</ele>
        <time>2012-04-01T14:33:00Z</time>
      </trkpt>
      <trkpt lat="59.5229168" lon="17.7548625">
        <ele>26.6</ele>
        <time>2012-04-01T14:33:05Z</time>
      </trkpt>
      <trkpt lat="59.5225733" lon="17.7552608">
        <ele>26.2</ele>
        <time>2012-04-01T14:33:10Z</time>
      </trkpt>
      <trkpt lat="59.5222181" lon="17.7556528">
        <ele>24.4</ele>
        <time>2012-04-01T14:33:15Z</time>
      </trkpt>
      <trkpt lat="59.5218596" lon="17.7560025">
        <ele>24.2</ele>
        <time>2012-04-01T14:33:20Z</time>
      </trkpt>
      <trkpt lat="59.5215006" lon="17.756322">
        <ele>24</ele>
        <time>2012-04-01T14:33:25Z</time>
      </trkpt>
      <trkpt lat="59.521141" lon="17.7565973">
        <ele>23.6</ele>
        <time>2012-04-01T14:33:30Z</time>
      </trkpt>
      <trkpt lat="59.520779" lon="17.7568605">
        <ele>23.6</ele>
        <time>2012-04-01T14:33:35Z</time>
      </trkpt>
      <trkpt lat="59.5204134" lon="17.7570786">
        <ele>23.6</ele>
        <time>2012-04-01T14:33:40Z</time>
      </trkpt>
      <trkpt lat="59.5200414" lon="17.7572714">
        <ele>23.2</ele>
        <time>2012-04-01T14:33:45Z</time>
      </trkpt>
      <trkpt lat="59.5196736" lon="17.7574524">
        <ele>23.2</ele>
        <time>2012-04-01T14:33:50Z</time>
      </trkpt>
      <trkpt lat="59.5193165" lon="17.7576285">
        <ele>23.4</ele>
        <time>2012-04-01T14:33:55Z</time>
      </trkpt>
      <trkpt lat="59.5189603" lon="17.7578032">
        <ele>23.4</ele>
        <time>2012-04-01T14:34:00Z</time>
      </trkpt>
      <trkpt lat="59.5185985" lon="17.7579812">
        <ele>24</ele>
        <time>2012-04-01T14:34:05Z</time>
      </trkpt>
      <trkpt lat="59.5182298" lon="17.7581663">
        <ele>24</ele>
        <time>2012-04-01T14:34:10Z</time>
      </trkpt>
      <trkpt lat="59.517865" lon="17.7583398">
        <ele>24.2</ele>
        <time>2012-04-01T14:34:15Z</time>
      </trkpt>
      <trkpt lat="59.5175083" lon="17.7585207">
        <ele>24.4</ele>
        <time>2012-04-01T14:34:20Z</time>
      </trkpt>
      <trkpt lat="59.5171583" lon="17.7586964">
        <ele>24.4</ele>
        <time>2012-04-01T14:34:25Z</time>
      </trkpt>
      <trkpt lat="59.516808" lon="17.758873">
        <ele>24.4</ele>
        <time>2012-04-01T14:34:30Z</time>
      </trkpt>
      <trkpt lat="59.5163919" lon="17.7590811">
        <ele>24.2</ele>
        <time>2012-04-01T14:34:36Z</time>
      </trkpt>
      <trkpt lat="59.5159906" lon="17.7592737">
        <ele>24.8</ele>
        <time>2012-04-01T14:34:42Z</time>
      </trkpt>
      <trkpt lat="59.5155899" lon="17.759478">
        <ele>24</ele>
        <time>2012-04-01T14:34:49Z</time>
      </trkpt>
      <trkpt lat="59.5152269" lon="17.7596532">
        <ele>25.8</ele>
        <time>2012-04-01T14:34:56Z</time>
      </trkpt>
      <trkpt lat="59.5148663" lon="17.759806">
        <ele>27</ele>
        <time>2012-04-01T14:35:03Z</time>
      </trkpt>
      <trkpt lat="59.5145526" lon="17.7599658">
        <ele>28.4</ele>
        <time>2012-04-01T14:35:09Z</time>
      </trkpt>
      <trkpt lat="59.5145033" lon="17.7599681">
        <ele>28.4</ele>
        <time>2012-04-01T14:35:10Z</time>
      </trkpt>
      <trkpt lat="59.5143462" lon="17.7595541">
        <ele>28</ele>
        <time>2012-04-01T14:35:16Z</time>
      </trkpt>
      <trkpt lat="59.5143283" lon="17.7594565">
        <ele>27.6</ele>
        <time>2012-04-01T14:35:17Z</time>
      </trkpt>
      <trkpt lat="59.5143086" lon="17.7593573">
        <ele>27.4</ele>
        <time>2012-04-01T14:35:18Z</time>
      </trkpt>
      <trkpt lat="59.5141692" lon="17.7586362">
        <ele>24.2</ele>
        <time>2012-04-01T14:35:25Z</time>
      </trkpt>
      <trkpt lat="59.514033" lon="17.757908">
        <ele>21</ele>
        <time>2012-04-01T14:35:32Z</time>
      </trkpt>
      <trkpt lat="59.5138601" lon="17.7572174">
        <ele>23</ele>
        <time>2012-04-01T14:35:39Z</time>
      </trkpt>
      <trkpt lat="59.5136876" lon="17.756575">
        <ele>25.4</ele>
        <time>2012-04-01T14:35:46Z</time>
      </trkpt>
      <trkpt lat="59.513493" lon="17.7559426">
        <ele>26.6</ele>
        <time>2012-04-01T14:35:53Z</time>
      </trkpt>
      <trkpt lat="59.5132882" lon="17.7553119">
        <ele>27.6</ele>
        <time>2012-04-01T14:36:00Z</time>
      </trkpt>
      <trkpt lat="59.5130757" lon="17.7547002">
        <ele>27.8</ele>
        <time>2012-04-01T14:36:07Z</time>
      </trkpt>
      <trkpt lat="59.5128422" lon="17.7540871">
        <ele>30</ele>
        <time>2012-04-01T14:36:14Z</time>
      </trkpt>
      <trkpt lat="59.5125909" lon="17.7534601">
        <ele>32.4</ele>
        <time>2012-04-01T14:36:21Z</time>
      </trkpt>
      <trkpt lat="59.5123303" lon="17.7528252">
        <ele>35.6</ele>
        <time>2012-04-01T14:36:28Z</time>
      </trkpt>
      <trkpt lat="59.512037" lon="17.7522326">
        <ele>37.6</ele>
        <time>2012-04-01T14:36:35Z</time>
      </trkpt>
      <trkpt lat="59.5119132" lon="17.7519734">
        <ele>38.4</ele>
        <time>2012-04-01T14:36:38Z</time>
      </trkpt>
      <trkpt lat="59.5117546" lon="17.7516586">
        <ele>40</ele>
        <time>2012-04-01T14:36:42Z</time>
      </trkpt>
      <trkpt lat="59.5114714" lon="17.7511447">
        <ele>40.8</ele>
        <time>2012-04-01T14:36:49Z</time>
      </trkpt>
      <trkpt lat="59.5111773" lon="17.7506433">
        <ele>43.6</ele>
        <time>2012-04-01T14:36:56Z</time>
      </trkpt>
      <trkpt lat="59.5108632" lon="17.75017">
        <ele>46</ele>
        <time>2012-04-01T14:37:03Z</time>
      </trkpt>
      <trkpt lat="59.5105307" lon="17.7497338">
        <ele>48</ele>
        <time>2012-04-01T14:37:10Z</time>
      </trkpt>
      <trkpt lat="59.5101731" lon="17.7493012">
        <ele>46</ele>
        <time>2012-04-01T14:37:17Z</time>
      </trkpt>
      <trkpt lat="59.5098346" lon="17.7489573">
        <ele>46</ele>
        <time>2012-04-01T14:37:23Z</time>
      </trkpt>
      <trkpt lat="59.5094874" lon="17.7486453">
        <ele>46.8</ele>
        <time>2012-04-01T14:37:29Z</time>
      </trkpt>
      <trkpt lat="59.5091343" lon="17.748344">
        <ele>48.8</ele>
        <time>2012-04-01T14:37:35Z</time>
      </trkpt>
      <trkpt lat="59.5087566" lon="17.7480491">
        <ele>49.2</ele>
        <time>2012-04-01T14:37:41Z</time>
      </trkpt>
      <trkpt lat="59.508363" lon="17.7477911">
        <ele>49.6</ele>
        <time>2012-04-01T14:37:47Z</time>
      </trkpt>
      <trkpt lat="59.5080302" lon="17.7476331">
        <ele>48</ele>
        <time>2012-04-01T14:37:52Z</time>
      </trkpt>
      <trkpt lat="59.5079604" lon="17.7476316">
        <ele>47.4</ele>
        <time>2012-04-01T14:37:53Z</time>
      </trkpt>
      <trkpt lat="59.5076826" lon="17.7476068">
        <ele>45.8</ele>
        <time>2012-04-01T14:37:57Z</time>
      </trkpt>
      <trkpt lat="59.507553" lon="17.7475483">
        <ele>45.4</ele>
        <time>2012-04-01T14:37:59Z</time>
      </trkpt>
      <trkpt lat="59.5072056" lon="17.7474073">
        <ele>44.2</ele>
        <time>2012-04-01T14:38:05Z</time>
      </trkpt>
      <trkpt lat="59.5071531" lon="17.747431">
        <ele>44</ele>
        <time>2012-04-01T14:38:06Z</time>
      </trkpt>
      <trkpt lat="59.5069818" lon="17.7481536">
        <ele>41.8</ele>
        <time>2012-04-01T14:38:13Z</time>
      </trkpt>
      <trkpt lat="59.5069102" lon="17.7489707">
        <ele>40.6</ele>
        <time>2012-04-01T14:38:19Z</time>
      </trkpt>
      <trkpt lat="59.5068055" lon="17.7497796">
        <ele>40.4</ele>
        <time>2012-04-01T14:38:25Z</time>
      </trkpt>
      <trkpt lat="59.5066705" lon="17.7505723">
        <ele>40.8</ele>
        <time>2012-04-01T14:38:31Z</time>
      </trkpt>
      <trkpt lat="59.5065322" lon="17.75126">
        <ele>40.2</ele>
        <time>2012-04-01T14:38:36Z</time>
      </trkpt>
      <trkpt lat="59.5063614" lon="17.751954">
        <ele>39.4</ele>
        <time>2012-04-01T14:38:41Z</time>
      </trkpt>
      <trkpt lat="59.5061964" lon="17.7526402">
        <ele>39.4</ele>
        <time>2012-04-01T14:38:46Z</time>
      </trkpt>
      <trkpt lat="59.5060116" lon="17.7533046">
        <ele>40.6</ele>
        <time>2012-04-01T14:38:52Z</time>
      </trkpt>
      <trkpt lat="59.5058428" lon="17.7539713">
        <ele>40.6</ele>
        <time>2012-04-01T14:38:58Z</time>
      </trkpt>
      <trkpt lat="59.5056522" lon="17.7546572">
        <ele>39.4</ele>
        <time>2012-04-01T14:39:04Z</time>
      </trkpt>
      <trkpt lat="59.505566" lon="17.7549533">
        <ele>39.2</ele>
        <time>2012-04-01T14:39:07Z</time>
      </trkpt>
      <trkpt lat="59.5054127" lon="17.7551619">
        <ele>38.4</ele>
        <time>2012-04-01T14:39:11Z</time>
      </trkpt>
      <trkpt lat="59.5053102" lon="17.7554212">
        <ele>38.4</ele>
        <time>2012-04-01T14:39:14Z</time>
      </trkpt>
      <trkpt lat="59.5052682" lon="17.7555116">
        <ele>38</ele>
        <time>2012-04-01T14:39:15Z</time>
      </trkpt>
      <trkpt lat="59.5051553" lon="17.7556845">
        <ele>36.4</ele>
        <time>2012-04-01T14:39:17Z</time>
      </trkpt>
      <trkpt lat="59.5049387" lon="17.7559078">
        <ele>34</ele>
        <time>2012-04-01T14:39:20Z</time>
      </trkpt>
      <trkpt lat="59.5047849" lon="17.7560597">
        <ele>32</ele>
        <time>2012-04-01T14:39:22Z</time>
      </trkpt>
      <trkpt lat="59.5046949" lon="17.7561234">
        <ele>31.2</ele>
        <time>2012-04-01T14:39:23Z</time>
      </trkpt>
      <trkpt lat="59.5043892" lon="17.7561801">
        <ele>28.6</ele>
        <time>2012-04-01T14:39:26Z</time>
      </trkpt>
      <trkpt lat="59.5039694" lon="17.7561998">
        <ele>27.4</ele>
        <time>2012-04-01T14:39:30Z</time>
      </trkpt>
      <trkpt lat="59.5035949" lon="17.7561667">
        <ele>28.2</ele>
        <time>2012-04-01T14:39:34Z</time>
      </trkpt>
      <trkpt lat="59.5031864" lon="17.7560737">
        <ele>29.6</ele>
        <time>2012-04-01T14:39:39Z</time>
      </trkpt>
      <trkpt lat="59.5029728" lon="17.7560154">
        <ele>30.2</ele>
        <time>2012-04-01T14:39:42Z</time>
      </trkpt>
      <trkpt lat="59.5028072" lon="17.7561736">
        <ele>30.4</ele>
        <time>2012-04-01T14:39:45Z</time>
      </trkpt>
      <trkpt lat="59.5026995" lon="17.7565712">
        <ele>30.2</ele>
        <time>2012-04-01T14:39:48Z</time>
      </trkpt>
      <trkpt lat="59.5026295" lon="17.7568599">
        <ele>30.4</ele>
        <time>2012-04-01T14:39:50Z</time>
      </trkpt>
      <trkpt lat="59.5024316" lon="17.7575573">
        <ele>28.2</ele>
        <time>2012-04-01T14:39:56Z</time>
      </trkpt>
      <trkpt lat="59.5022498" lon="17.7577626">
        <ele>26.8</ele>
        <time>2012-04-01T14:40:00Z</time>
      </trkpt>
      <trkpt lat="59.5020882" lon="17.7578607">
        <ele>24.8</ele>
        <time>2012-04-01T14:40:03Z</time>
      </trkpt>
      <trkpt lat="59.502025" lon="17.7578799">
        <ele>24.4</ele>
        <time>2012-04-01T14:40:04Z</time>
      </trkpt>
      <trkpt lat="59.5016659" lon="17.7579766">
        <ele>22.2</ele>
        <time>2012-04-01T14:40:09Z</time>
      </trkpt>
      <trkpt lat="59.501518" lon="17.7580074">
        <ele>21.2</ele>
        <time>2012-04-01T14:40:11Z</time>
      </trkpt>
      <trkpt lat="59.5012997" lon="17.7579276">
        <ele>20.6</ele>
        <time>2012-04-01T14:40:14Z</time>
      </trkpt>
      <trkpt lat="59.5012288" lon="17.7578833">
        <ele>20.2</ele>
        <time>2012-04-01T14:40:15Z</time>
      </trkpt>
      <trkpt lat="59.5008935" lon="17.7576461">
        <ele>21.2</ele>
        <time>2012-04-01T14:40:20Z</time>
      </trkpt>
      <trkpt lat="59.5005284" lon="17.7574033">
        <ele>21</ele>
        <time>2012-04-01T14:40:26Z</time>
      </trkpt>
      <trkpt lat="59.5003388" lon="17.7570858">
        <ele>20.8</ele>
        <time>2012-04-01T14:40:30Z</time>
      </trkpt>
      <trkpt lat="59.5002204" lon="17.756964">
        <ele>20.2</ele>
        <time>2012-04-01T14:40:32Z</time>
      </trkpt>
      <trkpt lat="59.4998846" lon="17.7568692">
        <ele>18.4</ele>
        <time>2012-04-01T14:40:37Z</time>
      </trkpt>
      <trkpt lat="59.4998171" lon="17.7568926">
        <ele>18</ele>
        <time>2012-04-01T14:40:38Z</time>
      </trkpt>
      <trkpt lat="59.4994168" lon="17.756987">
        <ele>17.8</ele>
        <time>2012-04-01T14:40:44Z</time>
      </trkpt>
      <trkpt lat="59.4990116" lon="17.7568963">
        <ele>16.4</ele>
        <time>2012-04-01T14:40:50Z</time>
      </trkpt>
      <trkpt lat="59.4986435" lon="17.7565959">
        <ele>17.8</ele>
        <time>2012-04-01T14:40:56Z</time>
      </trkpt>
      <trkpt lat="59.49833" lon="17.7561881">
        <ele>18</ele>
        <time>2012-04-01T14:41:02Z</time>
      </trkpt>
      <trkpt lat="59.4979637" lon="17.7557991">
        <ele>17.4</ele>
        <time>2012-04-01T14:41:09Z</time>
      </trkpt>
      <trkpt lat="59.4976156" lon="17.7555129">
        <ele>17.4</ele>
        <time>2012-04-01T14:41:15Z</time>
      </trkpt>
      <trkpt lat="59.4972463" lon="17.755264">
        <ele>16</ele>
        <time>2012-04-01T14:41:21Z</time>
      </trkpt>
      <trkpt lat="59.4968849" lon="17.7550188">
        <ele>14.8</ele>
        <time>2012-04-01T14:41:27Z</time>
      </trkpt>
      <trkpt lat="59.4965216" lon="17.754821">
        <ele>14</ele>
        <time>2012-04-01T14:41:33Z</time>
      </trkpt>
      <trkpt lat="59.4961419" lon="17.7546791">
        <ele>13.2</ele>
        <time>2012-04-01T14:41:39Z</time>
      </trkpt>
      <trkpt lat="59.4957883" lon="17.7545409">
        <ele>12.4</ele>
        <time>2012-04-01T14:41:45Z</time>
      </trkpt>
      <trkpt lat="59.4954359" lon="17.7544128">
        <ele>11.6</ele>
        <time>2012-04-01T14:41:51Z</time>
      </trkpt>
      <trkpt lat="59.4950425" lon="17.7542571">
        <ele>12</ele>
        <time>2012-04-01T14:41:58Z</time>
      </trkpt>
      <trkpt lat="59.4948403" lon="17.7541414">
        <ele>12.2</ele>
        <time>2012-04-01T14:42:02Z</time>
      </trkpt>
      <trkpt lat="59.4946947" lon="17.7539404">
        <ele>14.4</ele>
        <time>2012-04-01T14:42:05Z</time>
      </trkpt>
      <trkpt lat="59.4946479" lon="17.7538584">
        <ele>15.2</ele>
        <time>2012-04-01T14:42:06Z</time>
      </trkpt>
      <trkpt lat="59.4945599" lon="17.753671">
        <ele>16.8</ele>
        <time>2012-04-01T14:42:08Z</time>
      </trkpt>
      <trkpt lat="59.4944652" lon="17.7533178">
        <ele>18.4</ele>
        <time>2012-04-01T14:42:11Z</time>
      </trkpt>
      <trkpt lat="59.4943766" lon="17.7525268">
        <ele>19</ele>
        <time>2012-04-01T14:42:17Z</time>
      </trkpt>
      <trkpt lat="59.4943239" lon="17.7517452">
        <ele>20.4</ele>
        <time>2012-04-01T14:42:23Z</time>
      </trkpt>
      <trkpt lat="59.4942776" lon="17.7513586">
        <ele>20.6</ele>
        <time>2012-04-01T14:42:26Z</time>
      </trkpt>
      <trkpt lat="59.4941427" lon="17.7510645">
        <ele>20</ele>
        <time>2012-04-01T14:42:29Z</time>
      </trkpt>
      <trkpt lat="59.4940228" lon="17.7509519">
        <ele>20</ele>
        <time>2012-04-01T14:42:31Z</time>
      </trkpt>
      <trkpt lat="59.4938004" lon="17.750723">
        <ele>19.6</ele>
        <time>2012-04-01T14:42:35Z</time>
      </trkpt>
      <trkpt lat="59.4934626" lon="17.7503763">
        <ele>19.2</ele>
        <time>2012-04-01T14:42:41Z</time>
      </trkpt>
      <trkpt lat="59.4934111" lon="17.7503225">
        <ele>19.2</ele>
        <time>2012-04-01T14:42:42Z</time>
      </trkpt>
      <trkpt lat="59.4931057" lon="17.7500073">
        <ele>17.8</ele>
        <time>2012-04-01T14:42:48Z</time>
      </trkpt>
      <trkpt lat="59.4927184" lon="17.7496102">
        <ele>17.8</ele>
        <time>2012-04-01T14:42:54Z</time>
      </trkpt>
      <trkpt lat="59.4924284" lon="17.7493365">
        <ele>18.4</ele>
        <time>2012-04-01T14:43:00Z</time>
      </trkpt>
      <trkpt lat="59.4920734" lon="17.7490363">
        <ele>16.2</ele>
        <time>2012-04-01T14:43:06Z</time>
      </trkpt>
      <trkpt lat="59.4918221" lon="17.7488329">
        <ele>14.4</ele>
        <time>2012-04-01T14:43:11Z</time>
      </trkpt>
      <trkpt lat="59.491764" lon="17.7488011">
        <ele>14.4</ele>
        <time>2012-04-01T14:43:12Z</time>
      </trkpt>
      <trkpt lat="59.4915196" lon="17.7485656">
        <ele>15.8</ele>
        <time>2012-04-01T14:43:16Z</time>
      </trkpt>
      <trkpt lat="59.4914142" lon="17.7484429">
        <ele>16.4</ele>
        <time>2012-04-01T14:43:18Z</time>
      </trkpt>
      <trkpt lat="59.4912421" lon="17.7483328">
        <ele>17.2</ele>
        <time>2012-04-01T14:43:21Z</time>
      </trkpt>
      <trkpt lat="59.4910573" lon="17.7482328">
        <ele>19</ele>
        <time>2012-04-01T14:43:24Z</time>
      </trkpt>
      <trkpt lat="59.4906908" lon="17.7480148">
        <ele>20.8</ele>
        <time>2012-04-01T14:43:30Z</time>
      </trkpt>
      <trkpt lat="59.4903252" lon="17.7477695">
        <ele>21.4</ele>
        <time>2012-04-01T14:43:36Z</time>
      </trkpt>
      <trkpt lat="59.4899781" lon="17.747528">
        <ele>21.4</ele>
        <time>2012-04-01T14:43:42Z</time>
      </trkpt>
      <trkpt lat="59.4895991" lon="17.7472088">
        <ele>22</ele>
        <time>2012-04-01T14:43:49Z</time>
      </trkpt>
      <trkpt lat="59.4892197" lon="17.746881">
        <ele>22.4</ele>
        <time>2012-04-01T14:43:56Z</time>
      </trkpt>
      <trkpt lat="59.4888671" lon="17.7465669">
        <ele>22</ele>
        <time>2012-04-01T14:44:02Z</time>
      </trkpt>
      <trkpt lat="59.488494" lon="17.7462376">
        <ele>21</ele>
        <time>2012-04-01T14:44:08Z</time>
      </trkpt>
      <trkpt lat="59.4881785" lon="17.7459532">
        <ele>20.2</ele>
        <time>2012-04-01T14:44:14Z</time>
      </trkpt>
      <trkpt lat="59.4881289" lon="17.7459417">
        <ele>20</ele>
        <time>2012-04-01T14:44:15Z</time>
      </trkpt>
      <trkpt lat="59.4879231" lon="17.7463355">
        <ele>21.6</ele>
        <time>2012-04-01T14:44:22Z</time>
      </trkpt>
      <trkpt lat="59.4879118" lon="17.746422">
        <ele>21.6</ele>
        <time>2012-04-01T14:44:23Z</time>
      </trkpt>
      <trkpt lat="59.4878051" lon="17.7471964">
        <ele>23.2</ele>
        <time>2012-04-01T14:44:31Z</time>
      </trkpt>
      <trkpt lat="59.4876918" lon="17.7479971">
        <ele>23.2</ele>
        <time>2012-04-01T14:44:38Z</time>
      </trkpt>
      <trkpt lat="59.4875959" lon="17.748713">
        <ele>22.8</ele>
        <time>2012-04-01T14:44:44Z</time>
      </trkpt>
      <trkpt lat="59.4874938" lon="17.7494796">
        <ele>24.6</ele>
        <time>2012-04-01T14:44:51Z</time>
      </trkpt>
      <trkpt lat="59.487448" lon="17.7501816">
        <ele>26.2</ele>
        <time>2012-04-01T14:44:59Z</time>
      </trkpt>
      <trkpt lat="59.4874378" lon="17.7504357">
        <ele>27.6</ele>
        <time>2012-04-01T14:45:02Z</time>
      </trkpt>
      <trkpt lat="59.4874518" lon="17.7506845">
        <ele>28.2</ele>
        <time>2012-04-01T14:45:04Z</time>
      </trkpt>
      <trkpt lat="59.4874692" lon="17.7507591">
        <ele>28.8</ele>
        <time>2012-04-01T14:45:06Z</time>
      </trkpt>
      <trkpt lat="59.4875355" lon="17.7509552">
        <ele>29.4</ele>
        <time>2012-04-01T14:45:08Z</time>
      </trkpt>
      <trkpt lat="59.4876254" lon="17.7513483">
        <ele>31.8</ele>
        <time>2012-04-01T14:45:13Z</time>
      </trkpt>
      <trkpt lat="59.4876163" lon="17.7515203">
        <ele>33.8</ele>
        <time>2012-04-01T14:45:16Z</time>
      </trkpt>
      <trkpt lat="59.4874765" lon="17.7522108">
        <ele>35.4</ele>
        <time>2012-04-01T14:45:23Z</time>
      </trkpt>
      <trkpt lat="59.4872778" lon="17.7529845">
        <ele>36.2</ele>
        <time>2012-04-01T14:45:30Z</time>
      </trkpt>
      <trkpt lat="59.4871033" lon="17.7535146">
        <ele>37.2</ele>
        <time>2012-04-01T14:45:38Z</time>
      </trkpt>
      <trkpt lat="59.4867939" lon="17.7539955">
        <ele>38.6</ele>
        <time>2012-04-01T14:45:47Z</time>
      </trkpt>
      <trkpt lat="59.4866782" lon="17.7540978">
        <ele>37.8</ele>
        <time>2012-04-01T14:45:50Z</time>
      </trkpt>
      <trkpt lat="59.4866358" lon="17.7541211">
        <ele>37.4</ele>
        <time>2012-04-01T14:45:52Z</time>
      </trkpt>
      <trkpt lat="59.4864244" lon="17.7542374">
        <ele>37.2</ele>
        <time>2012-04-01T14:45:56Z</time>
      </trkpt>
      <trkpt lat="59.4860789" lon="17.7544579">
        <ele>37.8</ele>
        <time>2012-04-01T14:46:04Z</time>
      </trkpt>
      <trkpt lat="59.4858636" lon="17.7549274">
        <ele>38.6</ele>
        <time>2012-04-01T14:46:12Z</time>
      </trkpt>
      <trkpt lat="59.4858516" lon="17.7550091">
        <ele>38.8</ele>
        <time>2012-04-01T14:46:13Z</time>
      </trkpt>
      <trkpt lat="59.4857015" lon="17.755654">
        <ele>41.4</ele>
        <time>2012-04-01T14:46:23Z</time>
      </trkpt>
      <trkpt lat="59.4856655" lon="17.7557006">
        <ele>41.8</ele>
        <time>2012-04-01T14:46:24Z</time>
      </trkpt>
      <trkpt lat="59.4853134" lon="17.755838">
        <ele>43.2</ele>
        <time>2012-04-01T14:46:31Z</time>
      </trkpt>
      <trkpt lat="59.4849318" lon="17.755985">
        <ele>42.2</ele>
        <time>2012-04-01T14:46:38Z</time>
      </trkpt>
      <trkpt lat="59.4845329" lon="17.7561374">
        <ele>42.2</ele>
        <time>2012-04-01T14:46:45Z</time>
      </trkpt>
      <trkpt lat="59.4841096" lon="17.756286">
        <ele>42</ele>
        <time>2012-04-01T14:46:52Z</time>
      </trkpt>
      <trkpt lat="59.4837003" lon="17.7564241">
        <ele>40.2</ele>
        <time>2012-04-01T14:46:58Z</time>
      </trkpt>
      <trkpt lat="59.4833062" lon="17.7565853">
        <ele>39.6</ele>
        <time>2012-04-01T14:47:03Z</time>
      </trkpt>
      <trkpt lat="59.4828703" lon="17.7568053">
        <ele>38.8</ele>
        <time>2012-04-01T14:47:08Z</time>
      </trkpt>
      <trkpt lat="59.4824447" lon="17.7571153">
        <ele>37.4</ele>
        <time>2012-04-01T14:47:13Z</time>
      </trkpt>
      <trkpt lat="59.4820884" lon="17.7572775">
        <ele>35.4</ele>
        <time>2012-04-01T14:47:17Z</time>
      </trkpt>
      <trkpt lat="59.4817226" lon="17.7573408">
        <ele>32.4</ele>
        <time>2012-04-01T14:47:21Z</time>
      </trkpt>
      <trkpt lat="59.4812681" lon="17.7572957">
        <ele>30.6</ele>
        <time>2012-04-01T14:47:26Z</time>
      </trkpt>
      <trkpt lat="59.4808838" lon="17.7572681">
        <ele>30.2</ele>
        <time>2012-04-01T14:47:31Z</time>
      </trkpt>
      <trkpt lat="59.4805721" lon="17.7576187">
        <ele>30.6</ele>
        <time>2012-04-01T14:47:39Z</time>
      </trkpt>
      <trkpt lat="59.4806852" lon="17.7580574">
        <ele>30.6</ele>
        <time>2012-04-01T14:47:44Z</time>
      </trkpt>
      <trkpt lat="59.4807818" lon="17.7582874">
        <ele>30.4</ele>
        <time>2012-04-01T14:47:46Z</time>
      </trkpt>
      <trkpt lat="59.4810734" lon="17.7589528">
        <ele>29.4</ele>
        <time>2012-04-01T14:47:51Z</time>
      </trkpt>
      <trkpt lat="59.4813959" lon="17.7594423">
        <ele>26.4</ele>
        <time>2012-04-01T14:47:55Z</time>
      </trkpt>
      <trkpt lat="59.4818163" lon="17.7598012">
        <ele>23.4</ele>
        <time>2012-04-01T14:47:59Z</time>
      </trkpt>
      <trkpt lat="59.482182" lon="17.7599701">
        <ele>21.4</ele>
        <time>2012-04-01T14:48:02Z</time>
      </trkpt>
      <trkpt lat="59.4825472" lon="17.7600898">
        <ele>19.8</ele>
        <time>2012-04-01T14:48:05Z</time>
      </trkpt>
      <trkpt lat="59.4826614" lon="17.7601456">
        <ele>19.6</ele>
        <time>2012-04-01T14:48:06Z</time>
      </trkpt>
      <trkpt lat="59.4829683" lon="17.7604345">
        <ele>19.2</ele>
        <time>2012-04-01T14:48:09Z</time>
      </trkpt>
      <trkpt lat="59.4832999" lon="17.7610323">
        <ele>18.8</ele>
        <time>2012-04-01T14:48:13Z</time>
      </trkpt>
      <trkpt lat="59.4835228" lon="17.761769">
        <ele>18.4</ele>
        <time>2012-04-01T14:48:17Z</time>
      </trkpt>
      <trkpt lat="59.4835987" lon="17.7621525">
        <ele>18.4</ele>
        <time>2012-04-01T14:48:19Z</time>
      </trkpt>
      <trkpt lat="59.4836382" lon="17.7625316">
        <ele>18.4</ele>
        <time>2012-04-01T14:48:21Z</time>
      </trkpt>
      <trkpt lat="59.4836217" lon="17.7632137">
        <ele>19</ele>
        <time>2012-04-01T14:48:25Z</time>
      </trkpt>
      <trkpt lat="59.4836056" lon="17.7633647">
        <ele>19.4</ele>
        <time>2012-04-01T14:48:26Z</time>
      </trkpt>
      <trkpt lat="59.4835077" lon="17.7640967">
        <ele>21</ele>
        <time>2012-04-01T14:48:32Z</time>
      </trkpt>
      <trkpt lat="59.483405" lon="17.7647799">
        <ele>22.6</ele>
        <time>2012-04-01T14:48:40Z</time>
      </trkpt>
      <trkpt lat="59.4833026" lon="17.7654656">
        <ele>24.2</ele>
        <time>2012-04-01T14:48:49Z</time>
      </trkpt>
      <trkpt lat="59.4832067" lon="17.7661996">
        <ele>27</ele>
        <time>2012-04-01T14:48:59Z</time>
      </trkpt>
      <trkpt lat="59.4831177" lon="17.766901">
        <ele>29.4</ele>
        <time>2012-04-01T14:49:08Z</time>
      </trkpt>
      <trkpt lat="59.4830268" lon="17.7676257">
        <ele>32.6</ele>
        <time>2012-04-01T14:49:16Z</time>
      </trkpt>
      <trkpt lat="59.4829366" lon="17.7683207">
        <ele>36</ele>
        <time>2012-04-01T14:49:24Z</time>
      </trkpt>
      <trkpt lat="59.4828406" lon="17.7690473">
        <ele>39.2</ele>
        <time>2012-04-01T14:49:34Z</time>
      </trkpt>
      <trkpt lat="59.4827488" lon="17.769762">
        <ele>41.4</ele>
        <time>2012-04-01T14:49:43Z</time>
      </trkpt>
      <trkpt lat="59.4826451" lon="17.7705649">
        <ele>42.8</ele>
        <time>2012-04-01T14:49:52Z</time>
      </trkpt>
      <trkpt lat="59.4825851" lon="17.7710254">
        <ele>43.4</ele>
        <time>2012-04-01T14:49:57Z</time>
      </trkpt>
      <trkpt lat="59.4825219" lon="17.7712995">
        <ele>43.8</ele>
        <time>2012-04-01T14:50:00Z</time>
      </trkpt>
      <trkpt lat="59.4824928" lon="17.7715039">
        <ele>44</ele>
        <time>2012-04-01T14:50:02Z</time>
      </trkpt>
      <trkpt lat="59.4824328" lon="17.7720261">
        <ele>44.8</ele>
        <time>2012-04-01T14:50:07Z</time>
      </trkpt>
      <trkpt lat="59.4823482" lon="17.7727575">
        <ele>46.4</ele>
        <time>2012-04-01T14:50:14Z</time>
      </trkpt>
      <trkpt lat="59.4822589" lon="17.7734915">
        <ele>47.8</ele>
        <time>2012-04-01T14:50:21Z</time>
      </trkpt>
      <trkpt lat="59.4821697" lon="17.774281">
        <ele>48</ele>
        <time>2012-04-01T14:50:28Z</time>
      </trkpt>
      <trkpt lat="59.4820769" lon="17.7750229">
        <ele>46.4</ele>
        <time>2012-04-01T14:50:34Z</time>
      </trkpt>
      <trkpt lat="59.4819765" lon="17.775772">
        <ele>44.4</ele>
        <time>2012-04-01T14:50:39Z</time>
      </trkpt>
      <trkpt lat="59.4818414" lon="17.7765701">
        <ele>41.4</ele>
        <time>2012-04-01T14:50:44Z</time>
      </trkpt>
      <trkpt lat="59.4816744" lon="17.7773632">
        <ele>38.4</ele>
        <time>2012-04-01T14:50:49Z</time>
      </trkpt>
      <trkpt lat="59.4814875" lon="17.778159">
        <ele>36</ele>
        <time>2012-04-01T14:50:54Z</time>
      </trkpt>
      <trkpt lat="59.4813298" lon="17.7787992">
        <ele>33.4</ele>
        <time>2012-04-01T14:50:58Z</time>
      </trkpt>
      <trkpt lat="59.481168" lon="17.7794478">
        <ele>31</ele>
        <time>2012-04-01T14:51:02Z</time>
      </trkpt>
      <trkpt lat="59.4810093" lon="17.7801109">
        <ele>29.2</ele>
        <time>2012-04-01T14:51:06Z</time>
      </trkpt>
      <trkpt lat="59.4808467" lon="17.7808077">
        <ele>27</ele>
        <time>2012-04-01T14:51:10Z</time>
      </trkpt>
      <trkpt lat="59.4806783" lon="17.7815053">
        <ele>26.2</ele>
        <time>2012-04-01T14:51:14Z</time>
      </trkpt>
      <trkpt lat="59.4805072" lon="17.7821899">
        <ele>25.8</ele>
        <time>2012-04-01T14:51:18Z</time>
      </trkpt>
      <trkpt lat="59.4803111" lon="17.7828283">
        <ele>24.8</ele>
        <time>2012-04-01T14:51:22Z</time>
      </trkpt>
      <trkpt lat="59.4800935" lon="17.7834081">
        <ele>24.6</ele>
        <time>2012-04-01T14:51:26Z</time>
      </trkpt>
      <trkpt lat="59.4798546" lon="17.783926">
        <ele>25.2</ele>
        <time>2012-04-01T14:51:30Z</time>
      </trkpt>
      <trkpt lat="59.4795775" lon="17.7844227">
        <ele>24.4</ele>
        <time>2012-04-01T14:51:34Z</time>
      </trkpt>
      <trkpt lat="59.4792574" lon="17.7848872">
        <ele>22.4</ele>
        <time>2012-04-01T14:51:38Z</time>
      </trkpt>
      <trkpt lat="59.4788946" lon="17.78528">
        <ele>20</ele>
        <time>2012-04-01T14:51:42Z</time>
      </trkpt>
      <trkpt lat="59.4785364" lon="17.7855494">
        <ele>20</ele>
        <time>2012-04-01T14:51:46Z</time>
      </trkpt>
      <trkpt lat="59.478124" lon="17.7857715">
        <ele>19.8</ele>
        <time>2012-04-01T14:51:51Z</time>
      </trkpt>
      <trkpt lat="59.4777179" lon="17.785939">
        <ele>18.2</ele>
        <time>2012-04-01T14:51:56Z</time>
      </trkpt>
      <trkpt lat="59.4773149" lon="17.7860642">
        <ele>16.2</ele>
        <time>2012-04-01T14:52:01Z</time>
      </trkpt>
      <trkpt lat="59.4769372" lon="17.7861792">
        <ele>15.8</ele>
        <time>2012-04-01T14:52:06Z</time>
      </trkpt>
      <trkpt lat="59.476529" lon="17.7863067">
        <ele>15.8</ele>
        <time>2012-04-01T14:52:12Z</time>
      </trkpt>
      <trkpt lat="59.476149" lon="17.7864179">
        <ele>15</ele>
        <time>2012-04-01T14:52:18Z</time>
      </trkpt>
      <trkpt lat="59.4757534" lon="17.7865801">
        <ele>13.4</ele>
        <time>2012-04-01T14:52:24Z</time>
      </trkpt>
      <trkpt lat="59.4753588" lon="17.7867411">
        <ele>12.6</ele>
        <time>2012-04-01T14:52:30Z</time>
      </trkpt>
      <trkpt lat="59.4749676" lon="17.7869385">
        <ele>12</ele>
        <time>2012-04-01T14:52:36Z</time>
      </trkpt>
      <trkpt lat="59.4746117" lon="17.7871633">
        <ele>12</ele>
        <time>2012-04-01T14:52:42Z</time>
      </trkpt>
      <trkpt lat="59.4742554" lon="17.7874883">
        <ele>12.4</ele>
        <time>2012-04-01T14:52:49Z</time>
      </trkpt>
      <trkpt lat="59.4739472" lon="17.7878438">
        <ele>15.4</ele>
        <time>2012-04-01T14:52:56Z</time>
      </trkpt>
      <trkpt lat="59.4739093" lon="17.7879104">
        <ele>15.8</ele>
        <time>2012-04-01T14:52:57Z</time>
      </trkpt>
      <trkpt lat="59.473781" lon="17.7882245">
        <ele>17</ele>
        <time>2012-04-01T14:53:01Z</time>
      </trkpt>
      <trkpt lat="59.4736979" lon="17.7885956">
        <ele>17.6</ele>
        <time>2012-04-01T14:53:05Z</time>
      </trkpt>
      <trkpt lat="59.4735306" lon="17.7893152">
        <ele>19.2</ele>
        <time>2012-04-01T14:53:12Z</time>
      </trkpt>
      <trkpt lat="59.4733635" lon="17.7899494">
        <ele>17.8</ele>
        <time>2012-04-01T14:53:17Z</time>
      </trkpt>
      <trkpt lat="59.4731465" lon="17.7907046">
        <ele>15.8</ele>
        <time>2012-04-01T14:53:22Z</time>
      </trkpt>
      <trkpt lat="59.472989" lon="17.7914097">
        <ele>13.2</ele>
        <time>2012-04-01T14:53:26Z</time>
      </trkpt>
      <trkpt lat="59.4728746" lon="17.7921146">
        <ele>12.2</ele>
        <time>2012-04-01T14:53:30Z</time>
      </trkpt>
      <trkpt lat="59.4727298" lon="17.7928609">
        <ele>11.6</ele>
        <time>2012-04-01T14:53:35Z</time>
      </trkpt>
      <trkpt lat="59.4725969" lon="17.7936199">
        <ele>11</ele>
        <time>2012-04-01T14:53:40Z</time>
      </trkpt>
      <trkpt lat="59.4724534" lon="17.7942779">
        <ele>11.4</ele>
        <time>2012-04-01T14:53:45Z</time>
      </trkpt>
      <trkpt lat="59.4721528" lon="17.7947744">
        <ele>11.2</ele>
        <time>2012-04-01T14:53:51Z</time>
      </trkpt>
      <trkpt lat="59.4720953" lon="17.7948156">
        <ele>11.4</ele>
        <time>2012-04-01T14:53:52Z</time>
      </trkpt>
      <trkpt lat="59.4718053" lon="17.7949901">
        <ele>12</ele>
        <time>2012-04-01T14:53:57Z</time>
      </trkpt>
      <trkpt lat="59.4714888" lon="17.7952884">
        <ele>12</ele>
        <time>2012-04-01T14:54:03Z</time>
      </trkpt>
      <trkpt lat="59.4711882" lon="17.7957224">
        <ele>7</ele>
        <time>2012-04-01T14:54:09Z</time>
      </trkpt>
      <trkpt lat="59.4710856" lon="17.7958438">
        <ele>6</ele>
        <time>2012-04-01T14:54:11Z</time>
      </trkpt>
      <trkpt lat="59.4708557" lon="17.7960438">
        <ele>4.8</ele>
        <time>2012-04-01T14:54:15Z</time>
      </trkpt>
      <trkpt lat="59.4705015" lon="17.7963039">
        <ele>4.8</ele>
        <time>2012-04-01T14:54:21Z</time>
      </trkpt>
      <trkpt lat="59.4701739" lon="17.796597">
        <ele>7.8</ele>
        <time>2012-04-01T14:54:27Z</time>
      </trkpt>
      <trkpt lat="59.469839" lon="17.7970326">
        <ele>8</ele>
        <time>2012-04-01T14:54:34Z</time>
      </trkpt>
      <trkpt lat="59.4695283" lon="17.7974158">
        <ele>7</ele>
        <time>2012-04-01T14:54:40Z</time>
      </trkpt>
      <trkpt lat="59.46919" lon="17.7979245">
        <ele>4.6</ele>
        <time>2012-04-01T14:54:46Z</time>
      </trkpt>
      <trkpt lat="59.4690935" lon="17.7981276">
        <ele>5.8</ele>
        <time>2012-04-01T14:54:48Z</time>
      </trkpt>
      <trkpt lat="59.4690045" lon="17.7985062">
        <ele>6.8</ele>
        <time>2012-04-01T14:54:51Z</time>
      </trkpt>
      <trkpt lat="59.4690019" lon="17.7992575">
        <ele>8</ele>
        <time>2012-04-01T14:54:56Z</time>
      </trkpt>
      <trkpt lat="59.4692236" lon="17.7999298">
        <ele>8.4</ele>
        <time>2012-04-01T14:55:01Z</time>
      </trkpt>
      <trkpt lat="59.4694839" lon="17.8004862">
        <ele>9.2</ele>
        <time>2012-04-01T14:55:06Z</time>
      </trkpt>
      <trkpt lat="59.469738" lon="17.8010778">
        <ele>10.2</ele>
        <time>2012-04-01T14:55:12Z</time>
      </trkpt>
      <trkpt lat="59.4698856" lon="17.8014417">
        <ele>11.2</ele>
        <time>2012-04-01T14:55:16Z</time>
      </trkpt>
      <trkpt lat="59.4699825" lon="17.8016792">
        <ele>12.2</ele>
        <time>2012-04-01T14:55:19Z</time>
      </trkpt>
      <trkpt lat="59.4700331" lon="17.8018481">
        <ele>13.6</ele>
        <time>2012-04-01T14:55:21Z</time>
      </trkpt>
      <trkpt lat="59.4700812" lon="17.8021439">
        <ele>14.8</ele>
        <time>2012-04-01T14:55:24Z</time>
      </trkpt>
      <trkpt lat="59.4700969" lon="17.8023371">
        <ele>15.8</ele>
        <time>2012-04-01T14:55:26Z</time>
      </trkpt>
      <trkpt lat="59.470057" lon="17.8030742">
        <ele>19.8</ele>
        <time>2012-04-01T14:55:33Z</time>
      </trkpt>
      <trkpt lat="59.4699364" lon="17.8037462">
        <ele>21.6</ele>
        <time>2012-04-01T14:55:40Z</time>
      </trkpt>
      <trkpt lat="59.4697601" lon="17.8044307">
        <ele>22.8</ele>
        <time>2012-04-01T14:55:48Z</time>
      </trkpt>
      <trkpt lat="59.4695969" lon="17.8051032">
        <ele>25</ele>
        <time>2012-04-01T14:55:57Z</time>
      </trkpt>
      <trkpt lat="59.4694344" lon="17.8057794">
        <ele>24.4</ele>
        <time>2012-04-01T14:56:07Z</time>
      </trkpt>
      <trkpt lat="59.4692917" lon="17.8064336">
        <ele>26.4</ele>
        <time>2012-04-01T14:56:17Z</time>
      </trkpt>
      <trkpt lat="59.4691672" lon="17.8071539">
        <ele>28.8</ele>
        <time>2012-04-01T14:56:26Z</time>
      </trkpt>
      <trkpt lat="59.4691451" lon="17.8073134">
        <ele>30</ele>
        <time>2012-04-01T14:56:28Z</time>
      </trkpt>
      <trkpt lat="59.4690666" lon="17.8078899">
        <ele>32.4</ele>
        <time>2012-04-01T14:56:35Z</time>
      </trkpt>
      <trkpt lat="59.4689682" lon="17.8085957">
        <ele>35.2</ele>
        <time>2012-04-01T14:56:43Z</time>
      </trkpt>
      <trkpt lat="59.4688971" lon="17.8089511">
        <ele>34.6</ele>
        <time>2012-04-01T14:56:47Z</time>
      </trkpt>
      <trkpt lat="59.4688093" lon="17.8091907">
        <ele>34.8</ele>
        <time>2012-04-01T14:56:50Z</time>
      </trkpt>
      <trkpt lat="59.4687724" lon="17.8092526">
        <ele>34.4</ele>
        <time>2012-04-01T14:56:51Z</time>
      </trkpt>
      <trkpt lat="59.4686196" lon="17.8093421">
        <ele>34</ele>
        <time>2012-04-01T14:56:54Z</time>
      </trkpt>
      <trkpt lat="59.4685026" lon="17.8093577">
        <ele>33.4</ele>
        <time>2012-04-01T14:56:56Z</time>
      </trkpt>
      <trkpt lat="59.4683859" lon="17.8093354">
        <ele>33.2</ele>
        <time>2012-04-01T14:56:58Z</time>
      </trkpt>
      <trkpt lat="59.4679871" lon="17.8092292">
        <ele>32.6</ele>
        <time>2012-04-01T14:57:05Z</time>
      </trkpt>
      <trkpt lat="59.4675979" lon="17.8092054">
        <ele>33.4</ele>
        <time>2012-04-01T14:57:12Z</time>
      </trkpt>
      <trkpt lat="59.4672405" lon="17.8093348">
        <ele>35.4</ele>
        <time>2012-04-01T14:57:19Z</time>
      </trkpt>
      <trkpt lat="59.4671434" lon="17.8094036">
        <ele>35.8</ele>
        <time>2012-04-01T14:57:21Z</time>
      </trkpt>
      <trkpt lat="59.4668971" lon="17.8096027">
        <ele>37.6</ele>
        <time>2012-04-01T14:57:26Z</time>
      </trkpt>
      <trkpt lat="59.4668525" lon="17.809646">
        <ele>37.8</ele>
        <time>2012-04-01T14:57:27Z</time>
      </trkpt>
      <trkpt lat="59.4667315" lon="17.809797">
        <ele>37.6</ele>
        <time>2012-04-01T14:57:30Z</time>
      </trkpt>
      <trkpt lat="59.4665865" lon="17.8100573">
        <ele>35.2</ele>
        <time>2012-04-01T14:57:34Z</time>
      </trkpt>
      <trkpt lat="59.4663217" lon="17.8105651">
        <ele>34</ele>
        <time>2012-04-01T14:57:41Z</time>
      </trkpt>
      <trkpt lat="59.4660781" lon="17.8112211">
        <ele>33.6</ele>
        <time>2012-04-01T14:57:49Z</time>
      </trkpt>
      <trkpt lat="59.4658337" lon="17.8118535">
        <ele>33.6</ele>
        <time>2012-04-01T14:57:57Z</time>
      </trkpt>
      <trkpt lat="59.4656051" lon="17.8124792">
        <ele>36.2</ele>
        <time>2012-04-01T14:58:04Z</time>
      </trkpt>
      <trkpt lat="59.4654969" lon="17.8127513">
        <ele>37</ele>
        <time>2012-04-01T14:58:07Z</time>
      </trkpt>
      <trkpt lat="59.4652792" lon="17.812746">
        <ele>38.8</ele>
        <time>2012-04-01T14:58:11Z</time>
      </trkpt>
      <trkpt lat="59.4650166" lon="17.8121983">
        <ele>39</ele>
        <time>2012-04-01T14:58:17Z</time>
      </trkpt>
      <trkpt lat="59.4648074" lon="17.8114407">
        <ele>38.4</ele>
        <time>2012-04-01T14:58:23Z</time>
      </trkpt>
      <trkpt lat="59.4646097" lon="17.8107713">
        <ele>37.8</ele>
        <time>2012-04-01T14:58:28Z</time>
      </trkpt>
      <trkpt lat="59.4644131" lon="17.810017">
        <ele>37</ele>
        <time>2012-04-01T14:58:33Z</time>
      </trkpt>
      <trkpt lat="59.4643833" lon="17.8098547">
        <ele>36.6</ele>
        <time>2012-04-01T14:58:34Z</time>
      </trkpt>
      <trkpt lat="59.4643698" lon="17.8092015">
        <ele>37.8</ele>
        <time>2012-04-01T14:58:38Z</time>
      </trkpt>
      <trkpt lat="59.4643967" lon="17.8084164">
        <ele>39</ele>
        <time>2012-04-01T14:58:43Z</time>
      </trkpt>
      <trkpt lat="59.4643837" lon="17.8078123">
        <ele>39.8</ele>
        <time>2012-04-01T14:58:47Z</time>
      </trkpt>
      <trkpt lat="59.464365" lon="17.8076675">
        <ele>40</ele>
        <time>2012-04-01T14:58:48Z</time>
      </trkpt>
      <trkpt lat="59.4641731" lon="17.8069953">
        <ele>40.4</ele>
        <time>2012-04-01T14:58:53Z</time>
      </trkpt>
      <trkpt lat="59.4638612" lon="17.8065423">
        <ele>40.6</ele>
        <time>2012-04-01T14:58:58Z</time>
      </trkpt>
      <trkpt lat="59.4634996" lon="17.8063546">
        <ele>40.4</ele>
        <time>2012-04-01T14:59:03Z</time>
      </trkpt>
      <trkpt lat="59.4631085" lon="17.8063413">
        <ele>40.4</ele>
        <time>2012-04-01T14:59:08Z</time>
      </trkpt>
      <trkpt lat="59.4627106" lon="17.8064222">
        <ele>40.2</ele>
        <time>2012-04-01T14:59:13Z</time>
      </trkpt>
      <trkpt lat="59.4622769" lon="17.8065605">
        <ele>38.8</ele>
        <time>2012-04-01T14:59:18Z</time>
      </trkpt>
      <trkpt lat="59.4618575" lon="17.8065957">
        <ele>39.4</ele>
        <time>2012-04-01T14:59:23Z</time>
      </trkpt>
      <trkpt lat="59.4614611" lon="17.8066283">
        <ele>38.2</ele>
        <time>2012-04-01T14:59:28Z</time>
      </trkpt>
      <trkpt lat="59.4610573" lon="17.8066708">
        <ele>36.6</ele>
        <time>2012-04-01T14:59:33Z</time>
      </trkpt>
      <trkpt lat="59.4606903" lon="17.806675">
        <ele>35.6</ele>
        <time>2012-04-01T14:59:38Z</time>
      </trkpt>
      <trkpt lat="59.4602773" lon="17.8066286">
        <ele>35.6</ele>
        <time>2012-04-01T14:59:44Z</time>
      </trkpt>
      <trkpt lat="59.4598626" lon="17.806575">
        <ele>37</ele>
        <time>2012-04-01T14:59:50Z</time>
      </trkpt>
      <trkpt lat="59.4594772" lon="17.806468">
        <ele>40.6</ele>
        <time>2012-04-01T14:59:56Z</time>
      </trkpt>
      <trkpt lat="59.4590752" lon="17.8063951">
        <ele>40</ele>
        <time>2012-04-01T15:00:02Z</time>
      </trkpt>
      <trkpt lat="59.4587105" lon="17.806311">
        <ele>37.8</ele>
        <time>2012-04-01T15:00:07Z</time>
      </trkpt>
      <trkpt lat="59.4583314" lon="17.8061925">
        <ele>35.2</ele>
        <time>2012-04-01T15:00:12Z</time>
      </trkpt>
      <trkpt lat="59.4579698" lon="17.8060646">
        <ele>33.4</ele>
        <time>2012-04-01T15:00:17Z</time>
      </trkpt>
      <trkpt lat="59.457606" lon="17.8059014">
        <ele>34.6</ele>
        <time>2012-04-01T15:00:23Z</time>
      </trkpt>
      <trkpt lat="59.4574529" lon="17.8058198">
        <ele>36</ele>
        <time>2012-04-01T15:00:26Z</time>
      </trkpt>
      <trkpt lat="59.4573324" lon="17.8057119">
        <ele>36.4</ele>
        <time>2012-04-01T15:00:29Z</time>
      </trkpt>
      <trkpt lat="59.4573051" lon="17.8056549">
        <ele>36.2</ele>
        <time>2012-04-01T15:00:30Z</time>
      </trkpt>
      <trkpt lat="59.4573793" lon="17.8052405">
        <ele>37</ele>
        <time>2012-04-01T15:00:36Z</time>
      </trkpt>
      <trkpt lat="59.4574801" lon="17.8050337">
        <ele>35.2</ele>
        <time>2012-04-01T15:00:39Z</time>
      </trkpt>
      <trkpt lat="59.4577888" lon="17.8046359">
        <ele>31.8</ele>
        <time>2012-04-01T15:00:46Z</time>
      </trkpt>
      <trkpt lat="59.4579854" lon="17.804449">
        <ele>28.8</ele>
        <time>2012-04-01T15:00:50Z</time>
      </trkpt>
      <trkpt lat="59.4581573" lon="17.8043935">
        <ele>25.8</ele>
        <time>2012-04-01T15:00:53Z</time>
      </trkpt>
      <trkpt lat="59.4582156" lon="17.804391">
        <ele>26</ele>
        <time>2012-04-01T15:00:54Z</time>
      </trkpt>
      <trkpt lat="59.4583899" lon="17.8043972">
        <ele>26.6</ele>
        <time>2012-04-01T15:00:57Z</time>
      </trkpt>
      <trkpt lat="59.4585567" lon="17.8044226">
        <ele>27</ele>
        <time>2012-04-01T15:01:00Z</time>
      </trkpt>
    </trkseg>
  </trk>
</gpx>